Darstellungsparameter: Aktuell verwendete Einstellungen:
Skalierung der Graphiken ... ?
xyx+y,   Skalierungsfaktor:      Skalierung: Modus: x, Faktor: 1
Darstellungszeitraum ... ?
Vom - - bis: - -   Zeitraum: 13.01.2017 - 13.07.2017
Min/Max/Avg-Anzeige ... ?
Zeige MMA aktuell
Zeige MMA Monat
Zeige MMA alles
Zeige --A aktuell
Zeige --A Monat
Zeige --A alles
Keine MMA-Anzeige
MMA:
Keine MMA-Graphiken
MMA-Basis: 13.01.2017 - 13.07.2017
Quicknavigation für Darstellung... ?
Tage:      1T, 2T, 3T, 5T -1T -2T -3T -5T +1T +2T +3T +5T
Wochen: 1W, 2W, 3W -1W -2W -3W +1W +2W +3W
Monate: 1M, 3M, 6M -1M -3M -6M +1M +3M +6M
Jahre:    1J, 3J, 5J, 10J -1J -3J -5J -10J +1J +3J +5J +10J
Nutze für die Darstellung ... ?
Originaldaten oder Mittelwerte auf ...
Stundenbasis Tagesbasis Wochenbasis
Monatsbasis Jahresbasis      Datenbasis: Original-Daten
Darstellen als:
Statistik (Auto) Statistik J:M      Darstellung:
Zur Graphik,    zurück zur Übersicht aller Sensoren.
 
Tabellarische Datenbersicht: ?
 
Sensor: Nr:Datum:Temp:Abs-Feuchte:Windchill:Wind:
Aussen-T/F 1 13-01-2017 00:00:00 4.5 C 6.31 g/m*3 4.5 C 4.8 km/h
2 13-01-2017 00:05:00 4.6 C 6.35 g/m*3 4.6 C 1.6 km/h
3 13-01-2017 00:10:00 4.6 C 6.35 g/m*3 4.6 C 3.2 km/h
4 13-01-2017 00:15:00 4.6 C 6.35 g/m*3 4.6 C 4.8 km/h
5 13-01-2017 00:20:00 4.6 C 6.35 g/m*3 2.25 C 9.7 km/h
6 13-01-2017 00:25:00 4.7 C 6.39 g/m*3 4.7 C 3.2 km/h
7 13-01-2017 00:30:00 4.7 C 6.39 g/m*3 2.37 C 9.7 km/h
8 13-01-2017 00:35:00 4.7 C 6.39 g/m*3 1.73 C 12.9 km/h
9 13-01-2017 00:40:00 4.9 C 6.48 g/m*3 1.97 C 12.9 km/h
10 13-01-2017 00:45:00 5.1 C 6.57 g/m*3 1.71 C 16.1 km/h
11 13-01-2017 00:50:00 5.2 C 6.54 g/m*3 2.63 C 11.3 km/h
12 13-01-2017 00:55:00 5.3 C 6.58 g/m*3 0.99 C 24.1 km/h
13 13-01-2017 01:00:00 5.3 C 6.45 g/m*3 0.67 C 27.4 km/h
14 13-01-2017 01:05:00 5.4 C 6.35 g/m*3 0.8 C 27.4 km/h
15 13-01-2017 01:10:00 5.4 C 6.21 g/m*3 1.29 C 22.5 km/h
16 13-01-2017 01:15:00 5.4 C 6.14 g/m*3 0.66 C 29 km/h
17 13-01-2017 01:20:00 5.3 C 6.17 g/m*3 3.46 C 8.1 km/h
18 13-01-2017 01:25:00 5.3 C 6.1 g/m*3 2.2 C 14.5 km/h
19 13-01-2017 01:30:00 5.2 C 6.06 g/m*3 0.4 C 29 km/h
20 13-01-2017 01:35:00 5.1 C 6.02 g/m*3 0 C 32.2 km/h
21 13-01-2017 01:40:00 4.8 C 5.97 g/m*3 -0.26 C 30.6 km/h
22 13-01-2017 01:45:00 4.6 C 5.89 g/m*3 -0.07 C 25.7 km/h
23 13-01-2017 01:50:00 4.4 C 5.81 g/m*3 -0.92 C 32.2 km/h
24 13-01-2017 01:55:00 4.2 C 5.73 g/m*3 -0.9 C 29 km/h
25 13-01-2017 02:00:00 4.1 C 5.7 g/m*3 -1.18 C 30.6 km/h
Sensor: Nr:Datum:Temp:Abs-Feuchte:Windchill:Wind:
Aussen-T/F 26 13-01-2017 02:05:00 3.9 C 5.62 g/m*3 -0.97 C 25.7 km/h
27 13-01-2017 02:10:00 3.8 C 5.58 g/m*3 -2.33 C 40.2 km/h
28 13-01-2017 02:15:00 3.8 C 5.58 g/m*3 -2.21 C 38.6 km/h
29 13-01-2017 02:20:00 3.7 C 5.55 g/m*3 -2.35 C 38.6 km/h
30 13-01-2017 02:25:00 3.6 C 5.51 g/m*3 -1.83 C 30.6 km/h
31 13-01-2017 02:30:00 3.4 C 5.44 g/m*3 -2.23 C 32.2 km/h
32 13-01-2017 02:35:00 3.3 C 5.46 g/m*3 -2.88 C 38.6 km/h
33 13-01-2017 02:40:00 3.2 C 5.42 g/m*3 -2.76 C 35.4 km/h
34 13-01-2017 02:45:00 3.2 C 5.42 g/m*3 -2.76 C 35.4 km/h
35 13-01-2017 02:50:00 3.1 C 5.45 g/m*3 -2.9 C 35.4 km/h
36 13-01-2017 02:55:00 3.1 C 5.45 g/m*3 -3.02 C 37 km/h
37 13-01-2017 03:00:00 3.1 C 5.45 g/m*3 -3.02 C 37 km/h
38 13-01-2017 03:05:00 3.1 C 5.39 g/m*3 -2.63 C 32.2 km/h
39 13-01-2017 03:10:00 3.1 C 5.39 g/m*3 -2 C 25.7 km/h
40 13-01-2017 03:15:00 3.1 C 5.39 g/m*3 -2.76 C 33.8 km/h
41 13-01-2017 03:20:00 3.1 C 5.39 g/m*3 -2.63 C 32.2 km/h
42 13-01-2017 03:25:00 3.1 C 5.39 g/m*3 -2.9 C 35.4 km/h
43 13-01-2017 03:30:00 3.1 C 5.39 g/m*3 -2.76 C 33.8 km/h
44 13-01-2017 03:35:00 3.2 C 5.36 g/m*3 -2.35 C 30.6 km/h
45 13-01-2017 03:40:00 3.2 C 5.36 g/m*3 -3.25 C 41.8 km/h
46 13-01-2017 03:45:00 3.2 C 5.36 g/m*3 -3.01 C 38.6 km/h
47 13-01-2017 03:50:00 3.2 C 5.36 g/m*3 -3.01 C 38.6 km/h
48 13-01-2017 03:55:00 3.2 C 5.36 g/m*3 -2.05 C 27.4 km/h
49 13-01-2017 04:00:00 3.1 C 5.33 g/m*3 -2.63 C 32.2 km/h
50 13-01-2017 04:05:00 3.2 C 5.36 g/m*3 -2.35 C 30.6 km/h
Sensor: Nr:Datum:Temp:Abs-Feuchte:Windchill:Wind:
Aussen-T/F 51 13-01-2017 04:10:00 3.2 C 5.36 g/m*3 -1.51 C 22.5 km/h
52 13-01-2017 04:15:00 3.1 C 5.33 g/m*3 -1.24 C 19.3 km/h
53 13-01-2017 04:20:00 3.1 C 5.39 g/m*3 -1.83 C 24.1 km/h
54 13-01-2017 04:25:00 3 C 5.35 g/m*3 -1.14 C 17.7 km/h
55 13-01-2017 04:30:00 3 C 5.35 g/m*3 -1.14 C 17.7 km/h
56 13-01-2017 04:35:00 2.9 C 5.37 g/m*3 -1.49 C 19.3 km/h
57 13-01-2017 04:40:00 2.9 C 5.37 g/m*3 -1.26 C 17.7 km/h
58 13-01-2017 04:45:00 2.8 C 5.4 g/m*3 -2.21 C 24.1 km/h
59 13-01-2017 04:50:00 2.8 C 5.4 g/m*3 -2.39 C 25.7 km/h
60 13-01-2017 04:55:00 2.7 C 5.36 g/m*3 -2.15 C 22.5 km/h
61 13-01-2017 05:00:00 2.7 C 5.42 g/m*3 -2.69 C 27.4 km/h
62 13-01-2017 05:05:00 2.7 C 5.42 g/m*3 -2.52 C 25.7 km/h
63 13-01-2017 05:10:00 2.7 C 5.42 g/m*3 -2.15 C 22.5 km/h
64 13-01-2017 05:15:00 2.7 C 5.42 g/m*3 -2.34 C 24.1 km/h
65 13-01-2017 05:20:00 2.6 C 5.38 g/m*3 -1.87 C 19.3 km/h
66 13-01-2017 05:25:00 2.6 C 5.38 g/m*3 -2.64 C 25.7 km/h
67 13-01-2017 05:30:00 2.4 C 5.31 g/m*3 -3.55 C 32.2 km/h
68 13-01-2017 05:35:00 2.3 C 5.33 g/m*3 -2.66 C 22.5 km/h
69 13-01-2017 05:40:00 2.1 C 5.26 g/m*3 -2.92 C 22.5 km/h
70 13-01-2017 05:45:00 2.1 C 5.26 g/m*3 -3.29 C 25.7 km/h
71 13-01-2017 05:50:00 2 C 5.22 g/m*3 -3.76 C 29 km/h
72 13-01-2017 05:55:00 1.9 C 5.19 g/m*3 -3.36 C 24.1 km/h
73 13-01-2017 06:00:00 1.9 C 5.24 g/m*3 -3.36 C 24.1 km/h
74 13-01-2017 06:05:00 1.8 C 5.15 g/m*3 -3.68 C 25.7 km/h
75 13-01-2017 06:10:00 1.8 C 5.21 g/m*3 -2.64 C 17.7 km/h
Sensor: Nr:Datum:Temp:Abs-Feuchte:Windchill:Wind:
Aussen-T/F 76 13-01-2017 06:15:00 1.8 C 5.21 g/m*3 -2.87 C 19.3 km/h
77 13-01-2017 06:20:00 1.8 C 5.21 g/m*3 -4.33 C 32.2 km/h
78 13-01-2017 06:25:00 1.8 C 5.21 g/m*3 -3.49 C 24.1 km/h
79 13-01-2017 06:30:00 1.8 C 5.21 g/m*3 -2.87 C 19.3 km/h
80 13-01-2017 06:35:00 1.8 C 5.21 g/m*3 -2.64 C 17.7 km/h
81 13-01-2017 06:40:00 1.8 C 5.21 g/m*3 -3.3 C 22.5 km/h
82 13-01-2017 06:45:00 1.7 C 5.17 g/m*3 -3 C 19.3 km/h
83 13-01-2017 06:50:00 1.7 C 5.17 g/m*3 -3.62 C 24.1 km/h
84 13-01-2017 06:55:00 1.7 C 5.17 g/m*3 -3.8 C 25.7 km/h
85 13-01-2017 07:00:00 1.7 C 5.17 g/m*3 -2.51 C 16.1 km/h
86 13-01-2017 07:05:00 1.7 C 5.17 g/m*3 -3.22 C 20.9 km/h
87 13-01-2017 07:10:00 1.7 C 5.17 g/m*3 -3.22 C 20.9 km/h
88 13-01-2017 07:15:00 1.7 C 5.17 g/m*3 -2.76 C 17.7 km/h
89 13-01-2017 07:20:00 1.7 C 5.17 g/m*3 -1.93 C 12.9 km/h
90 13-01-2017 07:25:00 1.7 C 5.17 g/m*3 -2.51 C 16.1 km/h
91 13-01-2017 07:30:00 1.7 C 5.17 g/m*3 -3.99 C 27.4 km/h
92 13-01-2017 07:35:00 1.8 C 5.21 g/m*3 -3.49 C 24.1 km/h
93 13-01-2017 07:40:00 1.8 C 5.21 g/m*3 -2.87 C 19.3 km/h
94 13-01-2017 07:45:00 1.8 C 5.21 g/m*3 -1.8 C 12.9 km/h
95 13-01-2017 07:50:00 1.8 C 5.21 g/m*3 -2.38 C 16.1 km/h
96 13-01-2017 07:55:00 1.7 C 5.17 g/m*3 -2.51 C 16.1 km/h
97 13-01-2017 08:00:00 1.7 C 5.17 g/m*3 -2.76 C 17.7 km/h
98 13-01-2017 08:05:00 1.7 C 5.23 g/m*3 -2.76 C 17.7 km/h
99 13-01-2017 08:10:00 1.7 C 5.23 g/m*3 -2.51 C 16.1 km/h
100 13-01-2017 08:15:00 1.6 C 5.19 g/m*3 -2.63 C 16.1 km/h
Sensor: Nr:Datum:Temp:Abs-Feuchte:Windchill:Wind:
Aussen-T/F 101 13-01-2017 08:20:00 1.6 C 5.19 g/m*3 -2.89 C 17.7 km/h
102 13-01-2017 08:25:00 1.6 C 5.19 g/m*3 -2.35 C 14.5 km/h
103 13-01-2017 08:30:00 1.7 C 5.23 g/m*3 -3 C 19.3 km/h
104 13-01-2017 08:35:00 1.7 C 5.23 g/m*3 -2.23 C 14.5 km/h
105 13-01-2017 08:40:00 1.8 C 5.26 g/m*3 -3.3 C 22.5 km/h
106 13-01-2017 08:45:00 1.9 C 5.3 g/m*3 -2.97 C 20.9 km/h
107 13-01-2017 08:50:00 2 C 5.28 g/m*3 -3.42 C 25.7 km/h
108 13-01-2017 08:55:00 2.1 C 5.31 g/m*3 -2.26 C 17.7 km/h
109 13-01-2017 09:00:00 2.1 C 5.31 g/m*3 -1.44 C 12.9 km/h
110 13-01-2017 09:05:00 2.1 C 5.26 g/m*3 -1.74 C 14.5 km/h
111 13-01-2017 09:10:00 2.1 C 5.26 g/m*3 -1.74 C 14.5 km/h
112 13-01-2017 09:15:00 2.1 C 5.26 g/m*3 -1.11 C 11.3 km/h
113 13-01-2017 09:20:00 2.1 C 5.31 g/m*3 -0.73 C 9.7 km/h
114 13-01-2017 09:25:00 2.1 C 5.31 g/m*3 -0.73 C 9.7 km/h
115 13-01-2017 09:30:00 2.1 C 5.31 g/m*3 -2.01 C 16.1 km/h
116 13-01-2017 09:35:00 2.1 C 5.31 g/m*3 -1.11 C 11.3 km/h
117 13-01-2017 09:40:00 2.1 C 5.31 g/m*3 -0.3 C 8.1 km/h
118 13-01-2017 09:45:00 2.1 C 5.31 g/m*3 -0.73 C 9.7 km/h
119 13-01-2017 09:50:00 2.1 C 5.31 g/m*3 -1.74 C 14.5 km/h
120 13-01-2017 09:55:00 2.1 C 5.31 g/m*3 -0.73 C 9.7 km/h
121 13-01-2017 10:00:00 2.1 C 5.31 g/m*3 -1.44 C 12.9 km/h
122 13-01-2017 10:05:00 2.1 C 5.31 g/m*3 -0.3 C 8.1 km/h
123 13-01-2017 10:10:00 2.1 C 5.31 g/m*3 -2.5 C 19.3 km/h
124 13-01-2017 10:15:00 2.1 C 5.31 g/m*3 -1.44 C 12.9 km/h
125 13-01-2017 10:20:00 2.2 C 5.35 g/m*3 -0.61 C 9.7 km/h
Sensor: Nr:Datum:Temp:Abs-Feuchte:Windchill:Wind:
Aussen-T/F 126 13-01-2017 10:25:00 2.2 C 5.35 g/m*3 -0.99 C 11.3 km/h
127 13-01-2017 10:30:00 2.2 C 5.35 g/m*3 0.36 C 6.4 km/h
128 13-01-2017 10:35:00 2.2 C 5.35 g/m*3 0.36 C 6.4 km/h
129 13-01-2017 10:40:00 2.2 C 5.35 g/m*3 -0.61 C 9.7 km/h
130 13-01-2017 10:45:00 2.2 C 5.35 g/m*3 -1.89 C 16.1 km/h
131 13-01-2017 10:50:00 2.1 C 5.26 g/m*3 -2.26 C 17.7 km/h
132 13-01-2017 10:55:00 1.9 C 5.19 g/m*3 -1.98 C 14.5 km/h
133 13-01-2017 11:00:00 1.9 C 5.24 g/m*3 -2.51 C 17.7 km/h
134 13-01-2017 11:05:00 1.9 C 5.24 g/m*3 -1.98 C 14.5 km/h
135 13-01-2017 11:10:00 1.9 C 5.24 g/m*3 -0.97 C 9.7 km/h
136 13-01-2017 11:15:00 2 C 5.28 g/m*3 -1.56 C 12.9 km/h
137 13-01-2017 11:20:00 2.1 C 5.31 g/m*3 -0.73 C 9.7 km/h
138 13-01-2017 11:25:00 2.1 C 5.31 g/m*3 -1.44 C 12.9 km/h
139 13-01-2017 11:30:00 2.1 C 5.31 g/m*3 -1.11 C 11.3 km/h
140 13-01-2017 11:35:00 2.1 C 5.31 g/m*3 -0.3 C 8.1 km/h
141 13-01-2017 11:40:00 2.1 C 5.31 g/m*3 -0.73 C 9.7 km/h
142 13-01-2017 11:45:00 2.2 C 5.35 g/m*3 -1.32 C 12.9 km/h
143 13-01-2017 11:50:00 2.2 C 5.35 g/m*3 -1.32 C 12.9 km/h
144 13-01-2017 11:55:00 2.2 C 5.29 g/m*3 -0.61 C 9.7 km/h
145 13-01-2017 12:00:00 2.3 C 5.33 g/m*3 -0.07 C 8.1 km/h
146 13-01-2017 12:05:00 2.3 C 5.33 g/m*3 0.47 C 6.4 km/h
147 13-01-2017 12:10:00 2.4 C 5.37 g/m*3 -0.74 C 11.3 km/h
148 13-01-2017 12:15:00 2.4 C 5.37 g/m*3 -0.37 C 9.7 km/h
149 13-01-2017 12:20:00 2.4 C 5.31 g/m*3 -1.64 C 16.1 km/h
150 13-01-2017 12:25:00 2.4 C 5.31 g/m*3 -0.74 C 11.3 km/h
Sensor: Nr:Datum:Temp:Abs-Feuchte:Windchill:Wind:
Aussen-T/F 151 13-01-2017 12:30:00 2.4 C 5.31 g/m*3 -0.74 C 11.3 km/h
152 13-01-2017 12:35:00 2.4 C 5.25 g/m*3 -1.07 C 12.9 km/h
153 13-01-2017 12:40:00 2.4 C 5.25 g/m*3 -1.89 C 17.7 km/h
154 13-01-2017 12:45:00 2.3 C 5.27 g/m*3 -2.66 C 22.5 km/h
155 13-01-2017 12:50:00 2.3 C 5.27 g/m*3 -0.87 C 11.3 km/h
156 13-01-2017 12:55:00 2.2 C 5.24 g/m*3 -2.14 C 17.7 km/h
157 13-01-2017 13:00:00 2.2 C 5.29 g/m*3 -2.59 C 20.9 km/h
158 13-01-2017 13:05:00 2.2 C 5.29 g/m*3 -0.99 C 11.3 km/h
159 13-01-2017 13:10:00 2.1 C 5.26 g/m*3 -1.11 C 11.3 km/h
160 13-01-2017 13:15:00 2.1 C 5.26 g/m*3 -1.74 C 14.5 km/h
161 13-01-2017 13:20:00 2.1 C 5.26 g/m*3 -1.44 C 12.9 km/h
162 13-01-2017 13:25:00 2.2 C 5.29 g/m*3 -1.32 C 12.9 km/h
163 13-01-2017 13:30:00 2.2 C 5.29 g/m*3 -0.61 C 9.7 km/h
164 13-01-2017 13:35:00 2.3 C 5.33 g/m*3 -1.76 C 16.1 km/h
165 13-01-2017 13:40:00 2.3 C 5.33 g/m*3 -0.87 C 11.3 km/h
166 13-01-2017 13:45:00 2.4 C 5.37 g/m*3 -0.37 C 9.7 km/h
167 13-01-2017 13:50:00 2.5 C 5.4 g/m*3 -0.62 C 11.3 km/h
168 13-01-2017 13:55:00 2.5 C 5.4 g/m*3 0.71 C 6.4 km/h
169 13-01-2017 14:00:00 2.5 C 5.35 g/m*3 0.71 C 6.4 km/h
170 13-01-2017 14:05:00 2.5 C 5.35 g/m*3 0.71 C 6.4 km/h
171 13-01-2017 14:10:00 2.5 C 5.29 g/m*3 -0.62 C 11.3 km/h
172 13-01-2017 14:15:00 2.6 C 5.32 g/m*3 -0.83 C 12.9 km/h
173 13-01-2017 14:20:00 2.7 C 5.3 g/m*3 -0.02 C 9.7 km/h
174 13-01-2017 14:25:00 2.7 C 5.24 g/m*3 0.4 C 8.1 km/h
175 13-01-2017 14:30:00 2.8 C 5.22 g/m*3 0.1 C 9.7 km/h
Sensor: Nr:Datum:Temp:Abs-Feuchte:Windchill:Wind:
Aussen-T/F 176 13-01-2017 14:35:00 2.8 C 5.16 g/m*3 -0.59 C 12.9 km/h
177 13-01-2017 14:40:00 2.8 C 5.16 g/m*3 -1.14 C 16.1 km/h
178 13-01-2017 14:45:00 2.9 C 5.2 g/m*3 1.17 C 6.4 km/h
179 13-01-2017 14:50:00 3 C 5.17 g/m*3 1.28 C 6.4 km/h
180 13-01-2017 14:55:00 3.1 C 5.21 g/m*3 3.1 C 1.6 km/h
181 13-01-2017 15:00:00 3.1 C 5.21 g/m*3 3.1 C 0 km/h
182 13-01-2017 15:05:00 3.1 C 5.33 g/m*3 3.1 C 1.6 km/h
183 13-01-2017 15:10:00 3.1 C 5.33 g/m*3 3.1 C 3.2 km/h
184 13-01-2017 15:15:00 2.9 C 5.32 g/m*3 2.9 C 3.2 km/h
185 13-01-2017 15:20:00 2.7 C 5.19 g/m*3 0.94 C 6.4 km/h
186 13-01-2017 15:25:00 2.6 C 5.09 g/m*3 -0.5 C 11.3 km/h
187 13-01-2017 15:30:00 2.5 C 4.94 g/m*3 0.17 C 8.1 km/h
188 13-01-2017 15:35:00 2.6 C 4.98 g/m*3 2.6 C 4.8 km/h
189 13-01-2017 15:40:00 2.7 C 5.01 g/m*3 2.7 C 4.8 km/h
190 13-01-2017 15:45:00 2.7 C 5.01 g/m*3 -0.02 C 9.7 km/h
191 13-01-2017 15:50:00 2.6 C 4.98 g/m*3 -0.14 C 9.7 km/h
192 13-01-2017 15:55:00 2.4 C 4.74 g/m*3 -1.64 C 16.1 km/h
193 13-01-2017 16:00:00 2.3 C 4.71 g/m*3 -0.49 C 9.7 km/h
194 13-01-2017 16:05:00 2.2 C 4.68 g/m*3 -0.99 C 11.3 km/h
195 13-01-2017 16:10:00 2.2 C 4.73 g/m*3 -0.99 C 11.3 km/h
196 13-01-2017 16:15:00 2.1 C 4.81 g/m*3 0.24 C 6.4 km/h
197 13-01-2017 16:20:00 1.9 C 4.75 g/m*3 0.01 C 6.4 km/h
198 13-01-2017 16:25:00 1.8 C 4.77 g/m*3 1.8 C 4.8 km/h
199 13-01-2017 16:30:00 1.8 C 4.71 g/m*3 -1.09 C 9.7 km/h
200 13-01-2017 16:35:00 1.8 C 4.71 g/m*3 -0.65 C 8.1 km/h
Sensor: Nr:Datum:Temp:Abs-Feuchte:Windchill:Wind:
Aussen-T/F 201 13-01-2017 16:40:00 1.7 C 4.68 g/m*3 1.7 C 4.8 km/h
202 13-01-2017 16:45:00 1.7 C 4.68 g/m*3 -0.22 C 6.4 km/h
203 13-01-2017 16:50:00 1.6 C 4.6 g/m*3 -0.33 C 6.4 km/h
204 13-01-2017 16:55:00 1.6 C 4.49 g/m*3 -0.89 C 8.1 km/h
205 13-01-2017 17:00:00 1.6 C 4.49 g/m*3 -1.71 C 11.3 km/h
206 13-01-2017 17:05:00 1.6 C 4.54 g/m*3 -0.33 C 6.4 km/h
207 13-01-2017 17:10:00 1.5 C 4.51 g/m*3 1.5 C 4.8 km/h
208 13-01-2017 17:15:00 1.4 C 4.53 g/m*3 1.4 C 4.8 km/h
209 13-01-2017 17:20:00 1.2 C 4.47 g/m*3 1.2 C 4.8 km/h
210 13-01-2017 17:25:00 1.1 C 4.49 g/m*3 1.1 C 4.8 km/h
211 13-01-2017 17:30:00 0.9 C 4.43 g/m*3 -1.14 C 6.4 km/h
212 13-01-2017 17:35:00 0.8 C 4.4 g/m*3 -2.67 C 11.3 km/h
213 13-01-2017 17:40:00 0.8 C 4.4 g/m*3 -2.67 C 11.3 km/h
214 13-01-2017 17:45:00 0.9 C 4.43 g/m*3 -1.14 C 6.4 km/h
215 13-01-2017 17:50:00 0.8 C 4.4 g/m*3 -2.28 C 9.7 km/h
216 13-01-2017 17:55:00 0.9 C 4.38 g/m*3 -3.21 C 14.5 km/h
217 13-01-2017 18:00:00 0.9 C 4.38 g/m*3 -2.9 C 12.9 km/h
218 13-01-2017 18:05:00 0.9 C 4.38 g/m*3 -2.16 C 9.7 km/h
219 13-01-2017 18:10:00 0.9 C 4.38 g/m*3 -2.16 C 9.7 km/h
220 13-01-2017 18:15:00 0.9 C 4.38 g/m*3 -1.71 C 8.1 km/h
221 13-01-2017 18:20:00 0.9 C 4.38 g/m*3 -4.23 C 20.9 km/h
222 13-01-2017 18:25:00 1 C 4.41 g/m*3 -3.38 C 16.1 km/h
223 13-01-2017 18:30:00 0.9 C 4.38 g/m*3 -1.71 C 8.1 km/h
224 13-01-2017 18:35:00 0.9 C 4.43 g/m*3 -1.14 C 6.4 km/h
225 13-01-2017 18:40:00 0.9 C 4.43 g/m*3 -1.71 C 8.1 km/h
Sensor: Nr:Datum:Temp:Abs-Feuchte:Windchill:Wind:
Aussen-T/F 226 13-01-2017 18:45:00 0.9 C 4.43 g/m*3 0.9 C 4.8 km/h
227 13-01-2017 18:50:00 0.8 C 4.45 g/m*3 0.8 C 4.8 km/h
228 13-01-2017 18:55:00 0.8 C 4.45 g/m*3 -2.67 C 11.3 km/h
229 13-01-2017 19:00:00 0.8 C 4.4 g/m*3 -2.67 C 11.3 km/h
230 13-01-2017 19:05:00 0.8 C 4.4 g/m*3 0.8 C 3.2 km/h
231 13-01-2017 19:10:00 0.8 C 4.45 g/m*3 -1.26 C 6.4 km/h
232 13-01-2017 19:15:00 0.8 C 4.45 g/m*3 0.8 C 4.8 km/h
233 13-01-2017 19:20:00 0.7 C 4.42 g/m*3 -1.37 C 6.4 km/h
234 13-01-2017 19:25:00 0.7 C 4.42 g/m*3 0.7 C 4.8 km/h
235 13-01-2017 19:30:00 0.6 C 4.39 g/m*3 -3.58 C 14.5 km/h
236 13-01-2017 19:35:00 0.6 C 4.44 g/m*3 -2.92 C 11.3 km/h
237 13-01-2017 19:40:00 0.6 C 4.44 g/m*3 -2.92 C 11.3 km/h
238 13-01-2017 19:45:00 0.6 C 4.44 g/m*3 0.6 C 4.8 km/h
239 13-01-2017 19:50:00 0.6 C 4.44 g/m*3 -1.49 C 6.4 km/h
240 13-01-2017 19:55:00 0.6 C 4.44 g/m*3 -2.06 C 8.1 km/h
241 13-01-2017 20:00:00 0.6 C 4.44 g/m*3 -1.49 C 6.4 km/h
242 13-01-2017 20:05:00 0.6 C 4.44 g/m*3 0.6 C 4.8 km/h
243 13-01-2017 20:10:00 0.7 C 4.47 g/m*3 -1.37 C 6.4 km/h
244 13-01-2017 20:15:00 0.7 C 4.53 g/m*3 0.7 C 4.8 km/h
245 13-01-2017 20:20:00 0.7 C 4.53 g/m*3 -2.4 C 9.7 km/h
246 13-01-2017 20:25:00 0.7 C 4.53 g/m*3 -2.4 C 9.7 km/h
247 13-01-2017 20:30:00 0.7 C 4.53 g/m*3 -4.01 C 17.7 km/h
248 13-01-2017 20:35:00 0.8 C 4.56 g/m*3 -3.02 C 12.9 km/h
249 13-01-2017 20:40:00 0.9 C 4.59 g/m*3 -3.5 C 16.1 km/h
250 13-01-2017 20:45:00 1.1 C 4.6 g/m*3 -3.51 C 17.7 km/h
Sensor: Nr:Datum:Temp:Abs-Feuchte:Windchill:Wind:
Aussen-T/F 251 13-01-2017 20:50:00 1.2 C 4.63 g/m*3 -3.63 C 19.3 km/h
252 13-01-2017 20:55:00 1.3 C 4.66 g/m*3 -2.41 C 12.9 km/h
253 13-01-2017 21:00:00 1.3 C 4.66 g/m*3 -1.69 C 9.7 km/h
254 13-01-2017 21:05:00 1.3 C 4.61 g/m*3 -2.41 C 12.9 km/h
255 13-01-2017 21:10:00 1.4 C 4.69 g/m*3 -2.88 C 16.1 km/h
256 13-01-2017 21:15:00 1.5 C 4.73 g/m*3 -2.17 C 12.9 km/h
257 13-01-2017 21:20:00 1.5 C 4.73 g/m*3 -1.01 C 8.1 km/h
258 13-01-2017 21:25:00 1.5 C 4.78 g/m*3 -1.45 C 9.7 km/h
259 13-01-2017 21:30:00 1.4 C 4.8 g/m*3 -1.95 C 11.3 km/h
260 13-01-2017 21:35:00 1.3 C 4.82 g/m*3 -1.24 C 8.1 km/h
261 13-01-2017 21:40:00 1.2 C 4.84 g/m*3 -0.8 C 6.4 km/h
262 13-01-2017 21:45:00 1.2 C 4.84 g/m*3 -2.19 C 11.3 km/h
263 13-01-2017 21:50:00 1.1 C 4.86 g/m*3 -1.48 C 8.1 km/h
264 13-01-2017 21:55:00 1.1 C 4.86 g/m*3 -1.48 C 8.1 km/h
265 13-01-2017 22:00:00 1.1 C 4.91 g/m*3 -0.91 C 6.4 km/h
266 13-01-2017 22:05:00 1.1 C 4.91 g/m*3 -1.92 C 9.7 km/h
267 13-01-2017 22:10:00 1.1 C 4.91 g/m*3 -1.92 C 9.7 km/h
268 13-01-2017 22:15:00 1 C 4.88 g/m*3 -1.59 C 8.1 km/h
269 13-01-2017 22:20:00 1 C 4.93 g/m*3 -1.03 C 6.4 km/h
270 13-01-2017 22:25:00 0.9 C 4.9 g/m*3 0.9 C 4.8 km/h
271 13-01-2017 22:30:00 0.9 C 4.9 g/m*3 -1.14 C 6.4 km/h
272 13-01-2017 22:35:00 1 C 4.93 g/m*3 1 C 3.2 km/h
273 13-01-2017 22:40:00 1 C 4.93 g/m*3 -1.59 C 8.1 km/h
274 13-01-2017 22:45:00 1 C 4.93 g/m*3 1 C 4.8 km/h
275 13-01-2017 22:50:00 1 C 4.93 g/m*3 -1.03 C 6.4 km/h
Sensor: Nr:Datum:Temp:Abs-Feuchte:Windchill:Wind:
Aussen-T/F 276 13-01-2017 22:55:00 1 C 4.93 g/m*3 1 C 3.2 km/h
277 13-01-2017 23:00:00 1.1 C 4.96 g/m*3 -1.48 C 8.1 km/h
278 13-01-2017 23:05:00 1.1 C 4.96 g/m*3 1.1 C 1.6 km/h
279 13-01-2017 23:10:00 1.1 C 4.96 g/m*3 1.1 C 1.6 km/h
280 13-01-2017 23:15:00 1.1 C 4.96 g/m*3 1.1 C 3.2 km/h
281 13-01-2017 23:20:00 1.1 C 4.96 g/m*3 1.1 C 3.2 km/h
282 13-01-2017 23:25:00 1.1 C 4.96 g/m*3 1.1 C 3.2 km/h
283 13-01-2017 23:30:00 1.1 C 4.96 g/m*3 1.1 C 3.2 km/h
284 13-01-2017 23:35:00 1.2 C 5.05 g/m*3 -0.8 C 6.4 km/h
285 13-01-2017 23:40:00 1.2 C 5.05 g/m*3 -0.8 C 6.4 km/h
286 13-01-2017 23:45:00 1.3 C 5.09 g/m*3 1.3 C 3.2 km/h
287 13-01-2017 23:50:00 1.3 C 5.09 g/m*3 1.3 C 3.2 km/h
288 13-01-2017 23:55:00 1.3 C 5.09 g/m*3 1.3 C 3.2 km/h
289 14-01-2017 00:00:00 1.4 C 5.12 g/m*3 1.4 C 4.8 km/h
290 14-01-2017 00:05:00 1.5 C 5.16 g/m*3 1.5 C 4.8 km/h
291 14-01-2017 00:10:00 1.6 C 5.19 g/m*3 1.6 C 3.2 km/h
292 14-01-2017 00:15:00 1.8 C 5.26 g/m*3 1.8 C 1.6 km/h
293 14-01-2017 00:20:00 1.9 C 5.3 g/m*3 1.9 C 3.2 km/h
294 14-01-2017 00:25:00 2.1 C 5.37 g/m*3 2.1 C 4.8 km/h
295 14-01-2017 00:30:00 2.2 C 5.41 g/m*3 -0.18 C 8.1 km/h
296 14-01-2017 00:35:00 2.3 C 5.44 g/m*3 -1.2 C 12.9 km/h
297 14-01-2017 00:40:00 2.4 C 5.48 g/m*3 2.4 C 4.8 km/h
298 14-01-2017 00:45:00 2.4 C 5.48 g/m*3 0.05 C 8.1 km/h
299 14-01-2017 00:50:00 2.4 C 5.48 g/m*3 -0.37 C 9.7 km/h
300 14-01-2017 00:55:00 2.6 C 5.56 g/m*3 -0.5 C 11.3 km/h
Sensor: Nr:Datum:Temp:Abs-Feuchte:Windchill:Wind:
Aussen-T/F 301 14-01-2017 01:00:00 2.7 C 5.59 g/m*3 0.94 C 6.4 km/h
302 14-01-2017 01:05:00 2.7 C 5.54 g/m*3 2.7 C 4.8 km/h
303 14-01-2017 01:10:00 2.7 C 5.54 g/m*3 -0.02 C 9.7 km/h
304 14-01-2017 01:15:00 2.7 C 5.54 g/m*3 -0.38 C 11.3 km/h
305 14-01-2017 01:20:00 2.8 C 5.57 g/m*3 2.8 C 4.8 km/h
306 14-01-2017 01:25:00 2.9 C 5.61 g/m*3 -0.76 C 14.5 km/h
307 14-01-2017 01:30:00 2.9 C 5.61 g/m*3 -0.76 C 14.5 km/h
308 14-01-2017 01:35:00 3 C 5.59 g/m*3 -0.9 C 16.1 km/h
309 14-01-2017 01:40:00 3.1 C 5.57 g/m*3 0.87 C 8.1 km/h
310 14-01-2017 01:45:00 3.2 C 5.6 g/m*3 -2.2 C 29 km/h
311 14-01-2017 01:50:00 3.3 C 5.58 g/m*3 0.34 C 11.3 km/h
312 14-01-2017 01:55:00 3.3 C 5.58 g/m*3 1.63 C 6.4 km/h
313 14-01-2017 02:00:00 3.3 C 5.58 g/m*3 0.34 C 11.3 km/h
314 14-01-2017 02:05:00 3.3 C 5.58 g/m*3 0.02 C 12.9 km/h
315 14-01-2017 02:10:00 3.3 C 5.58 g/m*3 1.63 C 6.4 km/h
316 14-01-2017 02:15:00 3.2 C 5.54 g/m*3 0.58 C 9.7 km/h
317 14-01-2017 02:20:00 3.2 C 5.54 g/m*3 0.58 C 9.7 km/h
318 14-01-2017 02:25:00 3.3 C 5.58 g/m*3 0.34 C 11.3 km/h
319 14-01-2017 02:30:00 3.4 C 5.62 g/m*3 0.14 C 12.9 km/h
320 14-01-2017 02:35:00 3.4 C 5.56 g/m*3 -0.4 C 16.1 km/h
321 14-01-2017 02:40:00 3.6 C 5.57 g/m*3 -0.61 C 19.3 km/h
322 14-01-2017 02:45:00 3.6 C 5.57 g/m*3 -1.19 C 24.1 km/h
323 14-01-2017 02:50:00 3.6 C 5.57 g/m*3 0.39 C 12.9 km/h
324 14-01-2017 02:55:00 3.6 C 5.51 g/m*3 0.39 C 12.9 km/h
325 14-01-2017 03:00:00 3.6 C 5.51 g/m*3 1.98 C 6.4 km/h
Sensor: Nr:Datum:Temp:Abs-Feuchte:Windchill:Wind:
Aussen-T/F 326 14-01-2017 03:05:00 3.6 C 5.51 g/m*3 0.7 C 11.3 km/h
327 14-01-2017 03:10:00 3.6 C 5.51 g/m*3 0.7 C 11.3 km/h
328 14-01-2017 03:15:00 3.6 C 5.45 g/m*3 0.11 C 14.5 km/h
329 14-01-2017 03:20:00 3.6 C 5.39 g/m*3 0.11 C 14.5 km/h
330 14-01-2017 03:25:00 3.6 C 5.39 g/m*3 1.06 C 9.7 km/h
331 14-01-2017 03:30:00 3.6 C 5.39 g/m*3 0.39 C 12.9 km/h
332 14-01-2017 03:35:00 3.6 C 5.39 g/m*3 0.7 C 11.3 km/h
333 14-01-2017 03:40:00 3.5 C 5.35 g/m*3 -0.02 C 14.5 km/h
334 14-01-2017 03:45:00 3.5 C 5.29 g/m*3 0.94 C 9.7 km/h
335 14-01-2017 03:50:00 3.5 C 5.29 g/m*3 1.86 C 6.4 km/h
336 14-01-2017 03:55:00 3.5 C 5.29 g/m*3 0.58 C 11.3 km/h
337 14-01-2017 04:00:00 3.5 C 5.29 g/m*3 0.58 C 11.3 km/h
338 14-01-2017 04:05:00 3.5 C 5.23 g/m*3 1.34 C 8.1 km/h
339 14-01-2017 04:10:00 3.5 C 5.16 g/m*3 1.34 C 8.1 km/h
340 14-01-2017 04:15:00 3.5 C 5.1 g/m*3 -0.02 C 14.5 km/h
341 14-01-2017 04:20:00 3.6 C 5.08 g/m*3 0.11 C 14.5 km/h
342 14-01-2017 04:25:00 3.6 C 5.08 g/m*3 3.6 C 4.8 km/h
343 14-01-2017 04:30:00 3.6 C 5.08 g/m*3 -0.15 C 16.1 km/h
344 14-01-2017 04:35:00 3.6 C 5.08 g/m*3 0.39 C 12.9 km/h
345 14-01-2017 04:40:00 3.6 C 5.08 g/m*3 0.11 C 14.5 km/h
346 14-01-2017 04:45:00 3.6 C 5.08 g/m*3 -0.39 C 17.7 km/h
347 14-01-2017 04:50:00 3.6 C 5.14 g/m*3 1.06 C 9.7 km/h
348 14-01-2017 04:55:00 3.6 C 5.08 g/m*3 -1.01 C 22.5 km/h
349 14-01-2017 05:00:00 3.6 C 5.08 g/m*3 0.39 C 12.9 km/h
350 14-01-2017 05:05:00 3.6 C 5.14 g/m*3 1.98 C 6.4 km/h
Sensor: Nr:Datum:Temp:Abs-Feuchte:Windchill:Wind:
Aussen-T/F 351 14-01-2017 05:10:00 3.6 C 5.14 g/m*3 1.06 C 9.7 km/h
352 14-01-2017 05:15:00 3.5 C 5.04 g/m*3 1.86 C 6.4 km/h
353 14-01-2017 05:20:00 3.5 C 5.04 g/m*3 1.34 C 8.1 km/h
354 14-01-2017 05:25:00 3.4 C 5.01 g/m*3 0.82 C 9.7 km/h
355 14-01-2017 05:30:00 3.3 C 4.97 g/m*3 0.34 C 11.3 km/h
356 14-01-2017 05:35:00 3.3 C 4.91 g/m*3 -0.99 C 19.3 km/h
357 14-01-2017 05:40:00 3.3 C 4.97 g/m*3 0.02 C 12.9 km/h
358 14-01-2017 05:45:00 3.2 C 4.94 g/m*3 -0.39 C 14.5 km/h
359 14-01-2017 05:50:00 3.2 C 4.88 g/m*3 0.22 C 11.3 km/h
360 14-01-2017 05:55:00 3.1 C 4.85 g/m*3 0.87 C 8.1 km/h
361 14-01-2017 06:00:00 3 C 4.76 g/m*3 -1.36 C 19.3 km/h
362 14-01-2017 06:05:00 2.9 C 4.67 g/m*3 0.22 C 9.7 km/h
363 14-01-2017 06:10:00 3 C 4.82 g/m*3 1.28 C 6.4 km/h
364 14-01-2017 06:15:00 2.9 C 4.78 g/m*3 1.17 C 6.4 km/h
365 14-01-2017 06:20:00 2.9 C 4.78 g/m*3 -0.76 C 14.5 km/h
366 14-01-2017 06:25:00 2.9 C 4.78 g/m*3 -0.76 C 14.5 km/h
367 14-01-2017 06:30:00 3 C 4.82 g/m*3 -0.02 C 11.3 km/h
368 14-01-2017 06:35:00 3 C 4.82 g/m*3 -0.34 C 12.9 km/h
369 14-01-2017 06:40:00 3 C 4.88 g/m*3 1.28 C 6.4 km/h
370 14-01-2017 06:45:00 3 C 4.88 g/m*3 3 C 4.8 km/h
371 14-01-2017 06:50:00 2.9 C 4.84 g/m*3 0.64 C 8.1 km/h
372 14-01-2017 06:55:00 2.9 C 4.78 g/m*3 0.64 C 8.1 km/h
373 14-01-2017 07:00:00 2.9 C 4.84 g/m*3 0.64 C 8.1 km/h
374 14-01-2017 07:05:00 2.9 C 4.84 g/m*3 0.22 C 9.7 km/h
375 14-01-2017 07:10:00 3 C 4.82 g/m*3 -0.63 C 14.5 km/h
Sensor: Nr:Datum:Temp:Abs-Feuchte:Windchill:Wind:
Aussen-T/F 376 14-01-2017 07:15:00 3.1 C 4.85 g/m*3 0.1 C 11.3 km/h
377 14-01-2017 07:20:00 3.1 C 4.85 g/m*3 -0.51 C 14.5 km/h
378 14-01-2017 07:25:00 3.1 C 4.85 g/m*3 -1.45 C 20.9 km/h
379 14-01-2017 07:30:00 3 C 4.76 g/m*3 -1.14 C 17.7 km/h
380 14-01-2017 07:35:00 2.9 C 4.72 g/m*3 -1.49 C 19.3 km/h
381 14-01-2017 07:40:00 2.9 C 4.72 g/m*3 -1.02 C 16.1 km/h
382 14-01-2017 07:45:00 2.8 C 4.69 g/m*3 0.52 C 8.1 km/h
383 14-01-2017 07:50:00 2.8 C 4.75 g/m*3 -0.26 C 11.3 km/h
384 14-01-2017 07:55:00 2.7 C 4.72 g/m*3 -0.02 C 9.7 km/h
385 14-01-2017 08:00:00 2.7 C 4.72 g/m*3 -0.71 C 12.9 km/h
386 14-01-2017 08:05:00 2.7 C 4.72 g/m*3 -1.27 C 16.1 km/h
387 14-01-2017 08:10:00 2.8 C 4.75 g/m*3 0.52 C 8.1 km/h
388 14-01-2017 08:15:00 2.8 C 4.75 g/m*3 1.05 C 6.4 km/h
389 14-01-2017 08:20:00 2.7 C 4.72 g/m*3 -0.38 C 11.3 km/h
390 14-01-2017 08:25:00 2.8 C 4.75 g/m*3 -1.39 C 17.7 km/h
391 14-01-2017 08:30:00 2.8 C 4.75 g/m*3 1.05 C 6.4 km/h
392 14-01-2017 08:35:00 2.7 C 4.72 g/m*3 -0.38 C 11.3 km/h
393 14-01-2017 08:40:00 2.7 C 4.72 g/m*3 -0.71 C 12.9 km/h
394 14-01-2017 08:45:00 2.7 C 4.72 g/m*3 -0.02 C 9.7 km/h
395 14-01-2017 08:50:00 2.7 C 4.72 g/m*3 0.4 C 8.1 km/h
396 14-01-2017 08:55:00 2.7 C 4.72 g/m*3 -0.71 C 12.9 km/h
397 14-01-2017 09:00:00 2.7 C 4.72 g/m*3 -1.27 C 16.1 km/h
398 14-01-2017 09:05:00 2.7 C 4.72 g/m*3 -2.15 C 22.5 km/h
399 14-01-2017 09:10:00 2.8 C 4.75 g/m*3 0.1 C 9.7 km/h
400 14-01-2017 09:15:00 2.8 C 4.75 g/m*3 1.05 C 6.4 km/h
Sensor: Nr:Datum:Temp:Abs-Feuchte:Windchill:Wind:
Aussen-T/F 401 14-01-2017 09:20:00 2.7 C 4.72 g/m*3 -0.71 C 12.9 km/h
402 14-01-2017 09:25:00 2.8 C 4.81 g/m*3 0.1 C 9.7 km/h
403 14-01-2017 09:30:00 2.7 C 4.78 g/m*3 -0.38 C 11.3 km/h
404 14-01-2017 09:35:00 2.7 C 4.78 g/m*3 2.7 C 4.8 km/h
405 14-01-2017 09:40:00 2.8 C 4.81 g/m*3 -0.59 C 12.9 km/h
406 14-01-2017 09:45:00 2.7 C 4.78 g/m*3 -1.27 C 16.1 km/h
407 14-01-2017 09:50:00 2.7 C 4.78 g/m*3 -0.02 C 9.7 km/h
408 14-01-2017 09:55:00 2.7 C 4.78 g/m*3 0.94 C 6.4 km/h
409 14-01-2017 10:00:00 2.8 C 4.81 g/m*3 -1.39 C 17.7 km/h
410 14-01-2017 10:05:00 2.8 C 4.81 g/m*3 -1.61 C 19.3 km/h
411 14-01-2017 10:10:00 2.7 C 4.78 g/m*3 -0.02 C 9.7 km/h
412 14-01-2017 10:15:00 2.7 C 4.78 g/m*3 -1 C 14.5 km/h
413 14-01-2017 10:20:00 2.7 C 4.78 g/m*3 0.94 C 6.4 km/h
414 14-01-2017 10:25:00 2.7 C 4.78 g/m*3 -1.95 C 20.9 km/h
415 14-01-2017 10:30:00 2.7 C 4.89 g/m*3 -0.38 C 11.3 km/h
416 14-01-2017 10:35:00 2.6 C 4.92 g/m*3 -0.14 C 9.7 km/h
417 14-01-2017 10:40:00 2.5 C 4.94 g/m*3 -1.76 C 17.7 km/h
418 14-01-2017 10:45:00 2.4 C 4.97 g/m*3 2.4 C 4.8 km/h
419 14-01-2017 10:50:00 2.4 C 5.02 g/m*3 -1.64 C 16.1 km/h
420 14-01-2017 10:55:00 2.4 C 4.97 g/m*3 0.05 C 8.1 km/h
421 14-01-2017 11:00:00 2.4 C 5.02 g/m*3 0.59 C 6.4 km/h
422 14-01-2017 11:05:00 2.4 C 4.97 g/m*3 -1.37 C 14.5 km/h
423 14-01-2017 11:10:00 2.6 C 4.98 g/m*3 -0.83 C 12.9 km/h
424 14-01-2017 11:15:00 2.6 C 4.92 g/m*3 -1.87 C 19.3 km/h
425 14-01-2017 11:20:00 2.7 C 4.95 g/m*3 -0.71 C 12.9 km/h
Sensor: Nr:Datum:Temp:Abs-Feuchte:Windchill:Wind:
Aussen-T/F 426 14-01-2017 11:25:00 2.8 C 4.93 g/m*3 -1.61 C 19.3 km/h
427 14-01-2017 11:30:00 2.8 C 4.93 g/m*3 0.1 C 9.7 km/h
428 14-01-2017 11:35:00 2.9 C 4.96 g/m*3 1.17 C 6.4 km/h
429 14-01-2017 11:40:00 2.9 C 4.9 g/m*3 0.22 C 9.7 km/h
430 14-01-2017 11:45:00 2.9 C 4.9 g/m*3 -0.14 C 11.3 km/h
431 14-01-2017 11:50:00 3 C 4.93 g/m*3 1.28 C 6.4 km/h
432 14-01-2017 11:55:00 3.1 C 4.97 g/m*3 0.87 C 8.1 km/h
433 14-01-2017 12:00:00 3.1 C 4.97 g/m*3 1.4 C 6.4 km/h
434 14-01-2017 12:05:00 3.2 C 4.94 g/m*3 0.22 C 11.3 km/h
435 14-01-2017 12:10:00 3.2 C 4.94 g/m*3 1.51 C 6.4 km/h
436 14-01-2017 12:15:00 3.2 C 4.94 g/m*3 0.99 C 8.1 km/h
437 14-01-2017 12:20:00 3.3 C 4.97 g/m*3 1.11 C 8.1 km/h
438 14-01-2017 12:25:00 3.3 C 4.97 g/m*3 -0.26 C 14.5 km/h
439 14-01-2017 12:30:00 3.3 C 5.04 g/m*3 -0.52 C 16.1 km/h
440 14-01-2017 12:35:00 3.3 C 5.1 g/m*3 0.7 C 9.7 km/h
441 14-01-2017 12:40:00 3.2 C 5 g/m*3 0.99 C 8.1 km/h
442 14-01-2017 12:45:00 3.3 C 5.04 g/m*3 1.11 C 8.1 km/h
443 14-01-2017 12:50:00 3.4 C 5.07 g/m*3 1.75 C 6.4 km/h
444 14-01-2017 12:55:00 3.4 C 5.07 g/m*3 0.82 C 9.7 km/h
445 14-01-2017 13:00:00 3.5 C 5.1 g/m*3 -0.28 C 16.1 km/h
446 14-01-2017 13:05:00 3.4 C 5.07 g/m*3 1.23 C 8.1 km/h
447 14-01-2017 13:10:00 3.4 C 5.07 g/m*3 1.75 C 6.4 km/h
448 14-01-2017 13:15:00 3.4 C 5.07 g/m*3 1.23 C 8.1 km/h
449 14-01-2017 13:20:00 3.4 C 5.07 g/m*3 0.82 C 9.7 km/h
450 14-01-2017 13:25:00 3.5 C 5.1 g/m*3 3.5 C 4.8 km/h
Sensor: Nr:Datum:Temp:Abs-Feuchte:Windchill:Wind:
Aussen-T/F 451 14-01-2017 13:30:00 3.6 C 5.14 g/m*3 1.06 C 9.7 km/h
452 14-01-2017 13:35:00 3.6 C 5.01 g/m*3 0.7 C 11.3 km/h
453 14-01-2017 13:40:00 3.7 C 5.05 g/m*3 1.58 C 8.1 km/h
454 14-01-2017 13:45:00 3.6 C 4.95 g/m*3 0.11 C 14.5 km/h
455 14-01-2017 13:50:00 3.6 C 4.95 g/m*3 1.98 C 6.4 km/h
456 14-01-2017 13:55:00 3.6 C 4.95 g/m*3 1.06 C 9.7 km/h
457 14-01-2017 14:00:00 3.6 C 5.01 g/m*3 1.98 C 6.4 km/h
458 14-01-2017 14:05:00 3.5 C 4.98 g/m*3 3.5 C 4.8 km/h
459 14-01-2017 14:10:00 3.5 C 5.04 g/m*3 1.34 C 8.1 km/h
460 14-01-2017 14:15:00 3.4 C 5.01 g/m*3 0.14 C 12.9 km/h
461 14-01-2017 14:20:00 3.3 C 4.97 g/m*3 0.02 C 12.9 km/h
462 14-01-2017 14:25:00 3.3 C 4.97 g/m*3 -0.26 C 14.5 km/h
463 14-01-2017 14:30:00 3.2 C 4.94 g/m*3 -0.39 C 14.5 km/h
464 14-01-2017 14:35:00 3.2 C 4.94 g/m*3 0.22 C 11.3 km/h
465 14-01-2017 14:40:00 3.1 C 4.91 g/m*3 0.46 C 9.7 km/h
466 14-01-2017 14:45:00 3.1 C 4.91 g/m*3 -1.01 C 17.7 km/h
467 14-01-2017 14:50:00 3 C 4.88 g/m*3 -0.34 C 12.9 km/h
468 14-01-2017 14:55:00 3.1 C 4.91 g/m*3 0.1 C 11.3 km/h
469 14-01-2017 15:00:00 3.1 C 4.91 g/m*3 0.46 C 9.7 km/h
470 14-01-2017 15:05:00 3.2 C 4.88 g/m*3 0.58 C 9.7 km/h
471 14-01-2017 15:10:00 3.2 C 4.88 g/m*3 0.58 C 9.7 km/h
472 14-01-2017 15:15:00 3.2 C 4.88 g/m*3 -0.39 C 14.5 km/h
473 14-01-2017 15:20:00 3.2 C 4.82 g/m*3 0.22 C 11.3 km/h
474 14-01-2017 15:25:00 3.2 C 4.82 g/m*3 0.22 C 11.3 km/h
475 14-01-2017 15:30:00 3.1 C 4.67 g/m*3 -0.51 C 14.5 km/h
Sensor: Nr:Datum:Temp:Abs-Feuchte:Windchill:Wind:
Aussen-T/F 476 14-01-2017 15:35:00 3 C 4.64 g/m*3 -0.9 C 16.1 km/h
477 14-01-2017 15:40:00 2.9 C 4.67 g/m*3 -0.14 C 11.3 km/h
478 14-01-2017 15:45:00 2.8 C 4.58 g/m*3 -1.14 C 16.1 km/h
479 14-01-2017 15:50:00 2.7 C 4.6 g/m*3 -0.02 C 9.7 km/h
480 14-01-2017 15:55:00 2.7 C 4.6 g/m*3 -0.71 C 12.9 km/h
481 14-01-2017 16:00:00 2.7 C 4.6 g/m*3 -0.71 C 12.9 km/h
482 14-01-2017 16:05:00 2.6 C 4.57 g/m*3 0.29 C 8.1 km/h
483 14-01-2017 16:10:00 2.6 C 4.57 g/m*3 0.29 C 8.1 km/h
484 14-01-2017 16:15:00 2.6 C 4.57 g/m*3 -1.12 C 14.5 km/h
485 14-01-2017 16:20:00 2.5 C 4.54 g/m*3 -0.62 C 11.3 km/h
486 14-01-2017 16:25:00 2.6 C 4.51 g/m*3 -0.14 C 9.7 km/h
487 14-01-2017 16:30:00 2.6 C 4.51 g/m*3 -0.5 C 11.3 km/h
488 14-01-2017 16:35:00 2.6 C 4.57 g/m*3 0.29 C 8.1 km/h
489 14-01-2017 16:40:00 2.5 C 4.54 g/m*3 -1.25 C 14.5 km/h
490 14-01-2017 16:45:00 2.4 C 4.57 g/m*3 -0.74 C 11.3 km/h
491 14-01-2017 16:50:00 2.4 C 4.57 g/m*3 -1.07 C 12.9 km/h
492 14-01-2017 16:55:00 2.4 C 4.57 g/m*3 -1.07 C 12.9 km/h
493 14-01-2017 17:00:00 2.3 C 4.54 g/m*3 -1.76 C 16.1 km/h
494 14-01-2017 17:05:00 2.3 C 4.54 g/m*3 -1.2 C 12.9 km/h
495 14-01-2017 17:10:00 2.3 C 4.54 g/m*3 -1.2 C 12.9 km/h
496 14-01-2017 17:15:00 2.3 C 4.54 g/m*3 -0.87 C 11.3 km/h
497 14-01-2017 17:20:00 2.3 C 4.59 g/m*3 -1.49 C 14.5 km/h
498 14-01-2017 17:25:00 2.3 C 4.59 g/m*3 -1.49 C 14.5 km/h
499 14-01-2017 17:30:00 2.3 C 4.59 g/m*3 -0.87 C 11.3 km/h
500 14-01-2017 17:35:00 2.2 C 4.62 g/m*3 -0.18 C 8.1 km/h
Sensor: Nr:Datum:Temp:Abs-Feuchte:Windchill:Wind:
Aussen-T/F 501 14-01-2017 17:40:00 2.2 C 4.68 g/m*3 0.36 C 6.4 km/h
502 14-01-2017 17:45:00 2.2 C 4.68 g/m*3 -0.61 C 9.7 km/h
503 14-01-2017 17:50:00 2.2 C 4.68 g/m*3 0.36 C 6.4 km/h
504 14-01-2017 17:55:00 2.2 C 4.73 g/m*3 -1.89 C 16.1 km/h
505 14-01-2017 18:00:00 2.2 C 4.73 g/m*3 -1.62 C 14.5 km/h
506 14-01-2017 18:05:00 2.2 C 4.79 g/m*3 -1.32 C 12.9 km/h
507 14-01-2017 18:10:00 2.2 C 4.79 g/m*3 -1.32 C 12.9 km/h
508 14-01-2017 18:15:00 2.1 C 4.81 g/m*3 -0.3 C 8.1 km/h
509 14-01-2017 18:20:00 1.9 C 4.86 g/m*3 -2.26 C 16.1 km/h
510 14-01-2017 18:25:00 1.7 C 4.85 g/m*3 -1.93 C 12.9 km/h
511 14-01-2017 18:30:00 1.6 C 4.87 g/m*3 -2.63 C 16.1 km/h
512 14-01-2017 18:35:00 1.6 C 4.92 g/m*3 -3.12 C 19.3 km/h
513 14-01-2017 18:40:00 1.5 C 4.89 g/m*3 -2.17 C 12.9 km/h
514 14-01-2017 18:45:00 1.4 C 4.91 g/m*3 -1.57 C 9.7 km/h
515 14-01-2017 18:50:00 1.4 C 4.91 g/m*3 -2.88 C 16.1 km/h
516 14-01-2017 18:55:00 1.4 C 4.91 g/m*3 -2.6 C 14.5 km/h
517 14-01-2017 19:00:00 1.5 C 4.94 g/m*3 -1.83 C 11.3 km/h
518 14-01-2017 19:05:00 1.6 C 4.97 g/m*3 -1.71 C 11.3 km/h
519 14-01-2017 19:10:00 1.8 C 4.99 g/m*3 -1.8 C 12.9 km/h
520 14-01-2017 19:15:00 1.9 C 4.97 g/m*3 -1.98 C 14.5 km/h
521 14-01-2017 19:20:00 2.1 C 4.98 g/m*3 -0.3 C 8.1 km/h
522 14-01-2017 19:25:00 2.1 C 4.98 g/m*3 -0.3 C 8.1 km/h
523 14-01-2017 19:30:00 2.2 C 5.01 g/m*3 -0.18 C 8.1 km/h
524 14-01-2017 19:35:00 2.2 C 5.01 g/m*3 -0.18 C 8.1 km/h
525 14-01-2017 19:40:00 2.2 C 4.96 g/m*3 0.36 C 6.4 km/h
Sensor: Nr:Datum:Temp:Abs-Feuchte:Windchill:Wind:
Aussen-T/F 526 14-01-2017 19:45:00 2.1 C 4.92 g/m*3 -0.73 C 9.7 km/h
527 14-01-2017 19:50:00 2 C 4.89 g/m*3 -0.42 C 8.1 km/h
528 14-01-2017 19:55:00 2.1 C 4.92 g/m*3 0.24 C 6.4 km/h
529 14-01-2017 20:00:00 2.1 C 4.87 g/m*3 0.24 C 6.4 km/h
530 14-01-2017 20:05:00 2 C 4.83 g/m*3 2 C 1.6 km/h
531 14-01-2017 20:10:00 1.8 C 4.82 g/m*3 1.8 C 1.6 km/h
532 14-01-2017 20:15:00 1.8 C 4.88 g/m*3 1.8 C 0 km/h
533 14-01-2017 20:20:00 1.7 C 4.9 g/m*3 1.7 C 0 km/h
534 14-01-2017 20:25:00 1.7 C 4.9 g/m*3 1.7 C 1.6 km/h
535 14-01-2017 20:30:00 1.7 C 4.9 g/m*3 1.7 C 1.6 km/h
536 14-01-2017 20:35:00 1.7 C 4.9 g/m*3 1.7 C 1.6 km/h
537 14-01-2017 20:40:00 1.6 C 4.87 g/m*3 1.6 C 3.2 km/h
538 14-01-2017 20:45:00 1.6 C 4.87 g/m*3 1.6 C 4.8 km/h
539 14-01-2017 20:50:00 1.6 C 4.87 g/m*3 1.6 C 4.8 km/h
540 14-01-2017 20:55:00 1.6 C 4.87 g/m*3 1.6 C 4.8 km/h
541 14-01-2017 21:00:00 1.6 C 4.87 g/m*3 1.6 C 0 km/h
542 14-01-2017 21:05:00 1.6 C 4.87 g/m*3 1.6 C 0 km/h
543 14-01-2017 21:10:00 1.7 C 4.85 g/m*3 1.7 C 1.6 km/h
544 14-01-2017 21:15:00 1.6 C 4.81 g/m*3 1.6 C 3.2 km/h
545 14-01-2017 21:20:00 1.6 C 4.81 g/m*3 -0.89 C 8.1 km/h
546 14-01-2017 21:25:00 1.7 C 4.85 g/m*3 1.7 C 3.2 km/h
547 14-01-2017 21:30:00 1.8 C 4.82 g/m*3 -0.1 C 6.4 km/h
548 14-01-2017 21:35:00 1.9 C 4.8 g/m*3 0.01 C 6.4 km/h
549 14-01-2017 21:40:00 1.9 C 4.8 g/m*3 1.9 C 3.2 km/h
550 14-01-2017 21:45:00 1.9 C 4.8 g/m*3 -1.35 C 11.3 km/h
Sensor: Nr:Datum:Temp:Abs-Feuchte:Windchill:Wind:
Aussen-T/F 551 14-01-2017 21:50:00 1.9 C 4.8 g/m*3 1.9 C 4.8 km/h
552 14-01-2017 21:55:00 1.9 C 4.8 g/m*3 1.9 C 3.2 km/h
553 14-01-2017 22:00:00 1.8 C 4.82 g/m*3 1.8 C 3.2 km/h
554 14-01-2017 22:05:00 1.8 C 4.82 g/m*3 1.8 C 4.8 km/h
555 14-01-2017 22:10:00 1.8 C 4.82 g/m*3 -0.1 C 6.4 km/h
556 14-01-2017 22:15:00 1.8 C 4.82 g/m*3 1.8 C 3.2 km/h
557 14-01-2017 22:20:00 1.8 C 4.82 g/m*3 1.8 C 3.2 km/h
558 14-01-2017 22:25:00 1.8 C 4.82 g/m*3 1.8 C 4.8 km/h
559 14-01-2017 22:30:00 1.9 C 4.86 g/m*3 1.9 C 4.8 km/h
560 14-01-2017 22:35:00 1.9 C 4.8 g/m*3 -0.54 C 8.1 km/h
561 14-01-2017 22:40:00 2 C 4.89 g/m*3 -0.85 C 9.7 km/h
562 14-01-2017 22:45:00 1.9 C 4.91 g/m*3 -0.97 C 9.7 km/h
563 14-01-2017 22:50:00 1.8 C 4.93 g/m*3 1.8 C 3.2 km/h
564 14-01-2017 22:55:00 1.8 C 4.93 g/m*3 1.8 C 4.8 km/h
565 14-01-2017 23:00:00 1.7 C 4.9 g/m*3 1.7 C 3.2 km/h
566 14-01-2017 23:05:00 1.6 C 4.92 g/m*3 1.6 C 1.6 km/h
567 14-01-2017 23:10:00 1.5 C 4.89 g/m*3 1.5 C 4.8 km/h
568 14-01-2017 23:15:00 1.4 C 4.85 g/m*3 1.4 C 1.6 km/h
569 14-01-2017 23:20:00 1.4 C 4.85 g/m*3 1.4 C 0 km/h
570 14-01-2017 23:25:00 1.4 C 4.85 g/m*3 1.4 C 0 km/h
571 14-01-2017 23:30:00 1.3 C 4.87 g/m*3 1.3 C 0 km/h
572 14-01-2017 23:35:00 1.3 C 4.87 g/m*3 1.3 C 4.8 km/h
573 14-01-2017 23:40:00 1.4 C 4.91 g/m*3 1.4 C 3.2 km/h
574 14-01-2017 23:45:00 1.4 C 4.91 g/m*3 1.4 C 0 km/h
575 14-01-2017 23:50:00 1.3 C 4.87 g/m*3 1.3 C 0 km/h
Sensor: Nr:Datum:Temp:Abs-Feuchte:Windchill:Wind:
Aussen-T/F 576 14-01-2017 23:55:00 1.3 C 4.87 g/m*3 1.3 C 0 km/h
577 15-01-2017 00:00:00 1.3 C 4.93 g/m*3 1.3 C 0 km/h
578 15-01-2017 00:05:00 1.3 C 4.93 g/m*3 1.3 C 0 km/h
579 15-01-2017 00:10:00 1.3 C 4.93 g/m*3 1.3 C 0 km/h
580 15-01-2017 00:15:00 1.3 C 4.93 g/m*3 1.3 C 1.6 km/h
581 15-01-2017 00:20:00 1.3 C 4.93 g/m*3 1.3 C 1.6 km/h
582 15-01-2017 00:25:00 1.3 C 4.93 g/m*3 1.3 C 1.6 km/h
583 15-01-2017 00:30:00 1.3 C 4.93 g/m*3 1.3 C 0 km/h
584 15-01-2017 00:35:00 1.3 C 4.93 g/m*3 1.3 C 0 km/h
585 15-01-2017 00:40:00 1.3 C 4.93 g/m*3 1.3 C 0 km/h
586 15-01-2017 00:45:00 1.3 C 4.93 g/m*3 1.3 C 0 km/h
587 15-01-2017 00:50:00 1.3 C 4.93 g/m*3 1.3 C 1.6 km/h
588 15-01-2017 00:55:00 1.3 C 4.93 g/m*3 1.3 C 4.8 km/h
589 15-01-2017 01:00:00 1.3 C 4.93 g/m*3 1.3 C 0 km/h
590 15-01-2017 01:05:00 1.3 C 4.93 g/m*3 1.3 C 0 km/h
591 15-01-2017 01:10:00 1.3 C 4.87 g/m*3 1.3 C 0 km/h
592 15-01-2017 01:15:00 1.4 C 4.91 g/m*3 1.4 C 0 km/h
593 15-01-2017 01:20:00 1.4 C 4.85 g/m*3 1.4 C 3.2 km/h
594 15-01-2017 01:25:00 1.6 C 4.92 g/m*3 1.6 C 0 km/h
595 15-01-2017 01:30:00 1.6 C 4.92 g/m*3 1.6 C 3.2 km/h
596 15-01-2017 01:35:00 1.6 C 4.87 g/m*3 1.6 C 3.2 km/h
597 15-01-2017 01:40:00 1.7 C 4.9 g/m*3 1.7 C 4.8 km/h
598 15-01-2017 01:45:00 1.7 C 4.9 g/m*3 1.7 C 4.8 km/h
599 15-01-2017 01:50:00 1.7 C 4.85 g/m*3 1.7 C 0 km/h
600 15-01-2017 01:55:00 1.7 C 4.85 g/m*3 1.7 C 0 km/h
Sensor: Nr:Datum:Temp:Abs-Feuchte:Windchill:Wind:
Aussen-T/F 601 15-01-2017 02:00:00 1.7 C 4.9 g/m*3 1.7 C 1.6 km/h
602 15-01-2017 02:05:00 1.7 C 4.85 g/m*3 1.7 C 4.8 km/h
603 15-01-2017 02:10:00 1.7 C 4.85 g/m*3 1.7 C 1.6 km/h
604 15-01-2017 02:15:00 1.7 C 4.85 g/m*3 1.7 C 1.6 km/h
605 15-01-2017 02:20:00 1.7 C 4.9 g/m*3 1.7 C 0 km/h
606 15-01-2017 02:25:00 1.6 C 4.87 g/m*3 1.6 C 3.2 km/h
607 15-01-2017 02:30:00 1.6 C 4.81 g/m*3 1.6 C 4.8 km/h
608 15-01-2017 02:35:00 1.7 C 4.85 g/m*3 1.7 C 0 km/h
609 15-01-2017 02:40:00 1.7 C 4.85 g/m*3 1.7 C 0 km/h
610 15-01-2017 02:45:00 1.7 C 4.85 g/m*3 1.7 C 0 km/h
611 15-01-2017 02:50:00 1.6 C 4.81 g/m*3 1.6 C 0 km/h
612 15-01-2017 02:55:00 1.6 C 4.81 g/m*3 1.6 C 0 km/h
613 15-01-2017 03:00:00 1.6 C 4.87 g/m*3 1.6 C 0 km/h
614 15-01-2017 03:05:00 1.6 C 4.81 g/m*3 1.6 C 3.2 km/h
615 15-01-2017 03:10:00 1.5 C 4.78 g/m*3 1.5 C 3.2 km/h
616 15-01-2017 03:15:00 1.5 C 4.78 g/m*3 1.5 C 3.2 km/h
617 15-01-2017 03:20:00 1.5 C 4.78 g/m*3 1.5 C 3.2 km/h
618 15-01-2017 03:25:00 1.4 C 4.75 g/m*3 1.4 C 1.6 km/h
619 15-01-2017 03:30:00 1.4 C 4.75 g/m*3 1.4 C 0 km/h
620 15-01-2017 03:35:00 1.4 C 4.75 g/m*3 1.4 C 0 km/h
621 15-01-2017 03:40:00 1.4 C 4.75 g/m*3 1.4 C 1.6 km/h
622 15-01-2017 03:45:00 1.4 C 4.75 g/m*3 1.4 C 1.6 km/h
623 15-01-2017 03:50:00 1.4 C 4.8 g/m*3 1.4 C 0 km/h
624 15-01-2017 03:55:00 1.3 C 4.77 g/m*3 1.3 C 1.6 km/h
625 15-01-2017 04:00:00 1.3 C 4.77 g/m*3 1.3 C 1.6 km/h
Sensor: Nr:Datum:Temp:Abs-Feuchte:Windchill:Wind:
Aussen-T/F 626 15-01-2017 04:05:00 1.3 C 4.77 g/m*3 1.3 C 3.2 km/h
627 15-01-2017 04:10:00 1.2 C 4.74 g/m*3 1.2 C 1.6 km/h
628 15-01-2017 04:15:00 1.2 C 4.74 g/m*3 1.2 C 3.2 km/h
629 15-01-2017 04:20:00 1.2 C 4.74 g/m*3 1.2 C 1.6 km/h
630 15-01-2017 04:25:00 1.2 C 4.74 g/m*3 1.2 C 4.8 km/h
631 15-01-2017 04:30:00 1.3 C 4.77 g/m*3 1.3 C 4.8 km/h
632 15-01-2017 04:35:00 1.3 C 4.77 g/m*3 1.3 C 1.6 km/h
633 15-01-2017 04:40:00 1.2 C 4.68 g/m*3 1.2 C 3.2 km/h
634 15-01-2017 04:45:00 1.3 C 4.72 g/m*3 1.3 C 0 km/h
635 15-01-2017 04:50:00 1.3 C 4.72 g/m*3 1.3 C 0 km/h
636 15-01-2017 04:55:00 1.3 C 4.77 g/m*3 1.3 C 1.6 km/h
637 15-01-2017 05:00:00 1.3 C 4.77 g/m*3 1.3 C 0 km/h
638 15-01-2017 05:05:00 1.2 C 4.74 g/m*3 1.2 C 0 km/h
639 15-01-2017 05:10:00 1.2 C 4.74 g/m*3 1.2 C 1.6 km/h
640 15-01-2017 05:15:00 1.2 C 4.79 g/m*3 1.2 C 4.8 km/h
641 15-01-2017 05:20:00 1.1 C 4.76 g/m*3 1.1 C 3.2 km/h
642 15-01-2017 05:25:00 1.1 C 4.81 g/m*3 1.1 C 1.6 km/h
643 15-01-2017 05:30:00 1.1 C 4.81 g/m*3 1.1 C 3.2 km/h
644 15-01-2017 05:35:00 1 C 4.83 g/m*3 1 C 4.8 km/h
645 15-01-2017 05:40:00 1 C 4.83 g/m*3 1 C 0 km/h
646 15-01-2017 05:45:00 0.9 C 4.79 g/m*3 0.9 C 0 km/h
647 15-01-2017 05:50:00 0.9 C 4.79 g/m*3 0.9 C 1.6 km/h
648 15-01-2017 05:55:00 0.8 C 4.76 g/m*3 0.8 C 3.2 km/h
649 15-01-2017 06:00:00 0.8 C 4.76 g/m*3 0.8 C 3.2 km/h
650 15-01-2017 06:05:00 0.8 C 4.76 g/m*3 0.8 C 0 km/h
Sensor: Nr:Datum:Temp:Abs-Feuchte:Windchill:Wind:
Aussen-T/F 651 15-01-2017 06:10:00 0.7 C 4.73 g/m*3 0.7 C 3.2 km/h
652 15-01-2017 06:15:00 0.7 C 4.73 g/m*3 0.7 C 3.2 km/h
653 15-01-2017 06:20:00 0.7 C 4.78 g/m*3 0.7 C 0 km/h
654 15-01-2017 06:25:00 0.8 C 4.81 g/m*3 0.8 C 0 km/h
655 15-01-2017 06:30:00 0.8 C 4.81 g/m*3 0.8 C 1.6 km/h
656 15-01-2017 06:35:00 0.8 C 4.81 g/m*3 0.8 C 0 km/h
657 15-01-2017 06:40:00 0.8 C 4.81 g/m*3 0.8 C 0 km/h
658 15-01-2017 06:45:00 0.8 C 4.81 g/m*3 0.8 C 0 km/h
659 15-01-2017 06:50:00 0.8 C 4.81 g/m*3 0.8 C 0 km/h
660 15-01-2017 06:55:00 0.7 C 4.78 g/m*3 0.7 C 0 km/h
661 15-01-2017 07:00:00 0.7 C 4.78 g/m*3 0.7 C 0 km/h
662 15-01-2017 07:05:00 0.7 C 4.78 g/m*3 0.7 C 0 km/h
663 15-01-2017 07:10:00 0.7 C 4.78 g/m*3 0.7 C 1.6 km/h
664 15-01-2017 07:15:00 0.7 C 4.78 g/m*3 0.7 C 0 km/h
665 15-01-2017 07:20:00 0.7 C 4.78 g/m*3 0.7 C 0 km/h
666 15-01-2017 07:25:00 0.7 C 4.78 g/m*3 0.7 C 0 km/h
667 15-01-2017 07:30:00 0.7 C 4.78 g/m*3 0.7 C 3.2 km/h
668 15-01-2017 07:35:00 0.7 C 4.78 g/m*3 0.7 C 0 km/h
669 15-01-2017 07:40:00 0.6 C 4.75 g/m*3 0.6 C 0 km/h
670 15-01-2017 07:45:00 0.6 C 4.75 g/m*3 0.6 C 0 km/h
671 15-01-2017 07:50:00 0.6 C 4.75 g/m*3 0.6 C 0 km/h
672 15-01-2017 07:55:00 0.6 C 4.75 g/m*3 0.6 C 0 km/h
673 15-01-2017 08:00:00 0.6 C 4.75 g/m*3 0.6 C 1.6 km/h
674 15-01-2017 08:05:00 0.6 C 4.75 g/m*3 0.6 C 1.6 km/h
675 15-01-2017 08:10:00 0.6 C 4.75 g/m*3 0.6 C 0 km/h
Sensor: Nr:Datum:Temp:Abs-Feuchte:Windchill:Wind:
Aussen-T/F 676 15-01-2017 08:15:00 0.6 C 4.75 g/m*3 0.6 C 1.6 km/h
677 15-01-2017 08:20:00 0.5 C 4.71 g/m*3 0.5 C 0 km/h
678 15-01-2017 08:25:00 0.4 C 4.68 g/m*3 0.4 C 0 km/h
679 15-01-2017 08:30:00 0.4 C 4.68 g/m*3 0.4 C 4.8 km/h
680 15-01-2017 08:35:00 0.6 C 4.75 g/m*3 0.6 C 3.2 km/h
681 15-01-2017 08:40:00 0.6 C 4.75 g/m*3 0.6 C 1.6 km/h
682 15-01-2017 08:45:00 0.7 C 4.73 g/m*3 0.7 C 3.2 km/h
683 15-01-2017 08:50:00 0.7 C 4.73 g/m*3 0.7 C 3.2 km/h
684 15-01-2017 08:55:00 0.6 C 4.7 g/m*3 0.6 C 0 km/h
685 15-01-2017 09:00:00 0.6 C 4.7 g/m*3 0.6 C 0 km/h
686 15-01-2017 09:05:00 0.4 C 4.63 g/m*3 0.4 C 0 km/h
687 15-01-2017 09:10:00 0.4 C 4.63 g/m*3 0.4 C 0 km/h
688 15-01-2017 09:15:00 0.3 C 4.6 g/m*3 0.3 C 0 km/h
689 15-01-2017 09:20:00 0.3 C 4.6 g/m*3 0.3 C 1.6 km/h
690 15-01-2017 09:25:00 0.3 C 4.65 g/m*3 0.3 C 0 km/h
691 15-01-2017 09:30:00 0.4 C 4.68 g/m*3 0.4 C 0 km/h
692 15-01-2017 09:35:00 0.4 C 4.68 g/m*3 0.4 C 0 km/h
693 15-01-2017 09:40:00 0.4 C 4.68 g/m*3 0.4 C 0 km/h
694 15-01-2017 09:45:00 0.4 C 4.68 g/m*3 0.4 C 0 km/h
695 15-01-2017 09:50:00 0.4 C 4.68 g/m*3 0.4 C 0 km/h
696 15-01-2017 09:55:00 0.4 C 4.68 g/m*3 0.4 C 0 km/h
697 15-01-2017 10:00:00 0.3 C 4.65 g/m*3 0.3 C 0 km/h
698 15-01-2017 10:05:00 0.2 C 4.62 g/m*3 0.2 C 0 km/h
699 15-01-2017 10:10:00 0.2 C 4.62 g/m*3 0.2 C 0 km/h
700 15-01-2017 10:15:00 0.3 C 4.65 g/m*3 0.3 C 0 km/h
Sensor: Nr:Datum:Temp:Abs-Feuchte:Windchill:Wind:
Aussen-T/F 701 15-01-2017 10:20:00 0.3 C 4.65 g/m*3 0.3 C 0 km/h
702 15-01-2017 10:25:00 0.4 C 4.68 g/m*3 0.4 C 0 km/h
703 15-01-2017 10:30:00 0.4 C 4.68 g/m*3 0.4 C 1.6 km/h
704 15-01-2017 10:35:00 0.6 C 4.8 g/m*3 0.6 C 1.6 km/h
705 15-01-2017 10:40:00 0.7 C 4.83 g/m*3 0.7 C 1.6 km/h
706 15-01-2017 10:45:00 0.8 C 4.81 g/m*3 0.8 C 1.6 km/h
707 15-01-2017 10:50:00 0.8 C 4.81 g/m*3 0.8 C 3.2 km/h
708 15-01-2017 10:55:00 0.9 C 4.85 g/m*3 0.9 C 1.6 km/h
709 15-01-2017 11:00:00 0.9 C 4.85 g/m*3 0.9 C 1.6 km/h
710 15-01-2017 11:05:00 0.9 C 4.85 g/m*3 0.9 C 1.6 km/h
711 15-01-2017 11:10:00 0.9 C 4.85 g/m*3 0.9 C 1.6 km/h
712 15-01-2017 11:15:00 0.9 C 4.85 g/m*3 0.9 C 0 km/h
713 15-01-2017 11:20:00 0.9 C 4.85 g/m*3 0.9 C 0 km/h
714 15-01-2017 11:25:00 1.1 C 4.91 g/m*3 1.1 C 1.6 km/h
715 15-01-2017 11:30:00 1.1 C 4.91 g/m*3 1.1 C 1.6 km/h
716 15-01-2017 11:35:00 1 C 4.88 g/m*3 1 C 0 km/h
717 15-01-2017 11:40:00 1 C 4.88 g/m*3 1 C 3.2 km/h
718 15-01-2017 11:45:00 0.9 C 4.79 g/m*3 0.9 C 0 km/h
719 15-01-2017 11:50:00 0.9 C 4.85 g/m*3 0.9 C 0 km/h
720 15-01-2017 11:55:00 1 C 4.88 g/m*3 1 C 0 km/h
721 15-01-2017 12:00:00 1.1 C 4.91 g/m*3 1.1 C 0 km/h
722 15-01-2017 12:05:00 1.1 C 4.86 g/m*3 1.1 C 0 km/h
723 15-01-2017 12:10:00 1.2 C 4.95 g/m*3 1.2 C 0 km/h
724 15-01-2017 12:15:00 1.2 C 4.89 g/m*3 1.2 C 0 km/h
725 15-01-2017 12:20:00 1.2 C 4.89 g/m*3 1.2 C 0 km/h
Sensor: Nr:Datum:Temp:Abs-Feuchte:Windchill:Wind:
Aussen-T/F 726 15-01-2017 12:25:00 1.2 C 4.89 g/m*3 1.2 C 0 km/h
727 15-01-2017 12:30:00 1.2 C 4.89 g/m*3 1.2 C 0 km/h
728 15-01-2017 12:35:00 1.3 C 4.93 g/m*3 1.3 C 0 km/h
729 15-01-2017 12:40:00 1.3 C 4.93 g/m*3 1.3 C 0 km/h
730 15-01-2017 12:45:00 1.4 C 4.96 g/m*3 1.4 C 0 km/h
731 15-01-2017 12:50:00 1.6 C 5.03 g/m*3 1.6 C 0 km/h
732 15-01-2017 12:55:00 1.6 C 5.03 g/m*3 1.6 C 0 km/h
733 15-01-2017 13:00:00 1.6 C 5.03 g/m*3 1.6 C 0 km/h
734 15-01-2017 13:05:00 1.6 C 4.97 g/m*3 1.6 C 0 km/h
735 15-01-2017 13:10:00 1.6 C 5.03 g/m*3 1.6 C 0 km/h
736 15-01-2017 13:15:00 1.7 C 5.01 g/m*3 1.7 C 0 km/h
737 15-01-2017 13:20:00 1.7 C 5.01 g/m*3 1.7 C 0 km/h
738 15-01-2017 13:25:00 1.7 C 5.01 g/m*3 1.7 C 0 km/h
739 15-01-2017 13:30:00 1.7 C 5.01 g/m*3 1.7 C 0 km/h
740 15-01-2017 13:35:00 1.7 C 5.01 g/m*3 1.7 C 0 km/h
741 15-01-2017 13:40:00 1.7 C 5.01 g/m*3 1.7 C 1.6 km/h
742 15-01-2017 13:45:00 1.8 C 4.93 g/m*3 1.8 C 3.2 km/h
743 15-01-2017 13:50:00 1.9 C 4.97 g/m*3 1.9 C 4.8 km/h
744 15-01-2017 13:55:00 2.1 C 4.87 g/m*3 -0.3 C 8.1 km/h
745 15-01-2017 14:00:00 2.3 C 4.88 g/m*3 -0.07 C 8.1 km/h
746 15-01-2017 14:05:00 2.5 C 4.89 g/m*3 0.71 C 6.4 km/h
747 15-01-2017 14:10:00 2.6 C 4.86 g/m*3 2.6 C 4.8 km/h
748 15-01-2017 14:15:00 2.7 C 4.95 g/m*3 0.94 C 6.4 km/h
749 15-01-2017 14:20:00 2.7 C 4.84 g/m*3 2.7 C 4.8 km/h
750 15-01-2017 14:25:00 2.7 C 4.84 g/m*3 2.7 C 1.6 km/h
Sensor: Nr:Datum:Temp:Abs-Feuchte:Windchill:Wind:
Aussen-T/F 751 15-01-2017 14:30:00 2.8 C 4.99 g/m*3 2.8 C 0 km/h
752 15-01-2017 14:35:00 2.8 C 5.04 g/m*3 2.8 C 0 km/h
753 15-01-2017 14:40:00 2.8 C 5.1 g/m*3 2.8 C 0 km/h
754 15-01-2017 14:45:00 2.7 C 5.07 g/m*3 2.7 C 1.6 km/h
755 15-01-2017 14:50:00 2.7 C 5.07 g/m*3 2.7 C 0 km/h
756 15-01-2017 14:55:00 2.7 C 5.13 g/m*3 2.7 C 0 km/h
757 15-01-2017 15:00:00 2.7 C 5.19 g/m*3 2.7 C 0 km/h
758 15-01-2017 15:05:00 2.7 C 5.19 g/m*3 2.7 C 0 km/h
759 15-01-2017 15:10:00 2.6 C 5.15 g/m*3 2.6 C 0 km/h
760 15-01-2017 15:15:00 2.6 C 5.15 g/m*3 2.6 C 0 km/h
761 15-01-2017 15:20:00 2.5 C 5.12 g/m*3 2.5 C 0 km/h
762 15-01-2017 15:25:00 2.4 C 5.08 g/m*3 2.4 C 0 km/h
763 15-01-2017 15:30:00 2.3 C 5.05 g/m*3 2.3 C 0 km/h
764 15-01-2017 15:35:00 2.2 C 5.07 g/m*3 2.2 C 0 km/h
765 15-01-2017 15:40:00 2.2 C 5.07 g/m*3 2.2 C 0 km/h
766 15-01-2017 15:45:00 2.1 C 5.04 g/m*3 2.1 C 1.6 km/h
767 15-01-2017 15:50:00 1.9 C 4.97 g/m*3 1.9 C 0 km/h
768 15-01-2017 15:55:00 1.8 C 4.99 g/m*3 1.8 C 1.6 km/h
769 15-01-2017 16:00:00 1.7 C 4.95 g/m*3 1.7 C 1.6 km/h
770 15-01-2017 16:05:00 1.5 C 4.89 g/m*3 1.5 C 4.8 km/h
771 15-01-2017 16:10:00 1.4 C 4.85 g/m*3 1.4 C 3.2 km/h
772 15-01-2017 16:15:00 1.3 C 4.82 g/m*3 1.3 C 0 km/h
773 15-01-2017 16:20:00 1.2 C 4.79 g/m*3 1.2 C 0 km/h
774 15-01-2017 16:25:00 1.1 C 4.76 g/m*3 1.1 C 4.8 km/h
775 15-01-2017 16:30:00 1 C 4.72 g/m*3 1 C 3.2 km/h
Sensor: Nr:Datum:Temp:Abs-Feuchte:Windchill:Wind:
Aussen-T/F 776 15-01-2017 16:35:00 0.9 C 4.69 g/m*3 0.9 C 3.2 km/h
777 15-01-2017 16:40:00 0.8 C 4.66 g/m*3 0.8 C 1.6 km/h
778 15-01-2017 16:45:00 0.7 C 4.68 g/m*3 0.7 C 0 km/h
779 15-01-2017 16:50:00 0.7 C 4.68 g/m*3 0.7 C 3.2 km/h
780 15-01-2017 16:55:00 0.6 C 4.65 g/m*3 0.6 C 3.2 km/h
781 15-01-2017 17:00:00 0.6 C 4.65 g/m*3 0.6 C 3.2 km/h
782 15-01-2017 17:05:00 0.5 C 4.61 g/m*3 0.5 C 1.6 km/h
783 15-01-2017 17:10:00 0.4 C 4.58 g/m*3 0.4 C 0 km/h
784 15-01-2017 17:15:00 0.3 C 4.55 g/m*3 0.3 C 3.2 km/h
785 15-01-2017 17:20:00 0.2 C 4.52 g/m*3 0.2 C 3.2 km/h
786 15-01-2017 17:25:00 0.1 C 4.49 g/m*3 0.1 C 3.2 km/h
787 15-01-2017 17:30:00 0 C 4.46 g/m*3 0 C 1.6 km/h
788 15-01-2017 17:35:00 -0.1 C 4.47 g/m*3 -0.1 C 3.2 km/h
789 15-01-2017 17:40:00 -0.2 C 4.4 g/m*3 -0.2 C 3.2 km/h
790 15-01-2017 17:45:00 -0.1 C 4.47 g/m*3 -0.1 C 3.2 km/h
791 15-01-2017 17:50:00 -0.1 C 4.47 g/m*3 -0.1 C 3.2 km/h
792 15-01-2017 17:55:00 -0.1 C 4.47 g/m*3 -0.1 C 1.6 km/h
793 15-01-2017 18:00:00 -0.1 C 4.47 g/m*3 -0.1 C 0 km/h
794 15-01-2017 18:05:00 -0.2 C 4.44 g/m*3 -0.2 C 0 km/h
795 15-01-2017 18:10:00 -0.2 C 4.44 g/m*3 -0.2 C 0 km/h
796 15-01-2017 18:15:00 -0.3 C 4.41 g/m*3 -0.3 C 0 km/h
797 15-01-2017 18:20:00 -0.3 C 4.41 g/m*3 -0.3 C 0 km/h
798 15-01-2017 18:25:00 -0.3 C 4.41 g/m*3 -0.3 C 0 km/h
799 15-01-2017 18:30:00 -0.3 C 4.41 g/m*3 -0.3 C 0 km/h
800 15-01-2017 18:35:00 -0.3 C 4.46 g/m*3 -0.3 C 0 km/h
Sensor: Nr:Datum:Temp:Abs-Feuchte:Windchill:Wind:
Aussen-T/F 801 15-01-2017 18:40:00 -0.2 C 4.49 g/m*3 -0.2 C 0 km/h
802 15-01-2017 18:45:00 -0.2 C 4.49 g/m*3 -0.2 C 0 km/h
803 15-01-2017 18:50:00 -0.2 C 4.49 g/m*3 -0.2 C 0 km/h
804 15-01-2017 18:55:00 -0.2 C 4.49 g/m*3 -0.2 C 0 km/h
805 15-01-2017 19:00:00 -0.2 C 4.49 g/m*3 -0.2 C 0 km/h
806 15-01-2017 19:05:00 -0.2 C 4.49 g/m*3 -0.2 C 0 km/h
807 15-01-2017 19:10:00 -0.3 C 4.46 g/m*3 -0.3 C 0 km/h
808 15-01-2017 19:15:00 -0.3 C 4.46 g/m*3 -0.3 C 0 km/h
809 15-01-2017 19:20:00 -0.3 C 4.46 g/m*3 -0.3 C 0 km/h
810 15-01-2017 19:25:00 -0.3 C 4.46 g/m*3 -0.3 C 0 km/h
811 15-01-2017 19:30:00 -0.4 C 4.43 g/m*3 -0.4 C 0 km/h
812 15-01-2017 19:35:00 -0.6 C 4.32 g/m*3 -0.6 C 0 km/h
813 15-01-2017 19:40:00 -0.7 C 4.29 g/m*3 -0.7 C 0 km/h
814 15-01-2017 19:45:00 -0.7 C 4.29 g/m*3 -0.7 C 0 km/h
815 15-01-2017 19:50:00 -0.8 C 4.26 g/m*3 -0.8 C 0 km/h
816 15-01-2017 19:55:00 -0.8 C 4.26 g/m*3 -0.8 C 0 km/h
817 15-01-2017 20:00:00 -0.8 C 4.31 g/m*3 -0.8 C 0 km/h
818 15-01-2017 20:05:00 -0.7 C 4.34 g/m*3 -0.7 C 0 km/h
819 15-01-2017 20:10:00 -0.7 C 4.34 g/m*3 -0.7 C 0 km/h
820 15-01-2017 20:15:00 -0.6 C 4.37 g/m*3 -0.6 C 0 km/h
821 15-01-2017 20:20:00 -0.5 C 4.4 g/m*3 -0.5 C 0 km/h
822 15-01-2017 20:25:00 -0.4 C 4.43 g/m*3 -0.4 C 0 km/h
823 15-01-2017 20:30:00 -0.4 C 4.43 g/m*3 -0.4 C 0 km/h
824 15-01-2017 20:35:00 -0.4 C 4.48 g/m*3 -0.4 C 0 km/h
825 15-01-2017 20:40:00 -0.3 C 4.51 g/m*3 -0.3 C 0 km/h
Sensor: Nr:Datum:Temp:Abs-Feuchte:Windchill:Wind:
Aussen-T/F 826 15-01-2017 20:45:00 -0.3 C 4.46 g/m*3 -0.3 C 0 km/h
827 15-01-2017 20:50:00 -0.3 C 4.46 g/m*3 -0.3 C 0 km/h
828 15-01-2017 20:55:00 -0.3 C 4.46 g/m*3 -0.3 C 3.2 km/h
829 15-01-2017 21:00:00 -0.3 C 4.46 g/m*3 -0.3 C 0 km/h
830 15-01-2017 21:05:00 -0.3 C 4.46 g/m*3 -0.3 C 1.6 km/h
831 15-01-2017 21:10:00 -0.3 C 4.46 g/m*3 -0.3 C 0 km/h
832 15-01-2017 21:15:00 -0.3 C 4.46 g/m*3 -0.3 C 0 km/h
833 15-01-2017 21:20:00 -0.2 C 4.49 g/m*3 -0.2 C 1.6 km/h
834 15-01-2017 21:25:00 -0.2 C 4.49 g/m*3 -0.2 C 0 km/h
835 15-01-2017 21:30:00 -0.2 C 4.49 g/m*3 -0.2 C 0 km/h
836 15-01-2017 21:35:00 -0.2 C 4.49 g/m*3 -0.2 C 0 km/h
837 15-01-2017 21:40:00 -0.1 C 4.52 g/m*3 -0.1 C 0 km/h
838 15-01-2017 21:45:00 -0.1 C 4.52 g/m*3 -0.1 C 0 km/h
839 15-01-2017 21:50:00 -0.1 C 4.52 g/m*3 -0.1 C 0 km/h
840 15-01-2017 21:55:00 0 C 4.55 g/m*3 0 C 3.2 km/h
841 15-01-2017 22:00:00 0 C 4.55 g/m*3 0 C 3.2 km/h
842 15-01-2017 22:05:00 0.1 C 4.59 g/m*3 0.1 C 3.2 km/h
843 15-01-2017 22:10:00 0.1 C 4.59 g/m*3 0.1 C 0 km/h
844 15-01-2017 22:15:00 0.1 C 4.59 g/m*3 0.1 C 1.6 km/h
845 15-01-2017 22:20:00 0.1 C 4.59 g/m*3 0.1 C 1.6 km/h
846 15-01-2017 22:25:00 0.1 C 4.59 g/m*3 0.1 C 4.8 km/h
847 15-01-2017 22:30:00 0.1 C 4.54 g/m*3 0.1 C 4.8 km/h
848 15-01-2017 22:35:00 0.2 C 4.57 g/m*3 0.2 C 3.2 km/h
849 15-01-2017 22:40:00 0.2 C 4.57 g/m*3 0.2 C 0 km/h
850 15-01-2017 22:45:00 0.2 C 4.57 g/m*3 0.2 C 0 km/h
Sensor: Nr:Datum:Temp:Abs-Feuchte:Windchill:Wind:
Aussen-T/F 851 15-01-2017 22:50:00 0.2 C 4.57 g/m*3 0.2 C 1.6 km/h
852 15-01-2017 22:55:00 0.2 C 4.57 g/m*3 0.2 C 3.2 km/h
853 15-01-2017 23:00:00 0.1 C 4.54 g/m*3 0.1 C 0 km/h
854 15-01-2017 23:05:00 0.1 C 4.54 g/m*3 0.1 C 0 km/h
855 15-01-2017 23:10:00 0.1 C 4.54 g/m*3 0.1 C 1.6 km/h
856 15-01-2017 23:15:00 0.1 C 4.59 g/m*3 0.1 C 3.2 km/h
857 15-01-2017 23:20:00 0.1 C 4.59 g/m*3 0.1 C 0 km/h
858 15-01-2017 23:25:00 0.1 C 4.59 g/m*3 0.1 C 4.8 km/h
859 15-01-2017 23:30:00 0.1 C 4.59 g/m*3 0.1 C 0 km/h
860 15-01-2017 23:35:00 0.1 C 4.59 g/m*3 0.1 C 1.6 km/h
861 15-01-2017 23:40:00 0 C 4.55 g/m*3 0 C 1.6 km/h
862 15-01-2017 23:45:00 -0.1 C 4.52 g/m*3 -0.1 C 3.2 km/h
863 15-01-2017 23:50:00 -0.2 C 4.49 g/m*3 -0.2 C 0 km/h
864 15-01-2017 23:55:00 -0.3 C 4.46 g/m*3 -0.3 C 0 km/h
865 16-01-2017 00:00:00 -0.3 C 4.46 g/m*3 -0.3 C 0 km/h
866 16-01-2017 00:05:00 -0.4 C 4.43 g/m*3 -0.4 C 0 km/h
867 16-01-2017 00:10:00 -0.6 C 4.37 g/m*3 -0.6 C 1.6 km/h
868 16-01-2017 00:15:00 -0.6 C 4.37 g/m*3 -0.6 C 1.6 km/h
869 16-01-2017 00:20:00 -0.6 C 4.37 g/m*3 -0.6 C 1.6 km/h
870 16-01-2017 00:25:00 -0.6 C 4.42 g/m*3 -0.6 C 1.6 km/h
871 16-01-2017 00:30:00 -0.5 C 4.45 g/m*3 -0.5 C 3.2 km/h
872 16-01-2017 00:35:00 -0.4 C 4.48 g/m*3 -0.4 C 0 km/h
873 16-01-2017 00:40:00 -0.4 C 4.48 g/m*3 -0.4 C 0 km/h
874 16-01-2017 00:45:00 -0.4 C 4.48 g/m*3 -0.4 C 0 km/h
875 16-01-2017 00:50:00 -0.4 C 4.48 g/m*3 -0.4 C 0 km/h
Sensor: Nr:Datum:Temp:Abs-Feuchte:Windchill:Wind:
Aussen-T/F 876 16-01-2017 00:55:00 -0.4 C 4.48 g/m*3 -0.4 C 1.6 km/h
877 16-01-2017 01:00:00 -0.4 C 4.48 g/m*3 -0.4 C 3.2 km/h
878 16-01-2017 01:05:00 -0.4 C 4.48 g/m*3 -0.4 C 1.6 km/h
879 16-01-2017 01:10:00 -0.4 C 4.48 g/m*3 -0.4 C 0 km/h
880 16-01-2017 01:15:00 -0.4 C 4.48 g/m*3 -0.4 C 0 km/h
881 16-01-2017 01:20:00 -0.4 C 4.48 g/m*3 -0.4 C 1.6 km/h
882 16-01-2017 01:25:00 -0.4 C 4.48 g/m*3 -0.4 C 0 km/h
883 16-01-2017 01:30:00 -0.4 C 4.48 g/m*3 -0.4 C 1.6 km/h
884 16-01-2017 01:35:00 -0.3 C 4.51 g/m*3 -0.3 C 0 km/h
885 16-01-2017 01:40:00 -0.3 C 4.51 g/m*3 -0.3 C 0 km/h
886 16-01-2017 01:45:00 -0.3 C 4.51 g/m*3 -0.3 C 0 km/h
887 16-01-2017 01:50:00 -0.2 C 4.54 g/m*3 -0.2 C 0 km/h
888 16-01-2017 01:55:00 -0.2 C 4.54 g/m*3 -0.2 C 0 km/h
889 16-01-2017 02:00:00 -0.2 C 4.54 g/m*3 -0.2 C 0 km/h
890 16-01-2017 02:05:00 -0.2 C 4.54 g/m*3 -0.2 C 0 km/h
891 16-01-2017 02:10:00 -0.2 C 4.54 g/m*3 -0.2 C 0 km/h
892 16-01-2017 02:15:00 -0.2 C 4.54 g/m*3 -0.2 C 0 km/h
893 16-01-2017 02:20:00 -0.2 C 4.54 g/m*3 -0.2 C 0 km/h
894 16-01-2017 02:25:00 -0.2 C 4.54 g/m*3 -0.2 C 0 km/h
895 16-01-2017 02:30:00 -0.2 C 4.54 g/m*3 -0.2 C 0 km/h
896 16-01-2017 02:35:00 -0.3 C 4.51 g/m*3 -0.3 C 0 km/h
897 16-01-2017 02:40:00 -0.3 C 4.51 g/m*3 -0.3 C 0 km/h
898 16-01-2017 02:45:00 -0.3 C 4.51 g/m*3 -0.3 C 0 km/h
899 16-01-2017 02:50:00 -0.6 C 4.42 g/m*3 -0.6 C 0 km/h
900 16-01-2017 02:55:00 -0.8 C 4.35 g/m*3 -0.8 C 0 km/h
Sensor: Nr:Datum:Temp:Abs-Feuchte:Windchill:Wind:
Aussen-T/F 901 16-01-2017 03:00:00 -0.9 C 4.28 g/m*3 -0.9 C 0 km/h
902 16-01-2017 03:05:00 -0.9 C 4.32 g/m*3 -0.9 C 0 km/h
903 16-01-2017 03:10:00 -0.9 C 4.32 g/m*3 -0.9 C 0 km/h
904 16-01-2017 03:15:00 -0.9 C 4.32 g/m*3 -0.9 C 0 km/h
905 16-01-2017 03:20:00 -0.8 C 4.35 g/m*3 -0.8 C 0 km/h
906 16-01-2017 03:25:00 -0.7 C 4.39 g/m*3 -0.7 C 0 km/h
907 16-01-2017 03:30:00 -0.7 C 4.39 g/m*3 -0.7 C 0 km/h
908 16-01-2017 03:35:00 -0.6 C 4.42 g/m*3 -0.6 C 0 km/h
909 16-01-2017 03:40:00 -0.6 C 4.42 g/m*3 -0.6 C 0 km/h
910 16-01-2017 03:45:00 -0.6 C 4.42 g/m*3 -0.6 C 0 km/h
911 16-01-2017 03:50:00 -0.6 C 4.42 g/m*3 -0.6 C 0 km/h
912 16-01-2017 03:55:00 -0.6 C 4.42 g/m*3 -0.6 C 0 km/h
913 16-01-2017 04:00:00 -0.5 C 4.45 g/m*3 -0.5 C 0 km/h
914 16-01-2017 04:05:00 -0.5 C 4.45 g/m*3 -0.5 C 0 km/h
915 16-01-2017 04:10:00 -0.5 C 4.45 g/m*3 -0.5 C 0 km/h
916 16-01-2017 04:15:00 -0.5 C 4.45 g/m*3 -0.5 C 0 km/h
917 16-01-2017 04:20:00 -0.5 C 4.45 g/m*3 -0.5 C 1.6 km/h
918 16-01-2017 04:25:00 -0.5 C 4.45 g/m*3 -0.5 C 1.6 km/h
919 16-01-2017 04:30:00 -0.5 C 4.45 g/m*3 -0.5 C 0 km/h
920 16-01-2017 04:35:00 -0.5 C 4.45 g/m*3 -0.5 C 1.6 km/h
921 16-01-2017 04:40:00 -0.6 C 4.42 g/m*3 -0.6 C 0 km/h
922 16-01-2017 04:45:00 -0.6 C 4.42 g/m*3 -0.6 C 0 km/h
923 16-01-2017 04:50:00 -0.6 C 4.42 g/m*3 -0.6 C 0 km/h
924 16-01-2017 04:55:00 -0.6 C 4.42 g/m*3 -0.6 C 0 km/h
925 16-01-2017 05:00:00 -0.6 C 4.42 g/m*3 -0.6 C 0 km/h
Sensor: Nr:Datum:Temp:Abs-Feuchte:Windchill:Wind:
Aussen-T/F 926 16-01-2017 05:05:00 -0.5 C 4.45 g/m*3 -0.5 C 0 km/h
927 16-01-2017 05:10:00 -0.5 C 4.45 g/m*3 -0.5 C 3.2 km/h
928 16-01-2017 05:15:00 -0.5 C 4.45 g/m*3 -0.5 C 1.6 km/h
929 16-01-2017 05:20:00 -0.4 C 4.48 g/m*3 -0.4 C 0 km/h
930 16-01-2017 05:25:00 -0.4 C 4.48 g/m*3 -0.4 C 0 km/h
931 16-01-2017 05:30:00 -0.4 C 4.48 g/m*3 -0.4 C 0 km/h
932 16-01-2017 05:35:00 -0.4 C 4.48 g/m*3 -0.4 C 0 km/h
933 16-01-2017 05:40:00 -0.4 C 4.48 g/m*3 -0.4 C 0 km/h
934 16-01-2017 05:45:00 -0.5 C 4.45 g/m*3 -0.5 C 0 km/h
935 16-01-2017 05:50:00 -0.5 C 4.45 g/m*3 -0.5 C 0 km/h
936 16-01-2017 05:55:00 -0.5 C 4.45 g/m*3 -0.5 C 0 km/h
937 16-01-2017 06:00:00 -0.5 C 4.45 g/m*3 -0.5 C 0 km/h
938 16-01-2017 06:05:00 -0.5 C 4.45 g/m*3 -0.5 C 0 km/h
939 16-01-2017 06:10:00 -0.5 C 4.45 g/m*3 -0.5 C 0 km/h
940 16-01-2017 06:15:00 -0.6 C 4.42 g/m*3 -0.6 C 0 km/h
941 16-01-2017 06:20:00 -0.5 C 4.45 g/m*3 -0.5 C 0 km/h
942 16-01-2017 06:25:00 -0.6 C 4.42 g/m*3 -0.6 C 0 km/h
943 16-01-2017 06:30:00 -0.6 C 4.42 g/m*3 -0.6 C 0 km/h
944 16-01-2017 06:35:00 -0.6 C 4.42 g/m*3 -0.6 C 0 km/h
945 16-01-2017 06:40:00 -0.6 C 4.42 g/m*3 -0.6 C 0 km/h
946 16-01-2017 06:45:00 -0.6 C 4.42 g/m*3 -0.6 C 0 km/h
947 16-01-2017 06:50:00 -0.6 C 4.42 g/m*3 -0.6 C 0 km/h
948 16-01-2017 06:55:00 -0.6 C 4.42 g/m*3 -0.6 C 0 km/h
949 16-01-2017 07:00:00 -0.6 C 4.42 g/m*3 -0.6 C 0 km/h
950 16-01-2017 07:05:00 -0.6 C 4.42 g/m*3 -0.6 C 0 km/h
Sensor: Nr:Datum:Temp:Abs-Feuchte:Windchill:Wind:
Aussen-T/F 951 16-01-2017 07:10:00 -0.6 C 4.42 g/m*3 -0.6 C 0 km/h
952 16-01-2017 07:15:00 -0.6 C 4.42 g/m*3 -0.6 C 0 km/h
953 16-01-2017 07:20:00 -0.7 C 4.39 g/m*3 -0.7 C 0 km/h
954 16-01-2017 07:25:00 -0.7 C 4.39 g/m*3 -0.7 C 0 km/h
955 16-01-2017 07:30:00 -0.7 C 4.39 g/m*3 -0.7 C 0 km/h
956 16-01-2017 07:35:00 -0.7 C 4.39 g/m*3 -0.7 C 0 km/h
957 16-01-2017 07:40:00 -0.7 C 4.43 g/m*3 -0.7 C 0 km/h
958 16-01-2017 07:45:00 -0.8 C 4.35 g/m*3 -0.8 C 0 km/h
959 16-01-2017 07:50:00 -0.8 C 4.35 g/m*3 -0.8 C 0 km/h
960 16-01-2017 07:55:00 -0.8 C 4.35 g/m*3 -0.8 C 0 km/h
961 16-01-2017 08:00:00 -0.8 C 4.35 g/m*3 -0.8 C 0 km/h
962 16-01-2017 08:05:00 -0.9 C 4.32 g/m*3 -0.9 C 0 km/h
963 16-01-2017 08:10:00 -0.9 C 4.32 g/m*3 -0.9 C 0 km/h
964 16-01-2017 08:15:00 -1 C 4.29 g/m*3 -1 C 0 km/h
965 16-01-2017 08:20:00 -1 C 4.29 g/m*3 -1 C 0 km/h
966 16-01-2017 08:25:00 -1.1 C 4.26 g/m*3 -1.1 C 0 km/h
967 16-01-2017 08:30:00 -1.1 C 4.26 g/m*3 -1.1 C 0 km/h
968 16-01-2017 08:35:00 -1.2 C 4.24 g/m*3 -1.2 C 0 km/h
969 16-01-2017 08:40:00 -1.3 C 4.21 g/m*3 -1.3 C 0 km/h
970 16-01-2017 08:45:00 -1.3 C 4.21 g/m*3 -1.3 C 0 km/h
971 16-01-2017 08:50:00 -1.4 C 4.18 g/m*3 -1.4 C 0 km/h
972 16-01-2017 08:55:00 -1.6 C 4.12 g/m*3 -1.6 C 0 km/h
973 16-01-2017 09:00:00 -1.7 C 4.09 g/m*3 -1.7 C 0 km/h
974 16-01-2017 09:05:00 -1.8 C 4.06 g/m*3 -1.8 C 0 km/h
975 16-01-2017 09:10:00 -1.8 C 4.06 g/m*3 -1.8 C 0 km/h
Sensor: Nr:Datum:Temp:Abs-Feuchte:Windchill:Wind:
Aussen-T/F 976 16-01-2017 09:15:00 -1.8 C 4.06 g/m*3 -1.8 C 0 km/h
977 16-01-2017 09:20:00 -1.9 C 4.03 g/m*3 -1.9 C 0 km/h
978 16-01-2017 09:25:00 -1.8 C 4.06 g/m*3 -1.8 C 0 km/h
979 16-01-2017 09:30:00 -1.7 C 4.09 g/m*3 -1.7 C 0 km/h
980 16-01-2017 09:35:00 -1.6 C 4.16 g/m*3 -1.6 C 0 km/h
981 16-01-2017 09:40:00 -1.3 C 4.25 g/m*3 -1.3 C 0 km/h
982 16-01-2017 09:45:00 -1.2 C 4.28 g/m*3 -1.2 C 0 km/h
983 16-01-2017 09:50:00 -1.1 C 4.31 g/m*3 -1.1 C 0 km/h
984 16-01-2017 09:55:00 -0.9 C 4.37 g/m*3 -0.9 C 0 km/h
985 16-01-2017 10:00:00 -0.8 C 4.4 g/m*3 -0.8 C 0 km/h
986 16-01-2017 10:05:00 -0.7 C 4.43 g/m*3 -0.7 C 0 km/h
987 16-01-2017 10:10:00 -0.7 C 4.43 g/m*3 -0.7 C 0 km/h
988 16-01-2017 10:15:00 -0.6 C 4.46 g/m*3 -0.6 C 0 km/h
989 16-01-2017 10:20:00 -0.6 C 4.46 g/m*3 -0.6 C 0 km/h
990 16-01-2017 10:25:00 -0.5 C 4.49 g/m*3 -0.5 C 0 km/h
991 16-01-2017 10:30:00 -0.4 C 4.52 g/m*3 -0.4 C 0 km/h
992 16-01-2017 10:35:00 -0.3 C 4.56 g/m*3 -0.3 C 0 km/h
993 16-01-2017 10:40:00 -0.3 C 4.56 g/m*3 -0.3 C 0 km/h
994 16-01-2017 10:45:00 -0.2 C 4.59 g/m*3 -0.2 C 0 km/h
995 16-01-2017 10:50:00 -0.2 C 4.59 g/m*3 -0.2 C 0 km/h
996 16-01-2017 10:55:00 -0.2 C 4.59 g/m*3 -0.2 C 0 km/h
997 16-01-2017 11:00:00 -0.2 C 4.54 g/m*3 -0.2 C 0 km/h
998 16-01-2017 11:05:00 -0.1 C 4.57 g/m*3 -0.1 C 0 km/h
999 16-01-2017 11:10:00 -0.1 C 4.57 g/m*3 -0.1 C 0 km/h
1000 16-01-2017 11:15:00 0 C 4.65 g/m*3 0 C 0 km/h
Sensor: Nr:Datum:Temp:Abs-Feuchte:Windchill:Wind:
Aussen-T/F 1001 16-01-2017 11:20:00 0.1 C 4.63 g/m*3 0.1 C 1.6 km/h
1002 16-01-2017 11:25:00 0.1 C 4.63 g/m*3 0.1 C 1.6 km/h
1003 16-01-2017 11:30:00 0.2 C 4.67 g/m*3 0.2 C 0 km/h
1004 16-01-2017 11:35:00 0.3 C 4.7 g/m*3 0.3 C 1.6 km/h
1005 16-01-2017 11:40:00 0.3 C 4.7 g/m*3 -1.84 C 6.4 km/h
1006 16-01-2017 11:45:00 0.3 C 4.7 g/m*3 0.3 C 3.2 km/h
1007 16-01-2017 11:50:00 0.3 C 4.65 g/m*3 0.3 C 3.2 km/h
1008 16-01-2017 11:55:00 0.3 C 4.65 g/m*3 0.3 C 1.6 km/h
1009 16-01-2017 12:00:00 0.2 C 4.57 g/m*3 0.2 C 4.8 km/h
1010 16-01-2017 12:05:00 0.1 C 4.49 g/m*3 -2.07 C 6.4 km/h
1011 16-01-2017 12:10:00 0 C 4.41 g/m*3 0 C 1.6 km/h
1012 16-01-2017 12:15:00 -0.1 C 4.38 g/m*3 -0.1 C 1.6 km/h
1013 16-01-2017 12:20:00 -0.2 C 4.35 g/m*3 -0.2 C 0 km/h
1014 16-01-2017 12:25:00 -0.2 C 4.3 g/m*3 -0.2 C 3.2 km/h
1015 16-01-2017 12:30:00 -0.2 C 4.35 g/m*3 -0.2 C 0 km/h
1016 16-01-2017 12:35:00 -0.3 C 4.32 g/m*3 -0.3 C 0 km/h
1017 16-01-2017 12:40:00 -0.4 C 4.29 g/m*3 -0.4 C 1.6 km/h
1018 16-01-2017 12:45:00 -0.5 C 4.26 g/m*3 -0.5 C 0 km/h
1019 16-01-2017 12:50:00 -0.6 C 4.23 g/m*3 -0.6 C 1.6 km/h
1020 16-01-2017 12:55:00 -0.7 C 4.2 g/m*3 -0.7 C 0 km/h
1021 16-01-2017 13:00:00 -0.8 C 4.22 g/m*3 -0.8 C 1.6 km/h
1022 16-01-2017 13:05:00 -0.8 C 4.22 g/m*3 -0.8 C 3.2 km/h
1023 16-01-2017 13:10:00 -0.9 C 4.19 g/m*3 -0.9 C 3.2 km/h
1024 16-01-2017 13:15:00 -0.9 C 4.19 g/m*3 -0.9 C 1.6 km/h
1025 16-01-2017 13:20:00 -0.9 C 4.19 g/m*3 -0.9 C 0 km/h
Sensor: Nr:Datum:Temp:Abs-Feuchte:Windchill:Wind:
Aussen-T/F 1026 16-01-2017 13:25:00 -0.9 C 4.19 g/m*3 -0.9 C 0 km/h
1027 16-01-2017 13:30:00 -0.8 C 4.22 g/m*3 -0.8 C 0 km/h
1028 16-01-2017 13:35:00 -0.8 C 4.22 g/m*3 -0.8 C 1.6 km/h
1029 16-01-2017 13:40:00 -0.8 C 4.22 g/m*3 -0.8 C 1.6 km/h
1030 16-01-2017 13:45:00 -0.7 C 4.25 g/m*3 -0.7 C 3.2 km/h
1031 16-01-2017 13:50:00 -0.6 C 4.32 g/m*3 -0.6 C 3.2 km/h
1032 16-01-2017 13:55:00 -0.4 C 4.38 g/m*3 -0.4 C 1.6 km/h
1033 16-01-2017 14:00:00 -0.3 C 4.41 g/m*3 -0.3 C 0 km/h
1034 16-01-2017 14:05:00 -0.3 C 4.37 g/m*3 -0.3 C 0 km/h
1035 16-01-2017 14:10:00 -0.3 C 4.37 g/m*3 -0.3 C 0 km/h
1036 16-01-2017 14:15:00 -0.3 C 4.37 g/m*3 -0.3 C 0 km/h
1037 16-01-2017 14:20:00 -0.4 C 4.29 g/m*3 -0.4 C 3.2 km/h
1038 16-01-2017 14:25:00 -0.4 C 4.29 g/m*3 -0.4 C 3.2 km/h
1039 16-01-2017 14:30:00 -0.6 C 4.23 g/m*3 -0.6 C 1.6 km/h
1040 16-01-2017 14:35:00 -0.6 C 4.23 g/m*3 -0.6 C 1.6 km/h
1041 16-01-2017 14:40:00 -0.7 C 4.2 g/m*3 -0.7 C 3.2 km/h
1042 16-01-2017 14:45:00 -0.7 C 4.2 g/m*3 -0.7 C 1.6 km/h
1043 16-01-2017 14:50:00 -0.7 C 4.2 g/m*3 -0.7 C 4.8 km/h
1044 16-01-2017 14:55:00 -0.7 C 4.11 g/m*3 -0.7 C 3.2 km/h
1045 16-01-2017 15:00:00 -0.6 C 4.09 g/m*3 -0.6 C 4.8 km/h
1046 16-01-2017 15:05:00 -0.5 C 4.12 g/m*3 -0.5 C 1.6 km/h
1047 16-01-2017 15:10:00 -0.5 C 4.12 g/m*3 -0.5 C 1.6 km/h
1048 16-01-2017 15:15:00 -0.6 C 4.14 g/m*3 -0.6 C 1.6 km/h
1049 16-01-2017 15:20:00 -0.7 C 4.11 g/m*3 -0.7 C 3.2 km/h
1050 16-01-2017 15:25:00 -0.8 C 4.08 g/m*3 -0.8 C 3.2 km/h
Sensor: Nr:Datum:Temp:Abs-Feuchte:Windchill:Wind:
Aussen-T/F 1051 16-01-2017 15:30:00 -0.9 C 4.1 g/m*3 -0.9 C 3.2 km/h
1052 16-01-2017 15:35:00 -1.1 C 4.04 g/m*3 -1.1 C 3.2 km/h
1053 16-01-2017 15:40:00 -1.1 C 4.04 g/m*3 -1.1 C 3.2 km/h
1054 16-01-2017 15:45:00 -1.2 C 4.01 g/m*3 -1.2 C 4.8 km/h
1055 16-01-2017 15:50:00 -1.2 C 4.06 g/m*3 -1.2 C 4.8 km/h
1056 16-01-2017 15:55:00 -1.2 C 4.06 g/m*3 -1.2 C 4.8 km/h
1057 16-01-2017 16:00:00 -1.3 C 4.03 g/m*3 -1.3 C 4.8 km/h
1058 16-01-2017 16:05:00 -1.3 C 4.03 g/m*3 -1.3 C 4.8 km/h
1059 16-01-2017 16:10:00 -1.3 C 4.03 g/m*3 -1.3 C 4.8 km/h
1060 16-01-2017 16:15:00 -1.3 C 4.07 g/m*3 -1.3 C 4.8 km/h
1061 16-01-2017 16:20:00 -1.3 C 4.07 g/m*3 -1.3 C 4.8 km/h
1062 16-01-2017 16:25:00 -1.4 C 4.04 g/m*3 -1.4 C 4.8 km/h
1063 16-01-2017 16:30:00 -1.4 C 4 g/m*3 -1.4 C 3.2 km/h
1064 16-01-2017 16:35:00 -1.5 C 4.02 g/m*3 -1.5 C 1.6 km/h
1065 16-01-2017 16:40:00 -1.5 C 3.97 g/m*3 -1.5 C 1.6 km/h
1066 16-01-2017 16:45:00 -1.6 C 3.94 g/m*3 -1.6 C 3.2 km/h
1067 16-01-2017 16:50:00 -1.7 C 3.96 g/m*3 -1.7 C 3.2 km/h
1068 16-01-2017 16:55:00 -1.7 C 3.96 g/m*3 -1.7 C 4.8 km/h
1069 16-01-2017 17:00:00 -1.7 C 3.96 g/m*3 -1.7 C 3.2 km/h
1070 16-01-2017 17:05:00 -1.7 C 3.96 g/m*3 -1.7 C 3.2 km/h
1071 16-01-2017 17:10:00 -1.7 C 3.96 g/m*3 -1.7 C 1.6 km/h
1072 16-01-2017 17:15:00 -1.7 C 3.96 g/m*3 -1.7 C 1.6 km/h
1073 16-01-2017 17:20:00 -1.8 C 3.89 g/m*3 -1.8 C 1.6 km/h
1074 16-01-2017 17:25:00 -1.9 C 3.86 g/m*3 -1.9 C 3.2 km/h
1075 16-01-2017 17:30:00 -1.9 C 3.86 g/m*3 -1.9 C 3.2 km/h
Sensor: Nr:Datum:Temp:Abs-Feuchte:Windchill:Wind:
Aussen-T/F 1076 16-01-2017 17:35:00 -2.1 C 3.81 g/m*3 -2.1 C 3.2 km/h
1077 16-01-2017 17:40:00 -2.1 C 3.81 g/m*3 -2.1 C 4.8 km/h
1078 16-01-2017 17:45:00 -2.2 C 3.82 g/m*3 -2.2 C 4.8 km/h
1079 16-01-2017 17:50:00 -2.2 C 3.82 g/m*3 -2.2 C 1.6 km/h
1080 16-01-2017 17:55:00 -2.2 C 3.82 g/m*3 -2.2 C 1.6 km/h
1081 16-01-2017 18:00:00 -2.3 C 3.8 g/m*3 -2.3 C 1.6 km/h
1082 16-01-2017 18:05:00 -2.3 C 3.8 g/m*3 -2.3 C 1.6 km/h
1083 16-01-2017 18:10:00 -2.3 C 3.8 g/m*3 -2.3 C 0 km/h
1084 16-01-2017 18:15:00 -2.4 C 3.77 g/m*3 -2.4 C 0 km/h
1085 16-01-2017 18:20:00 -2.5 C 3.74 g/m*3 -2.5 C 0 km/h
1086 16-01-2017 18:25:00 -2.6 C 3.72 g/m*3 -2.6 C 0 km/h
1087 16-01-2017 18:30:00 -2.7 C 3.69 g/m*3 -2.7 C 3.2 km/h
1088 16-01-2017 18:35:00 -2.7 C 3.69 g/m*3 -2.7 C 3.2 km/h
1089 16-01-2017 18:40:00 -2.8 C 3.71 g/m*3 -2.8 C 1.6 km/h
1090 16-01-2017 18:45:00 -2.8 C 3.67 g/m*3 -2.8 C 0 km/h
1091 16-01-2017 18:50:00 -2.9 C 3.64 g/m*3 -2.9 C 1.6 km/h
1092 16-01-2017 18:55:00 -2.9 C 3.64 g/m*3 -2.9 C 1.6 km/h
1093 16-01-2017 19:00:00 -3 C 3.65 g/m*3 -3 C 1.6 km/h
1094 16-01-2017 19:05:00 -3.1 C 3.59 g/m*3 -3.1 C 0 km/h
1095 16-01-2017 19:10:00 -3.2 C 3.56 g/m*3 -3.2 C 0 km/h
1096 16-01-2017 19:15:00 -3.2 C 3.6 g/m*3 -3.2 C 0 km/h
1097 16-01-2017 19:20:00 -3.3 C 3.58 g/m*3 -3.3 C 0 km/h
1098 16-01-2017 19:25:00 -3.4 C 3.51 g/m*3 -3.4 C 0 km/h
1099 16-01-2017 19:30:00 -3.5 C 3.53 g/m*3 -3.5 C 0 km/h
1100 16-01-2017 19:35:00 -3.6 C 3.5 g/m*3 -3.6 C 0 km/h
Sensor: Nr:Datum:Temp:Abs-Feuchte:Windchill:Wind:
Aussen-T/F 1101 16-01-2017 19:40:00 -3.6 C 3.5 g/m*3 -3.6 C 0 km/h
1102 16-01-2017 19:45:00 -3.8 C 3.45 g/m*3 -3.8 C 0 km/h
1103 16-01-2017 19:50:00 -3.8 C 3.45 g/m*3 -3.8 C 0 km/h
1104 16-01-2017 19:55:00 -3.8 C 3.45 g/m*3 -3.8 C 0 km/h
1105 16-01-2017 20:00:00 -3.8 C 3.45 g/m*3 -3.8 C 0 km/h
1106 16-01-2017 20:05:00 -3.8 C 3.49 g/m*3 -3.8 C 1.6 km/h
1107 16-01-2017 20:10:00 -3.8 C 3.49 g/m*3 -3.8 C 0 km/h
1108 16-01-2017 20:15:00 -3.8 C 3.49 g/m*3 -3.8 C 0 km/h
1109 16-01-2017 20:20:00 -3.9 C 3.43 g/m*3 -3.9 C 0 km/h
1110 16-01-2017 20:25:00 -4.1 C 3.38 g/m*3 -4.1 C 0 km/h
1111 16-01-2017 20:30:00 -4.2 C 3.35 g/m*3 -4.2 C 0 km/h
1112 16-01-2017 20:35:00 -4.2 C 3.39 g/m*3 -4.2 C 0 km/h
1113 16-01-2017 20:40:00 -4.3 C 3.33 g/m*3 -4.3 C 0 km/h
1114 16-01-2017 20:45:00 -4.4 C 3.31 g/m*3 -4.4 C 0 km/h
1115 16-01-2017 20:50:00 -4.4 C 3.34 g/m*3 -4.4 C 0 km/h
1116 16-01-2017 20:55:00 -4.6 C 3.29 g/m*3 -4.6 C 0 km/h
1117 16-01-2017 21:00:00 -4.6 C 3.29 g/m*3 -4.6 C 0 km/h
1118 16-01-2017 21:05:00 -4.7 C 3.27 g/m*3 -4.7 C 0 km/h
1119 16-01-2017 21:10:00 -4.7 C 3.27 g/m*3 -4.7 C 0 km/h
1120 16-01-2017 21:15:00 -4.7 C 3.27 g/m*3 -4.7 C 0 km/h
1121 16-01-2017 21:20:00 -4.7 C 3.27 g/m*3 -4.7 C 0 km/h
1122 16-01-2017 21:25:00 -4.7 C 3.27 g/m*3 -4.7 C 0 km/h
1123 16-01-2017 21:30:00 -4.7 C 3.27 g/m*3 -4.7 C 0 km/h
1124 16-01-2017 21:35:00 -4.8 C 3.25 g/m*3 -4.8 C 0 km/h
1125 16-01-2017 21:40:00 -4.9 C 3.22 g/m*3 -4.9 C 0 km/h
Sensor: Nr:Datum:Temp:Abs-Feuchte:Windchill:Wind:
Aussen-T/F 1126 16-01-2017 21:45:00 -5 C 3.2 g/m*3 -5 C 0 km/h
1127 16-01-2017 21:50:00 -5.1 C 3.18 g/m*3 -5.1 C 0 km/h
1128 16-01-2017 21:55:00 -5.2 C 3.15 g/m*3 -5.2 C 0 km/h
1129 16-01-2017 22:00:00 -5.3 C 3.13 g/m*3 -5.3 C 0 km/h
1130 16-01-2017 22:05:00 -5.3 C 3.13 g/m*3 -5.3 C 0 km/h
1131 16-01-2017 22:10:00 -5.3 C 3.13 g/m*3 -5.3 C 0 km/h
1132 16-01-2017 22:15:00 -5.3 C 3.13 g/m*3 -5.3 C 0 km/h
1133 16-01-2017 22:20:00 -5.3 C 3.13 g/m*3 -5.3 C 0 km/h
1134 16-01-2017 22:25:00 -5.4 C 3.11 g/m*3 -5.4 C 0 km/h
1135 16-01-2017 22:30:00 -5.5 C 3.09 g/m*3 -5.5 C 0 km/h
1136 16-01-2017 22:35:00 -5.5 C 3.09 g/m*3 -5.5 C 0 km/h
1137 16-01-2017 22:40:00 -5.4 C 3.11 g/m*3 -5.4 C 0 km/h
1138 16-01-2017 22:45:00 -5.4 C 3.11 g/m*3 -5.4 C 0 km/h
1139 16-01-2017 22:50:00 -5.4 C 3.14 g/m*3 -5.4 C 0 km/h
1140 16-01-2017 22:55:00 -5.4 C 3.14 g/m*3 -5.4 C 0 km/h
1141 16-01-2017 23:00:00 -5.5 C 3.09 g/m*3 -5.5 C 0 km/h
1142 16-01-2017 23:05:00 -5.7 C 3.04 g/m*3 -5.7 C 0 km/h
1143 16-01-2017 23:10:00 -5.8 C 3.02 g/m*3 -5.8 C 0 km/h
1144 16-01-2017 23:15:00 -5.8 C 3.02 g/m*3 -5.8 C 0 km/h
1145 16-01-2017 23:20:00 -5.7 C 3.04 g/m*3 -5.7 C 0 km/h
1146 16-01-2017 23:25:00 -5.7 C 3.04 g/m*3 -5.7 C 0 km/h
1147 16-01-2017 23:30:00 -5.7 C 3.07 g/m*3 -5.7 C 0 km/h
1148 16-01-2017 23:35:00 -5.7 C 3.04 g/m*3 -5.7 C 0 km/h
1149 16-01-2017 23:40:00 -5.8 C 3.02 g/m*3 -5.8 C 0 km/h
1150 16-01-2017 23:45:00 -5.8 C 3.02 g/m*3 -5.8 C 0 km/h
Sensor: Nr:Datum:Temp:Abs-Feuchte:Windchill:Wind:
Aussen-T/F 1151 16-01-2017 23:50:00 -5.8 C 3.02 g/m*3 -5.8 C 0 km/h
1152 16-01-2017 23:55:00 -5.9 C 3 g/m*3 -5.9 C 0 km/h
1153 17-01-2017 00:00:00 -5.9 C 3 g/m*3 -5.9 C 0 km/h
1154 17-01-2017 00:05:00 -6 C 2.98 g/m*3 -6 C 0 km/h
1155 17-01-2017 00:10:00 -6.1 C 2.96 g/m*3 -6.1 C 0 km/h
1156 17-01-2017 00:15:00 -6.2 C 2.93 g/m*3 -6.2 C 0 km/h
1157 17-01-2017 00:20:00 -6.2 C 2.93 g/m*3 -6.2 C 0 km/h
1158 17-01-2017 00:25:00 -6.3 C 2.91 g/m*3 -6.3 C 0 km/h
1159 17-01-2017 00:30:00 -6.3 C 2.91 g/m*3 -6.3 C 0 km/h
1160 17-01-2017 00:35:00 -6.3 C 2.91 g/m*3 -6.3 C 0 km/h
1161 17-01-2017 00:40:00 -6.3 C 2.91 g/m*3 -6.3 C 0 km/h
1162 17-01-2017 00:45:00 -6.3 C 2.91 g/m*3 -6.3 C 0 km/h
1163 17-01-2017 00:50:00 -6.3 C 2.91 g/m*3 -6.3 C 0 km/h
1164 17-01-2017 00:55:00 -6.4 C 2.89 g/m*3 -6.4 C 0 km/h
1165 17-01-2017 01:00:00 -6.4 C 2.89 g/m*3 -6.4 C 0 km/h
1166 17-01-2017 01:05:00 -6.5 C 2.87 g/m*3 -6.5 C 0 km/h
1167 17-01-2017 01:10:00 -6.6 C 2.85 g/m*3 -6.6 C 0 km/h
1168 17-01-2017 01:15:00 -6.6 C 2.85 g/m*3 -6.6 C 0 km/h
1169 17-01-2017 01:20:00 -6.7 C 2.83 g/m*3 -6.7 C 0 km/h
1170 17-01-2017 01:25:00 -6.6 C 2.85 g/m*3 -6.6 C 0 km/h
1171 17-01-2017 01:30:00 -6.6 C 2.85 g/m*3 -6.6 C 0 km/h
1172 17-01-2017 01:35:00 -6.6 C 2.85 g/m*3 -6.6 C 0 km/h
1173 17-01-2017 01:40:00 -6.7 C 2.83 g/m*3 -6.7 C 0 km/h
1174 17-01-2017 01:45:00 -6.7 C 2.83 g/m*3 -6.7 C 0 km/h
1175 17-01-2017 01:50:00 -6.8 C 2.81 g/m*3 -6.8 C 0 km/h
Sensor: Nr:Datum:Temp:Abs-Feuchte:Windchill:Wind:
Aussen-T/F 1176 17-01-2017 01:55:00 -6.8 C 2.81 g/m*3 -6.8 C 0 km/h
1177 17-01-2017 02:00:00 -6.8 C 2.81 g/m*3 -6.8 C 0 km/h
1178 17-01-2017 02:05:00 -6.8 C 2.81 g/m*3 -6.8 C 0 km/h
1179 17-01-2017 02:10:00 -6.9 C 2.79 g/m*3 -6.9 C 0 km/h
1180 17-01-2017 02:15:00 -6.9 C 2.79 g/m*3 -6.9 C 0 km/h
1181 17-01-2017 02:20:00 -6.8 C 2.81 g/m*3 -6.8 C 0 km/h
1182 17-01-2017 02:25:00 -6.8 C 2.81 g/m*3 -6.8 C 0 km/h
1183 17-01-2017 02:30:00 -6.8 C 2.81 g/m*3 -6.8 C 0 km/h
1184 17-01-2017 02:35:00 -6.8 C 2.81 g/m*3 -6.8 C 0 km/h
1185 17-01-2017 02:40:00 -6.7 C 2.83 g/m*3 -6.7 C 0 km/h
1186 17-01-2017 02:45:00 -6.5 C 2.9 g/m*3 -6.5 C 0 km/h
1187 17-01-2017 02:50:00 -6.3 C 2.94 g/m*3 -6.3 C 0 km/h
1188 17-01-2017 02:55:00 -6.1 C 2.99 g/m*3 -6.1 C 0 km/h
1189 17-01-2017 03:00:00 -5.9 C 3.03 g/m*3 -5.9 C 0 km/h
1190 17-01-2017 03:05:00 -5.7 C 3.07 g/m*3 -5.7 C 0 km/h
1191 17-01-2017 03:10:00 -5.6 C 3.1 g/m*3 -5.6 C 0 km/h
1192 17-01-2017 03:15:00 -5.4 C 3.14 g/m*3 -5.4 C 0 km/h
1193 17-01-2017 03:20:00 -5.3 C 3.17 g/m*3 -5.3 C 0 km/h
1194 17-01-2017 03:25:00 -5.1 C 3.25 g/m*3 -5.1 C 0 km/h
1195 17-01-2017 03:30:00 -5 C 3.27 g/m*3 -5 C 0 km/h
1196 17-01-2017 03:35:00 -4.9 C 3.26 g/m*3 -4.9 C 0 km/h
1197 17-01-2017 03:40:00 -4.8 C 3.28 g/m*3 -4.8 C 0 km/h
1198 17-01-2017 03:45:00 -4.7 C 3.31 g/m*3 -4.7 C 0 km/h
1199 17-01-2017 03:50:00 -4.7 C 3.31 g/m*3 -4.7 C 0 km/h
1200 17-01-2017 03:55:00 -4.6 C 3.33 g/m*3 -4.6 C 0 km/h
Sensor: Nr:Datum:Temp:Abs-Feuchte:Windchill:Wind:
Aussen-T/F 1201 17-01-2017 04:00:00 -4.6 C 3.33 g/m*3 -4.6 C 0 km/h
1202 17-01-2017 04:05:00 -4.6 C 3.33 g/m*3 -4.6 C 0 km/h
1203 17-01-2017 04:10:00 -4.5 C 3.35 g/m*3 -4.5 C 0 km/h
1204 17-01-2017 04:15:00 -4.5 C 3.35 g/m*3 -4.5 C 0 km/h
1205 17-01-2017 04:20:00 -4.4 C 3.38 g/m*3 -4.4 C 0 km/h
1206 17-01-2017 04:25:00 -4.4 C 3.38 g/m*3 -4.4 C 0 km/h
1207 17-01-2017 04:30:00 -4.4 C 3.38 g/m*3 -4.4 C 0 km/h
1208 17-01-2017 04:35:00 -4.3 C 3.4 g/m*3 -4.3 C 0 km/h
1209 17-01-2017 04:40:00 -4.3 C 3.4 g/m*3 -4.3 C 0 km/h
1210 17-01-2017 04:45:00 -4.4 C 3.38 g/m*3 -4.4 C 1.6 km/h
1211 17-01-2017 04:50:00 -4.4 C 3.38 g/m*3 -4.4 C 1.6 km/h
1212 17-01-2017 04:55:00 -4.4 C 3.38 g/m*3 -4.4 C 0 km/h
1213 17-01-2017 05:00:00 -4.4 C 3.34 g/m*3 -4.4 C 0 km/h
1214 17-01-2017 05:05:00 -4.5 C 3.32 g/m*3 -4.5 C 0 km/h
1215 17-01-2017 05:10:00 -4.6 C 3.33 g/m*3 -4.6 C 0 km/h
1216 17-01-2017 05:15:00 -4.6 C 3.33 g/m*3 -4.6 C 0 km/h
1217 17-01-2017 05:20:00 -4.6 C 3.29 g/m*3 -4.6 C 0 km/h
1218 17-01-2017 05:25:00 -4.6 C 3.29 g/m*3 -4.6 C 0 km/h
1219 17-01-2017 05:30:00 -4.6 C 3.29 g/m*3 -4.6 C 0 km/h
1220 17-01-2017 05:35:00 -4.6 C 3.29 g/m*3 -4.6 C 0 km/h
1221 17-01-2017 05:40:00 -4.6 C 3.33 g/m*3 -4.6 C 0 km/h
1222 17-01-2017 05:45:00 -4.6 C 3.33 g/m*3 -4.6 C 1.6 km/h
1223 17-01-2017 05:50:00 -4.5 C 3.35 g/m*3 -4.5 C 0 km/h
1224 17-01-2017 05:55:00 -4.5 C 3.35 g/m*3 -4.5 C 0 km/h
1225 17-01-2017 06:00:00 -4.4 C 3.38 g/m*3 -4.4 C 0 km/h
Sensor: Nr:Datum:Temp:Abs-Feuchte:Windchill:Wind:
Aussen-T/F 1226 17-01-2017 06:05:00 -4.4 C 3.38 g/m*3 -4.4 C 0 km/h
1227 17-01-2017 06:10:00 -4.3 C 3.37 g/m*3 -4.3 C 3.2 km/h
1228 17-01-2017 06:15:00 -4.3 C 3.37 g/m*3 -4.3 C 0 km/h
1229 17-01-2017 06:20:00 -4.3 C 3.37 g/m*3 -4.3 C 0 km/h
1230 17-01-2017 06:25:00 -4.3 C 3.37 g/m*3 -4.3 C 0 km/h
1231 17-01-2017 06:30:00 -4.3 C 3.37 g/m*3 -4.3 C 0 km/h
1232 17-01-2017 06:35:00 -4.2 C 3.39 g/m*3 -4.2 C 0 km/h
1233 17-01-2017 06:40:00 -4.2 C 3.39 g/m*3 -4.2 C 0 km/h
1234 17-01-2017 06:45:00 -4.2 C 3.39 g/m*3 -4.2 C 0 km/h
1235 17-01-2017 06:50:00 -4.2 C 3.39 g/m*3 -4.2 C 0 km/h
1236 17-01-2017 06:55:00 -4.2 C 3.39 g/m*3 -4.2 C 0 km/h
1237 17-01-2017 07:00:00 -4.2 C 3.39 g/m*3 -4.2 C 0 km/h
1238 17-01-2017 07:05:00 -4.2 C 3.39 g/m*3 -4.2 C 0 km/h
1239 17-01-2017 07:10:00 -4.1 C 3.41 g/m*3 -4.1 C 0 km/h
1240 17-01-2017 07:15:00 -4.1 C 3.41 g/m*3 -4.1 C 0 km/h
1241 17-01-2017 07:20:00 -4.1 C 3.41 g/m*3 -4.1 C 0 km/h
1242 17-01-2017 07:25:00 -4.1 C 3.41 g/m*3 -4.1 C 0 km/h
1243 17-01-2017 07:30:00 -4 C 3.44 g/m*3 -4 C 0 km/h
1244 17-01-2017 07:35:00 -4 C 3.4 g/m*3 -4 C 0 km/h
1245 17-01-2017 07:40:00 -4 C 3.4 g/m*3 -4 C 0 km/h
1246 17-01-2017 07:45:00 -4 C 3.44 g/m*3 -4 C 0 km/h
1247 17-01-2017 07:50:00 -4 C 3.4 g/m*3 -4 C 0 km/h
1248 17-01-2017 07:55:00 -3.9 C 3.43 g/m*3 -3.9 C 0 km/h
1249 17-01-2017 08:00:00 -3.9 C 3.43 g/m*3 -3.9 C 0 km/h
1250 17-01-2017 08:05:00 -3.9 C 3.43 g/m*3 -3.9 C 0 km/h
Sensor: Nr:Datum:Temp:Abs-Feuchte:Windchill:Wind:
Aussen-T/F 1251 17-01-2017 08:10:00 -3.9 C 3.43 g/m*3 -3.9 C 0 km/h
1252 17-01-2017 08:15:00 -3.9 C 3.43 g/m*3 -3.9 C 0 km/h
1253 17-01-2017 08:20:00 -3.9 C 3.43 g/m*3 -3.9 C 0 km/h
1254 17-01-2017 08:25:00 -3.9 C 3.43 g/m*3 -3.9 C 0 km/h
1255 17-01-2017 08:30:00 -3.9 C 3.43 g/m*3 -3.9 C 0 km/h
1256 17-01-2017 08:35:00 -3.9 C 3.43 g/m*3 -3.9 C 0 km/h
1257 17-01-2017 08:40:00 -3.9 C 3.43 g/m*3 -3.9 C 0 km/h
1258 17-01-2017 08:45:00 -3.9 C 3.43 g/m*3 -3.9 C 0 km/h
1259 17-01-2017 08:50:00 -3.9 C 3.43 g/m*3 -3.9 C 0 km/h
1260 17-01-2017 08:55:00 -3.9 C 3.43 g/m*3 -3.9 C 0 km/h
1261 17-01-2017 09:00:00 -3.8 C 3.45 g/m*3 -3.8 C 0 km/h
1262 17-01-2017 09:05:00 -3.8 C 3.45 g/m*3 -3.8 C 0 km/h
1263 17-01-2017 09:10:00 -3.8 C 3.45 g/m*3 -3.8 C 0 km/h
1264 17-01-2017 09:15:00 -3.9 C 3.43 g/m*3 -3.9 C 0 km/h
1265 17-01-2017 09:20:00 -3.9 C 3.43 g/m*3 -3.9 C 0 km/h
1266 17-01-2017 09:25:00 -4 C 3.37 g/m*3 -4 C 0 km/h
1267 17-01-2017 09:30:00 -4 C 3.4 g/m*3 -4 C 0 km/h
1268 17-01-2017 09:35:00 -4.1 C 3.38 g/m*3 -4.1 C 0 km/h
1269 17-01-2017 09:40:00 -4.1 C 3.38 g/m*3 -4.1 C 1.6 km/h
1270 17-01-2017 09:45:00 -4.2 C 3.32 g/m*3 -4.2 C 1.6 km/h
1271 17-01-2017 09:50:00 -4.3 C 3.29 g/m*3 -4.3 C 0 km/h
1272 17-01-2017 09:55:00 -4.3 C 3.29 g/m*3 -4.3 C 0 km/h
1273 17-01-2017 10:00:00 -4.4 C 3.27 g/m*3 -4.4 C 1.6 km/h
1274 17-01-2017 10:05:00 -4.5 C 3.25 g/m*3 -4.5 C 1.6 km/h
1275 17-01-2017 10:10:00 -4.6 C 3.22 g/m*3 -4.6 C 3.2 km/h
Sensor: Nr:Datum:Temp:Abs-Feuchte:Windchill:Wind:
Aussen-T/F 1276 17-01-2017 10:15:00 -4.6 C 3.22 g/m*3 -4.6 C 3.2 km/h
1277 17-01-2017 10:20:00 -4.6 C 3.22 g/m*3 -4.6 C 1.6 km/h
1278 17-01-2017 10:25:00 -4.6 C 3.22 g/m*3 -4.6 C 0 km/h
1279 17-01-2017 10:30:00 -4.5 C 3.25 g/m*3 -4.5 C 0 km/h
1280 17-01-2017 10:35:00 -4.5 C 3.25 g/m*3 -4.5 C 0 km/h
1281 17-01-2017 10:40:00 -4.5 C 3.25 g/m*3 -4.5 C 0 km/h
1282 17-01-2017 10:45:00 -4.4 C 3.27 g/m*3 -4.4 C 0 km/h
1283 17-01-2017 10:50:00 -4.4 C 3.27 g/m*3 -4.4 C 0 km/h
1284 17-01-2017 10:55:00 -4.3 C 3.29 g/m*3 -4.3 C 0 km/h
1285 17-01-2017 11:00:00 -4.3 C 3.29 g/m*3 -4.3 C 0 km/h
1286 17-01-2017 11:05:00 -4.2 C 3.32 g/m*3 -4.2 C 0 km/h
1287 17-01-2017 11:10:00 -4.1 C 3.34 g/m*3 -4.1 C 0 km/h
1288 17-01-2017 11:15:00 -4.1 C 3.34 g/m*3 -4.1 C 0 km/h
1289 17-01-2017 11:20:00 -3.9 C 3.43 g/m*3 -3.9 C 0 km/h
1290 17-01-2017 11:25:00 -3.8 C 3.41 g/m*3 -3.8 C 0 km/h
1291 17-01-2017 11:30:00 -3.7 C 3.44 g/m*3 -3.7 C 0 km/h
1292 17-01-2017 11:35:00 -3.6 C 3.5 g/m*3 -3.6 C 0 km/h
1293 17-01-2017 11:40:00 -3.4 C 3.51 g/m*3 -3.4 C 0 km/h
1294 17-01-2017 11:45:00 -3.2 C 3.56 g/m*3 -3.2 C 0 km/h
1295 17-01-2017 11:50:00 -2.9 C 3.64 g/m*3 -2.9 C 0 km/h
1296 17-01-2017 11:55:00 -2.7 C 3.69 g/m*3 -2.7 C 0 km/h
1297 17-01-2017 12:00:00 -2.5 C 3.7 g/m*3 -2.5 C 0 km/h
1298 17-01-2017 12:05:00 -2.3 C 3.67 g/m*3 -2.3 C 0 km/h
1299 17-01-2017 12:10:00 -2.2 C 3.7 g/m*3 -2.2 C 0 km/h
1300 17-01-2017 12:15:00 -2.1 C 3.73 g/m*3 -2.1 C 0 km/h
Sensor: Nr:Datum:Temp:Abs-Feuchte:Windchill:Wind:
Aussen-T/F 1301 17-01-2017 12:20:00 -1.9 C 3.74 g/m*3 -1.9 C 0 km/h
1302 17-01-2017 12:25:00 -1.8 C 3.72 g/m*3 -1.8 C 0 km/h
1303 17-01-2017 12:30:00 -1.8 C 3.68 g/m*3 -1.8 C 0 km/h
1304 17-01-2017 12:35:00 -1.7 C 3.7 g/m*3 -1.7 C 0 km/h
1305 17-01-2017 12:40:00 -1.7 C 3.66 g/m*3 -1.7 C 3.2 km/h
1306 17-01-2017 12:45:00 -1.6 C 3.68 g/m*3 -1.6 C 1.6 km/h
1307 17-01-2017 12:50:00 -1.6 C 3.68 g/m*3 -1.6 C 1.6 km/h
1308 17-01-2017 12:55:00 -1.6 C 3.73 g/m*3 -1.6 C 0 km/h
1309 17-01-2017 13:00:00 -1.6 C 3.73 g/m*3 -1.6 C 1.6 km/h
1310 17-01-2017 13:05:00 -1.6 C 3.73 g/m*3 -1.6 C 4.8 km/h
1311 17-01-2017 13:10:00 -1.5 C 3.71 g/m*3 -1.5 C 4.8 km/h
1312 17-01-2017 13:15:00 -1.5 C 3.75 g/m*3 -1.5 C 0 km/h
1313 17-01-2017 13:20:00 -1.4 C 3.78 g/m*3 -1.4 C 1.6 km/h
1314 17-01-2017 13:25:00 -1.3 C 3.76 g/m*3 -1.3 C 1.6 km/h
1315 17-01-2017 13:30:00 -1.1 C 3.82 g/m*3 -1.1 C 3.2 km/h
1316 17-01-2017 13:35:00 -0.9 C 3.82 g/m*3 -3.83 C 8.1 km/h
1317 17-01-2017 13:40:00 -0.7 C 3.88 g/m*3 -4.48 C 11.3 km/h
1318 17-01-2017 13:45:00 -0.7 C 3.88 g/m*3 -3.59 C 8.1 km/h
1319 17-01-2017 13:50:00 -0.7 C 3.88 g/m*3 -4.48 C 11.3 km/h
1320 17-01-2017 13:55:00 -0.7 C 3.83 g/m*3 -3.59 C 8.1 km/h
1321 17-01-2017 14:00:00 -0.6 C 3.86 g/m*3 -3.48 C 8.1 km/h
1322 17-01-2017 14:05:00 -0.6 C 3.86 g/m*3 -3.48 C 8.1 km/h
1323 17-01-2017 14:10:00 -0.6 C 3.86 g/m*3 -2.88 C 6.4 km/h
1324 17-01-2017 14:15:00 -0.6 C 3.81 g/m*3 -3.48 C 8.1 km/h
1325 17-01-2017 14:20:00 -0.6 C 3.86 g/m*3 -2.88 C 6.4 km/h
Sensor: Nr:Datum:Temp:Abs-Feuchte:Windchill:Wind:
Aussen-T/F 1326 17-01-2017 14:25:00 -0.6 C 3.81 g/m*3 -3.95 C 9.7 km/h
1327 17-01-2017 14:30:00 -0.6 C 3.81 g/m*3 -4.36 C 11.3 km/h
1328 17-01-2017 14:35:00 -0.6 C 3.81 g/m*3 -3.95 C 9.7 km/h
1329 17-01-2017 14:40:00 -0.5 C 3.84 g/m*3 -3.36 C 8.1 km/h
1330 17-01-2017 14:45:00 -0.5 C 3.84 g/m*3 -0.5 C 4.8 km/h
1331 17-01-2017 14:50:00 -0.4 C 3.91 g/m*3 -0.4 C 4.8 km/h
1332 17-01-2017 14:55:00 -0.4 C 3.86 g/m*3 -2.64 C 6.4 km/h
1333 17-01-2017 15:00:00 -0.3 C 3.89 g/m*3 -3.12 C 8.1 km/h
1334 17-01-2017 15:05:00 -0.3 C 3.84 g/m*3 -4 C 11.3 km/h
1335 17-01-2017 15:10:00 -0.3 C 3.89 g/m*3 -3.12 C 8.1 km/h
1336 17-01-2017 15:15:00 -0.2 C 3.92 g/m*3 -3 C 8.1 km/h
1337 17-01-2017 15:20:00 -0.2 C 3.87 g/m*3 -3.88 C 11.3 km/h
1338 17-01-2017 15:25:00 -0.2 C 3.92 g/m*3 -3.47 C 9.7 km/h
1339 17-01-2017 15:30:00 -0.3 C 3.84 g/m*3 -3.59 C 9.7 km/h
1340 17-01-2017 15:35:00 -0.4 C 3.86 g/m*3 -0.4 C 4.8 km/h
1341 17-01-2017 15:40:00 -0.6 C 3.81 g/m*3 -3.48 C 8.1 km/h
1342 17-01-2017 15:45:00 -0.6 C 3.81 g/m*3 -3.95 C 9.7 km/h
1343 17-01-2017 15:50:00 -0.7 C 3.78 g/m*3 -2.99 C 6.4 km/h
1344 17-01-2017 15:55:00 -0.8 C 3.8 g/m*3 -0.8 C 1.6 km/h
1345 17-01-2017 16:00:00 -0.9 C 3.82 g/m*3 -0.9 C 0 km/h
1346 17-01-2017 16:05:00 -1.2 C 3.74 g/m*3 -1.2 C 0 km/h
1347 17-01-2017 16:10:00 -1.3 C 3.76 g/m*3 -1.3 C 0 km/h
1348 17-01-2017 16:15:00 -1.4 C 3.78 g/m*3 -1.4 C 0 km/h
1349 17-01-2017 16:20:00 -1.6 C 3.73 g/m*3 -1.6 C 0 km/h
1350 17-01-2017 16:25:00 -1.7 C 3.75 g/m*3 -1.7 C 3.2 km/h
Sensor: Nr:Datum:Temp:Abs-Feuchte:Windchill:Wind:
Aussen-T/F 1351 17-01-2017 16:30:00 -1.7 C 3.75 g/m*3 -1.7 C 3.2 km/h
1352 17-01-2017 16:35:00 -1.7 C 3.75 g/m*3 -1.7 C 3.2 km/h
1353 17-01-2017 16:40:00 -1.8 C 3.72 g/m*3 -1.8 C 3.2 km/h
1354 17-01-2017 16:45:00 -1.8 C 3.76 g/m*3 -1.8 C 3.2 km/h
1355 17-01-2017 16:50:00 -1.8 C 3.76 g/m*3 -1.8 C 0 km/h
1356 17-01-2017 16:55:00 -1.9 C 3.74 g/m*3 -1.9 C 4.8 km/h
1357 17-01-2017 17:00:00 -1.9 C 3.74 g/m*3 -1.9 C 1.6 km/h
1358 17-01-2017 17:05:00 -2.1 C 3.68 g/m*3 -2.1 C 0 km/h
1359 17-01-2017 17:10:00 -2.1 C 3.73 g/m*3 -2.1 C 3.2 km/h
1360 17-01-2017 17:15:00 -2.2 C 3.7 g/m*3 -2.2 C 1.6 km/h
1361 17-01-2017 17:20:00 -2.2 C 3.7 g/m*3 -2.2 C 3.2 km/h
1362 17-01-2017 17:25:00 -2.3 C 3.67 g/m*3 -2.3 C 1.6 km/h
1363 17-01-2017 17:30:00 -2.4 C 3.65 g/m*3 -2.4 C 3.2 km/h
1364 17-01-2017 17:35:00 -2.6 C 3.6 g/m*3 -2.6 C 3.2 km/h
1365 17-01-2017 17:40:00 -2.7 C 3.57 g/m*3 -2.7 C 3.2 km/h
1366 17-01-2017 17:45:00 -2.8 C 3.55 g/m*3 -2.8 C 3.2 km/h
1367 17-01-2017 17:50:00 -2.9 C 3.52 g/m*3 -2.9 C 1.6 km/h
1368 17-01-2017 17:55:00 -3.1 C 3.51 g/m*3 -3.1 C 3.2 km/h
1369 17-01-2017 18:00:00 -3.2 C 3.49 g/m*3 -3.2 C 4.8 km/h
1370 17-01-2017 18:05:00 -3.2 C 3.49 g/m*3 -3.2 C 3.2 km/h
1371 17-01-2017 18:10:00 -3.3 C 3.46 g/m*3 -3.3 C 3.2 km/h
1372 17-01-2017 18:15:00 -3.4 C 3.47 g/m*3 -3.4 C 3.2 km/h
1373 17-01-2017 18:20:00 -3.4 C 3.47 g/m*3 -3.4 C 3.2 km/h
1374 17-01-2017 18:25:00 -3.5 C 3.45 g/m*3 -3.5 C 3.2 km/h
1375 17-01-2017 18:30:00 -3.6 C 3.43 g/m*3 -3.6 C 3.2 km/h
Sensor: Nr:Datum:Temp:Abs-Feuchte:Windchill:Wind:
Aussen-T/F 1376 17-01-2017 18:35:00 -3.6 C 3.43 g/m*3 -3.6 C 1.6 km/h
1377 17-01-2017 18:40:00 -3.6 C 3.46 g/m*3 -3.6 C 3.2 km/h
1378 17-01-2017 18:45:00 -3.7 C 3.44 g/m*3 -3.7 C 1.6 km/h
1379 17-01-2017 18:50:00 -3.6 C 3.46 g/m*3 -3.6 C 3.2 km/h
1380 17-01-2017 18:55:00 -3.5 C 3.49 g/m*3 -3.5 C 0 km/h
1381 17-01-2017 19:00:00 -3.5 C 3.49 g/m*3 -3.5 C 1.6 km/h
1382 17-01-2017 19:05:00 -3.4 C 3.51 g/m*3 -3.4 C 0 km/h
1383 17-01-2017 19:10:00 -3.5 C 3.49 g/m*3 -3.5 C 1.6 km/h
1384 17-01-2017 19:15:00 -3.6 C 3.46 g/m*3 -3.6 C 1.6 km/h
1385 17-01-2017 19:20:00 -3.7 C 3.44 g/m*3 -3.7 C 3.2 km/h
1386 17-01-2017 19:25:00 -3.7 C 3.44 g/m*3 -3.7 C 3.2 km/h
1387 17-01-2017 19:30:00 -3.6 C 3.46 g/m*3 -3.6 C 1.6 km/h
1388 17-01-2017 19:35:00 -3.6 C 3.46 g/m*3 -3.6 C 3.2 km/h
1389 17-01-2017 19:40:00 -3.6 C 3.46 g/m*3 -3.6 C 0 km/h
1390 17-01-2017 19:45:00 -3.6 C 3.46 g/m*3 -3.6 C 1.6 km/h
1391 17-01-2017 19:50:00 -3.6 C 3.46 g/m*3 -3.6 C 1.6 km/h
1392 17-01-2017 19:55:00 -3.6 C 3.46 g/m*3 -3.6 C 4.8 km/h
1393 17-01-2017 20:00:00 -3.6 C 3.46 g/m*3 -3.6 C 4.8 km/h
1394 17-01-2017 20:05:00 -3.6 C 3.46 g/m*3 -3.6 C 3.2 km/h
1395 17-01-2017 20:10:00 -3.7 C 3.4 g/m*3 -3.7 C 3.2 km/h
1396 17-01-2017 20:15:00 -3.8 C 3.38 g/m*3 -3.8 C 1.6 km/h
1397 17-01-2017 20:20:00 -3.9 C 3.35 g/m*3 -3.9 C 0 km/h
1398 17-01-2017 20:25:00 -4 C 3.33 g/m*3 -4 C 1.6 km/h
1399 17-01-2017 20:30:00 -4.1 C 3.31 g/m*3 -4.1 C 1.6 km/h
1400 17-01-2017 20:35:00 -4.2 C 3.28 g/m*3 -4.2 C 1.6 km/h
Sensor: Nr:Datum:Temp:Abs-Feuchte:Windchill:Wind:
Aussen-T/F 1401 17-01-2017 20:40:00 -4.3 C 3.26 g/m*3 -4.3 C 0 km/h
1402 17-01-2017 20:45:00 -4.4 C 3.24 g/m*3 -4.4 C 1.6 km/h
1403 17-01-2017 20:50:00 -4.4 C 3.24 g/m*3 -4.4 C 3.2 km/h
1404 17-01-2017 20:55:00 -4.5 C 3.25 g/m*3 -4.5 C 3.2 km/h
1405 17-01-2017 21:00:00 -4.5 C 3.25 g/m*3 -4.5 C 1.6 km/h
1406 17-01-2017 21:05:00 -4.6 C 3.22 g/m*3 -4.6 C 0 km/h
1407 17-01-2017 21:10:00 -4.7 C 3.2 g/m*3 -4.7 C 1.6 km/h
1408 17-01-2017 21:15:00 -4.8 C 3.18 g/m*3 -4.8 C 1.6 km/h
1409 17-01-2017 21:20:00 -4.8 C 3.18 g/m*3 -4.8 C 1.6 km/h
1410 17-01-2017 21:25:00 -4.9 C 3.16 g/m*3 -4.9 C 0 km/h
1411 17-01-2017 21:30:00 -5 C 3.13 g/m*3 -5 C 0 km/h
1412 17-01-2017 21:35:00 -5.1 C 3.11 g/m*3 -5.1 C 0 km/h
1413 17-01-2017 21:40:00 -5.1 C 3.11 g/m*3 -5.1 C 0 km/h
1414 17-01-2017 21:45:00 -5.2 C 3.09 g/m*3 -5.2 C 0 km/h
1415 17-01-2017 21:50:00 -5.3 C 3.07 g/m*3 -5.3 C 0 km/h
1416 17-01-2017 21:55:00 -5.3 C 3.07 g/m*3 -5.3 C 0 km/h
1417 17-01-2017 22:00:00 -5.3 C 3.1 g/m*3 -5.3 C 0 km/h
1418 17-01-2017 22:05:00 -5.4 C 3.08 g/m*3 -5.4 C 0 km/h
1419 17-01-2017 22:10:00 -5.4 C 3.08 g/m*3 -5.4 C 0 km/h
1420 17-01-2017 22:15:00 -5.5 C 3.05 g/m*3 -5.5 C 0 km/h
1421 17-01-2017 22:20:00 -5.6 C 3 g/m*3 -5.6 C 0 km/h
1422 17-01-2017 22:25:00 -5.7 C 2.98 g/m*3 -5.7 C 0 km/h
1423 17-01-2017 22:30:00 -5.8 C 2.99 g/m*3 -5.8 C 0 km/h
1424 17-01-2017 22:35:00 -5.9 C 2.97 g/m*3 -5.9 C 0 km/h
1425 17-01-2017 22:40:00 -5.9 C 2.97 g/m*3 -5.9 C 0 km/h
Sensor: Nr:Datum:Temp:Abs-Feuchte:Windchill:Wind:
Aussen-T/F 1426 17-01-2017 22:45:00 -5.9 C 2.97 g/m*3 -5.9 C 0 km/h
1427 17-01-2017 22:50:00 -5.8 C 2.99 g/m*3 -5.8 C 0 km/h
1428 17-01-2017 22:55:00 -5.8 C 2.99 g/m*3 -5.8 C 0 km/h
1429 17-01-2017 23:00:00 -5.8 C 2.99 g/m*3 -5.8 C 0 km/h
1430 17-01-2017 23:05:00 -6 C 2.95 g/m*3 -6 C 0 km/h
1431 17-01-2017 23:10:00 -6.2 C 2.9 g/m*3 -6.2 C 0 km/h
1432 17-01-2017 23:15:00 -6.2 C 2.9 g/m*3 -6.2 C 0 km/h
1433 17-01-2017 23:20:00 -6.2 C 2.9 g/m*3 -6.2 C 0 km/h
1434 17-01-2017 23:25:00 -6.1 C 2.92 g/m*3 -6.1 C 0 km/h
1435 17-01-2017 23:30:00 -6.2 C 2.9 g/m*3 -6.2 C 0 km/h
1436 17-01-2017 23:35:00 -6.3 C 2.88 g/m*3 -6.3 C 0 km/h
1437 17-01-2017 23:40:00 -6.3 C 2.88 g/m*3 -6.3 C 0 km/h
1438 17-01-2017 23:45:00 -6.3 C 2.88 g/m*3 -6.3 C 0 km/h
1439 17-01-2017 23:50:00 -6.3 C 2.91 g/m*3 -6.3 C 0 km/h
1440 17-01-2017 23:55:00 -6.3 C 2.91 g/m*3 -6.3 C 0 km/h
1441 18-01-2017 00:00:00 -6.4 C 2.86 g/m*3 -6.4 C 0 km/h
1442 18-01-2017 00:05:00 -6.4 C 2.89 g/m*3 -6.4 C 0 km/h
1443 18-01-2017 00:10:00 -6.4 C 2.89 g/m*3 -6.4 C 0 km/h
1444 18-01-2017 00:15:00 -6.5 C 2.84 g/m*3 -6.5 C 0 km/h
1445 18-01-2017 00:20:00 -6.5 C 2.84 g/m*3 -6.5 C 0 km/h
1446 18-01-2017 00:25:00 -6.6 C 2.82 g/m*3 -6.6 C 0 km/h
1447 18-01-2017 00:30:00 -6.5 C 2.87 g/m*3 -6.5 C 0 km/h
1448 18-01-2017 00:35:00 -6.6 C 2.85 g/m*3 -6.6 C 0 km/h
1449 18-01-2017 00:40:00 -6.6 C 2.82 g/m*3 -6.6 C 0 km/h
1450 18-01-2017 00:45:00 -6.7 C 2.83 g/m*3 -6.7 C 0 km/h
Sensor: Nr:Datum:Temp:Abs-Feuchte:Windchill:Wind:
Aussen-T/F 1451 18-01-2017 00:50:00 -6.7 C 2.8 g/m*3 -6.7 C 0 km/h
1452 18-01-2017 00:55:00 -6.7 C 2.83 g/m*3 -6.7 C 0 km/h
1453 18-01-2017 01:00:00 -6.7 C 2.83 g/m*3 -6.7 C 0 km/h
1454 18-01-2017 01:05:00 -6.8 C 2.78 g/m*3 -6.8 C 0 km/h
1455 18-01-2017 01:10:00 -6.9 C 2.76 g/m*3 -6.9 C 0 km/h
1456 18-01-2017 01:15:00 -6.8 C 2.81 g/m*3 -6.8 C 0 km/h
1457 18-01-2017 01:20:00 -6.8 C 2.81 g/m*3 -6.8 C 0 km/h
1458 18-01-2017 01:25:00 -6.8 C 2.81 g/m*3 -6.8 C 0 km/h
1459 18-01-2017 01:30:00 -6.8 C 2.81 g/m*3 -6.8 C 0 km/h
1460 18-01-2017 01:35:00 -6.8 C 2.81 g/m*3 -6.8 C 0 km/h
1461 18-01-2017 01:40:00 -6.9 C 2.79 g/m*3 -6.9 C 0 km/h
1462 18-01-2017 01:45:00 -7 C 2.77 g/m*3 -7 C 0 km/h
1463 18-01-2017 01:50:00 -7.1 C 2.72 g/m*3 -7.1 C 0 km/h
1464 18-01-2017 01:55:00 -7.1 C 2.72 g/m*3 -7.1 C 0 km/h
1465 18-01-2017 02:00:00 -7.1 C 2.75 g/m*3 -7.1 C 0 km/h
1466 18-01-2017 02:05:00 -7.1 C 2.75 g/m*3 -7.1 C 0 km/h
1467 18-01-2017 02:10:00 -7.1 C 2.75 g/m*3 -7.1 C 0 km/h
1468 18-01-2017 02:15:00 -7.1 C 2.75 g/m*3 -7.1 C 0 km/h
1469 18-01-2017 02:20:00 -7.2 C 2.73 g/m*3 -7.2 C 0 km/h
1470 18-01-2017 02:25:00 -7.2 C 2.73 g/m*3 -7.2 C 0 km/h
1471 18-01-2017 02:30:00 -7.2 C 2.73 g/m*3 -7.2 C 0 km/h
1472 18-01-2017 02:35:00 -7.3 C 2.71 g/m*3 -7.3 C 0 km/h
1473 18-01-2017 02:40:00 -7.4 C 2.66 g/m*3 -7.4 C 0 km/h
1474 18-01-2017 02:45:00 -7.4 C 2.69 g/m*3 -7.4 C 0 km/h
1475 18-01-2017 02:50:00 -7.4 C 2.69 g/m*3 -7.4 C 0 km/h
Sensor: Nr:Datum:Temp:Abs-Feuchte:Windchill:Wind:
Aussen-T/F 1476 18-01-2017 02:55:00 -7.4 C 2.69 g/m*3 -7.4 C 0 km/h
1477 18-01-2017 03:00:00 -7.4 C 2.69 g/m*3 -7.4 C 0 km/h
1478 18-01-2017 03:05:00 -7.4 C 2.69 g/m*3 -7.4 C 0 km/h
1479 18-01-2017 03:10:00 -7.5 C 2.67 g/m*3 -7.5 C 0 km/h
1480 18-01-2017 03:15:00 -7.5 C 2.67 g/m*3 -7.5 C 0 km/h
1481 18-01-2017 03:20:00 -7.6 C 2.65 g/m*3 -7.6 C 0 km/h
1482 18-01-2017 03:25:00 -7.7 C 2.6 g/m*3 -7.7 C 0 km/h
1483 18-01-2017 03:30:00 -7.7 C 2.63 g/m*3 -7.7 C 0 km/h
1484 18-01-2017 03:35:00 -7.6 C 2.65 g/m*3 -7.6 C 0 km/h
1485 18-01-2017 03:40:00 -7.6 C 2.65 g/m*3 -7.6 C 0 km/h
1486 18-01-2017 03:45:00 -7.5 C 2.67 g/m*3 -7.5 C 0 km/h
1487 18-01-2017 03:50:00 -7.5 C 2.67 g/m*3 -7.5 C 0 km/h
1488 18-01-2017 03:55:00 -7.6 C 2.65 g/m*3 -7.6 C 0 km/h
1489 18-01-2017 04:00:00 -7.6 C 2.65 g/m*3 -7.6 C 0 km/h
1490 18-01-2017 04:05:00 -7.7 C 2.63 g/m*3 -7.7 C 0 km/h
1491 18-01-2017 04:10:00 -7.7 C 2.63 g/m*3 -7.7 C 0 km/h
1492 18-01-2017 04:15:00 -7.7 C 2.63 g/m*3 -7.7 C 0 km/h
1493 18-01-2017 04:20:00 -7.7 C 2.63 g/m*3 -7.7 C 0 km/h
1494 18-01-2017 04:25:00 -7.8 C 2.61 g/m*3 -7.8 C 0 km/h
1495 18-01-2017 04:30:00 -7.8 C 2.61 g/m*3 -7.8 C 0 km/h
1496 18-01-2017 04:35:00 -7.8 C 2.61 g/m*3 -7.8 C 0 km/h
1497 18-01-2017 04:40:00 -7.8 C 2.61 g/m*3 -7.8 C 0 km/h
1498 18-01-2017 04:45:00 -7.8 C 2.61 g/m*3 -7.8 C 0 km/h
1499 18-01-2017 04:50:00 -7.8 C 2.61 g/m*3 -7.8 C 0 km/h
1500 18-01-2017 04:55:00 -7.8 C 2.61 g/m*3 -7.8 C 0 km/h
Sensor: Nr:Datum:Temp:Abs-Feuchte:Windchill:Wind:
Aussen-T/F 1501 18-01-2017 05:00:00 -7.8 C 2.61 g/m*3 -7.8 C 0 km/h
1502 18-01-2017 05:05:00 -7.8 C 2.61 g/m*3 -7.8 C 0 km/h
1503 18-01-2017 05:10:00 -7.7 C 2.63 g/m*3 -7.7 C 0 km/h
1504 18-01-2017 05:15:00 -7.8 C 2.61 g/m*3 -7.8 C 0 km/h
1505 18-01-2017 05:20:00 -7.8 C 2.61 g/m*3 -7.8 C 0 km/h
1506 18-01-2017 05:25:00 -7.7 C 2.63 g/m*3 -7.7 C 0 km/h
1507 18-01-2017 05:30:00 -7.7 C 2.63 g/m*3 -7.7 C 0 km/h
1508 18-01-2017 05:35:00 -7.6 C 2.65 g/m*3 -7.6 C 0 km/h
1509 18-01-2017 05:40:00 -7.6 C 2.65 g/m*3 -7.6 C 0 km/h
1510 18-01-2017 05:45:00 -7.5 C 2.67 g/m*3 -7.5 C 0 km/h
1511 18-01-2017 05:50:00 -7.5 C 2.67 g/m*3 -7.5 C 0 km/h
1512 18-01-2017 05:55:00 -7.5 C 2.67 g/m*3 -7.5 C 0 km/h
1513 18-01-2017 06:00:00 -7.5 C 2.67 g/m*3 -7.5 C 0 km/h
1514 18-01-2017 06:05:00 -7.4 C 2.69 g/m*3 -7.4 C 3.2 km/h
1515 18-01-2017 06:10:00 -7.3 C 2.71 g/m*3 -7.3 C 3.2 km/h
1516 18-01-2017 06:15:00 -7.1 C 2.75 g/m*3 -7.1 C 1.6 km/h
1517 18-01-2017 06:20:00 -7.1 C 2.75 g/m*3 -7.1 C 3.2 km/h
1518 18-01-2017 06:25:00 -7.1 C 2.75 g/m*3 -7.1 C 3.2 km/h
1519 18-01-2017 06:30:00 -7 C 2.77 g/m*3 -7 C 3.2 km/h
1520 18-01-2017 06:35:00 -6.9 C 2.79 g/m*3 -6.9 C 1.6 km/h
1521 18-01-2017 06:40:00 -6.9 C 2.79 g/m*3 -6.9 C 3.2 km/h
1522 18-01-2017 06:45:00 -6.9 C 2.79 g/m*3 -6.9 C 3.2 km/h
1523 18-01-2017 06:50:00 -6.9 C 2.79 g/m*3 -6.9 C 4.8 km/h
1524 18-01-2017 06:55:00 -6.8 C 2.81 g/m*3 -6.8 C 1.6 km/h
1525 18-01-2017 07:00:00 -6.8 C 2.81 g/m*3 -6.8 C 3.2 km/h
Sensor: Nr:Datum:Temp:Abs-Feuchte:Windchill:Wind:
Aussen-T/F 1526 18-01-2017 07:05:00 -6.8 C 2.81 g/m*3 -6.8 C 3.2 km/h
1527 18-01-2017 07:10:00 -6.8 C 2.81 g/m*3 -6.8 C 3.2 km/h
1528 18-01-2017 07:15:00 -6.9 C 2.79 g/m*3 -6.9 C 1.6 km/h
1529 18-01-2017 07:20:00 -6.9 C 2.79 g/m*3 -6.9 C 3.2 km/h
1530 18-01-2017 09:40:00 -6.2 C 2.93 g/m*3 -6.2 C 0 km/h
1531 18-01-2017 09:45:00 -6.1 C 2.96 g/m*3 -6.1 C 0 km/h
1532 18-01-2017 09:50:00 -6.1 C 2.96 g/m*3 -6.1 C 0 km/h
1533 18-01-2017 09:55:00 -6.1 C 2.96 g/m*3 -6.1 C 1.6 km/h
1534 18-01-2017 10:00:00 -6.2 C 2.93 g/m*3 -6.2 C 0 km/h
1535 18-01-2017 10:05:00 -6.2 C 2.93 g/m*3 -6.2 C 0 km/h
1536 18-01-2017 10:10:00 -6.2 C 2.93 g/m*3 -6.2 C 0 km/h
1537 18-01-2017 10:15:00 -6.2 C 2.93 g/m*3 -6.2 C 3.2 km/h
1538 18-01-2017 10:20:00 -6.2 C 2.93 g/m*3 -6.2 C 0 km/h
1539 18-01-2017 10:25:00 -6.2 C 2.93 g/m*3 -6.2 C 0 km/h
1540 18-01-2017 10:30:00 -6.2 C 2.93 g/m*3 -6.2 C 0 km/h
1541 18-01-2017 10:35:00 -6.2 C 2.93 g/m*3 -6.2 C 1.6 km/h
1542 18-01-2017 10:40:00 -6.2 C 2.93 g/m*3 -6.2 C 0 km/h
1543 18-01-2017 10:45:00 -6.2 C 2.93 g/m*3 -6.2 C 0 km/h
1544 18-01-2017 10:50:00 -6.2 C 2.93 g/m*3 -6.2 C 0 km/h
1545 18-01-2017 10:55:00 -6.1 C 2.96 g/m*3 -6.1 C 0 km/h
1546 18-01-2017 11:00:00 -6.1 C 2.96 g/m*3 -6.1 C 0 km/h
1547 18-01-2017 11:05:00 -6.1 C 2.96 g/m*3 -6.1 C 0 km/h
1548 18-01-2017 11:10:00 -6.1 C 2.96 g/m*3 -6.1 C 0 km/h
1549 18-01-2017 11:15:00 -5.9 C 3 g/m*3 -5.9 C 0 km/h
1550 18-01-2017 11:20:00 -5.9 C 3 g/m*3 -5.9 C 0 km/h
Sensor: Nr:Datum:Temp:Abs-Feuchte:Windchill:Wind:
Aussen-T/F 1551 18-01-2017 11:25:00 -5.8 C 3.02 g/m*3 -5.8 C 0 km/h
1552 18-01-2017 11:30:00 -5.8 C 3.02 g/m*3 -5.8 C 3.2 km/h
1553 18-01-2017 11:35:00 -5.7 C 3.04 g/m*3 -5.7 C 0 km/h
1554 18-01-2017 11:40:00 -5.5 C 3.09 g/m*3 -5.5 C 0 km/h
1555 18-01-2017 11:45:00 -5.3 C 3.13 g/m*3 -5.3 C 3.2 km/h
1556 18-01-2017 11:50:00 -5.2 C 3.15 g/m*3 -5.2 C 1.6 km/h
1557 18-01-2017 11:55:00 -5.1 C 3.18 g/m*3 -5.1 C 1.6 km/h
1558 18-01-2017 12:00:00 -5 C 3.2 g/m*3 -5 C 1.6 km/h
1559 18-01-2017 12:05:00 -4.9 C 3.22 g/m*3 -4.9 C 1.6 km/h
1560 18-01-2017 12:10:00 -4.8 C 3.25 g/m*3 -4.8 C 3.2 km/h
1561 18-01-2017 12:15:00 -4.7 C 3.27 g/m*3 -4.7 C 1.6 km/h
1562 18-01-2017 12:20:00 -4.6 C 3.29 g/m*3 -4.6 C 3.2 km/h
1563 18-01-2017 12:25:00 -4.5 C 3.28 g/m*3 -4.5 C 3.2 km/h
1564 18-01-2017 12:30:00 -4.4 C 3.31 g/m*3 -4.4 C 3.2 km/h
1565 18-01-2017 12:35:00 -4.4 C 3.31 g/m*3 -4.4 C 1.6 km/h
1566 18-01-2017 12:40:00 -4.3 C 3.33 g/m*3 -4.3 C 0 km/h
1567 18-01-2017 12:45:00 -4.3 C 3.33 g/m*3 -4.3 C 4.8 km/h
1568 18-01-2017 12:50:00 -4.3 C 3.33 g/m*3 -4.3 C 1.6 km/h
1569 18-01-2017 12:55:00 -4.2 C 3.35 g/m*3 -4.2 C 3.2 km/h
1570 18-01-2017 13:00:00 -4.1 C 3.38 g/m*3 -4.1 C 3.2 km/h
1571 18-01-2017 13:05:00 -4.1 C 3.38 g/m*3 -4.1 C 3.2 km/h
1572 18-01-2017 13:10:00 -4 C 3.4 g/m*3 -4 C 0 km/h
1573 18-01-2017 13:15:00 -3.9 C 3.43 g/m*3 -3.9 C 3.2 km/h
1574 18-01-2017 13:20:00 -3.9 C 3.43 g/m*3 -3.9 C 1.6 km/h
1575 18-01-2017 13:25:00 -3.8 C 3.45 g/m*3 -3.8 C 1.6 km/h
Sensor: Nr:Datum:Temp:Abs-Feuchte:Windchill:Wind:
Aussen-T/F 1576 18-01-2017 13:30:00 -3.7 C 3.48 g/m*3 -3.7 C 0 km/h
1577 18-01-2017 13:35:00 -3.7 C 3.48 g/m*3 -3.7 C 1.6 km/h
1578 18-01-2017 13:40:00 -3.6 C 3.5 g/m*3 -3.6 C 1.6 km/h
1579 18-01-2017 13:45:00 -3.4 C 3.51 g/m*3 -3.4 C 1.6 km/h
1580 18-01-2017 13:50:00 -3.4 C 3.51 g/m*3 -3.4 C 1.6 km/h
1581 18-01-2017 13:55:00 -3.3 C 3.54 g/m*3 -3.3 C 1.6 km/h
1582 18-01-2017 14:00:00 -3.3 C 3.5 g/m*3 -3.3 C 3.2 km/h
1583 18-01-2017 14:05:00 -3.2 C 3.52 g/m*3 -3.2 C 1.6 km/h
1584 18-01-2017 14:10:00 -3.2 C 3.52 g/m*3 -3.2 C 3.2 km/h
1585 18-01-2017 14:15:00 -3.2 C 3.52 g/m*3 -3.2 C 1.6 km/h
1586 18-01-2017 14:20:00 -3.2 C 3.52 g/m*3 -3.2 C 3.2 km/h
1587 18-01-2017 14:25:00 -3.2 C 3.52 g/m*3 -3.2 C 3.2 km/h
1588 18-01-2017 14:30:00 -3.2 C 3.52 g/m*3 -3.2 C 1.6 km/h
1589 18-01-2017 14:35:00 -3.1 C 3.55 g/m*3 -3.1 C 1.6 km/h
1590 18-01-2017 14:40:00 -2.9 C 3.6 g/m*3 -5.53 C 6.4 km/h
1591 18-01-2017 14:45:00 -2.7 C 3.61 g/m*3 -5.3 C 6.4 km/h
1592 18-01-2017 14:50:00 -2.7 C 3.61 g/m*3 -2.7 C 1.6 km/h
1593 18-01-2017 14:55:00 -2.7 C 3.57 g/m*3 -7.29 C 12.9 km/h
1594 18-01-2017 15:00:00 -2.4 C 3.61 g/m*3 -2.4 C 3.2 km/h
1595 18-01-2017 15:05:00 -2.4 C 3.61 g/m*3 -2.4 C 1.6 km/h
1596 18-01-2017 15:10:00 -2.4 C 3.57 g/m*3 -2.4 C 4.8 km/h
1597 18-01-2017 15:15:00 -2.4 C 3.57 g/m*3 -2.4 C 3.2 km/h
1598 18-01-2017 15:20:00 -2.3 C 3.63 g/m*3 -2.3 C 3.2 km/h
1599 18-01-2017 15:25:00 -2.2 C 3.62 g/m*3 -2.2 C 4.8 km/h
1600 18-01-2017 15:30:00 -1.9 C 3.61 g/m*3 -5.5 C 9.7 km/h
Sensor: Nr:Datum:Temp:Abs-Feuchte:Windchill:Wind:
Aussen-T/F 1601 18-01-2017 15:35:00 -1.7 C 3.66 g/m*3 -1.7 C 4.8 km/h
1602 18-01-2017 15:40:00 -1.6 C 3.68 g/m*3 -1.6 C 3.2 km/h
1603 18-01-2017 15:45:00 -1.6 C 3.68 g/m*3 -1.6 C 1.6 km/h
1604 18-01-2017 15:50:00 -1.5 C 3.75 g/m*3 -1.5 C 3.2 km/h
1605 18-01-2017 15:55:00 -1.4 C 3.69 g/m*3 -1.4 C 4.8 km/h
1606 18-01-2017 16:00:00 -1.3 C 3.72 g/m*3 -1.3 C 3.2 km/h
1607 18-01-2017 16:05:00 -1.2 C 3.7 g/m*3 -1.2 C 4.8 km/h
1608 18-01-2017 16:10:00 -1.2 C 3.66 g/m*3 -4.18 C 8.1 km/h
1609 18-01-2017 16:15:00 -1.1 C 3.64 g/m*3 -3.45 C 6.4 km/h
1610 18-01-2017 16:20:00 -1.1 C 3.73 g/m*3 -1.1 C 1.6 km/h
1611 18-01-2017 16:25:00 -1.2 C 3.7 g/m*3 -1.2 C 1.6 km/h
1612 18-01-2017 16:30:00 -1.2 C 3.7 g/m*3 -1.2 C 1.6 km/h
1613 18-01-2017 16:35:00 -1.3 C 3.72 g/m*3 -1.3 C 3.2 km/h
1614 18-01-2017 16:40:00 -1.4 C 3.69 g/m*3 -1.4 C 1.6 km/h
1615 18-01-2017 16:45:00 -1.6 C 3.64 g/m*3 -1.6 C 1.6 km/h
1616 18-01-2017 16:50:00 -1.7 C 3.62 g/m*3 -1.7 C 1.6 km/h
1617 18-01-2017 16:55:00 -1.8 C 3.63 g/m*3 -1.8 C 3.2 km/h
1618 18-01-2017 17:00:00 -2 C 3.58 g/m*3 -2 C 1.6 km/h
1619 18-01-2017 17:05:00 -2.2 C 3.53 g/m*3 -2.2 C 4.8 km/h
1620 18-01-2017 17:10:00 -2.3 C 3.51 g/m*3 -2.3 C 4.8 km/h
1621 18-01-2017 17:15:00 -2.5 C 3.46 g/m*3 -2.5 C 4.8 km/h
1622 18-01-2017 17:20:00 -2.6 C 3.43 g/m*3 -2.6 C 4.8 km/h
1623 18-01-2017 17:25:00 -2.7 C 3.41 g/m*3 -2.7 C 4.8 km/h
1624 18-01-2017 17:30:00 -2.8 C 3.43 g/m*3 -5.42 C 6.4 km/h
1625 18-01-2017 17:35:00 -2.9 C 3.4 g/m*3 -2.9 C 4.8 km/h
Sensor: Nr:Datum:Temp:Abs-Feuchte:Windchill:Wind:
Aussen-T/F 1626 18-01-2017 17:40:00 -2.9 C 3.44 g/m*3 -2.9 C 4.8 km/h
1627 18-01-2017 17:45:00 -2.9 C 3.44 g/m*3 -2.9 C 4.8 km/h
1628 18-01-2017 17:50:00 -3 C 3.42 g/m*3 -3 C 4.8 km/h
1629 18-01-2017 17:55:00 -3.1 C 3.39 g/m*3 -3.1 C 3.2 km/h
1630 18-01-2017 18:00:00 -3.1 C 3.39 g/m*3 -3.1 C 1.6 km/h
1631 18-01-2017 18:05:00 -3.2 C 3.41 g/m*3 -3.2 C 0 km/h
1632 18-01-2017 18:10:00 -3.2 C 3.41 g/m*3 -3.2 C 3.2 km/h
1633 18-01-2017 18:15:00 -3.3 C 3.38 g/m*3 -3.3 C 4.8 km/h
1634 18-01-2017 18:20:00 -3.3 C 3.38 g/m*3 -3.3 C 3.2 km/h
1635 18-01-2017 18:25:00 -3.4 C 3.36 g/m*3 -3.4 C 4.8 km/h
1636 18-01-2017 18:30:00 -3.5 C 3.34 g/m*3 -3.5 C 4.8 km/h
1637 18-01-2017 18:35:00 -3.5 C 3.34 g/m*3 -3.5 C 4.8 km/h
1638 18-01-2017 18:40:00 -3.6 C 3.31 g/m*3 -3.6 C 1.6 km/h
1639 18-01-2017 18:45:00 -3.7 C 3.29 g/m*3 -3.7 C 1.6 km/h
1640 18-01-2017 18:50:00 -3.8 C 3.3 g/m*3 -3.8 C 3.2 km/h
1641 18-01-2017 18:55:00 -3.8 C 3.3 g/m*3 -3.8 C 3.2 km/h
1642 18-01-2017 19:00:00 -3.9 C 3.28 g/m*3 -3.9 C 3.2 km/h
1643 18-01-2017 19:05:00 -3.9 C 3.28 g/m*3 -3.9 C 1.6 km/h
1644 18-01-2017 19:10:00 -4 C 3.26 g/m*3 -4 C 3.2 km/h
1645 18-01-2017 19:15:00 -4.2 C 3.21 g/m*3 -4.2 C 1.6 km/h
1646 18-01-2017 19:20:00 -4.3 C 3.19 g/m*3 -4.3 C 0 km/h
1647 18-01-2017 19:25:00 -4.4 C 3.16 g/m*3 -4.4 C 3.2 km/h
1648 18-01-2017 19:30:00 -4.4 C 3.2 g/m*3 -4.4 C 3.2 km/h
1649 18-01-2017 19:35:00 -4.4 C 3.2 g/m*3 -4.4 C 3.2 km/h
1650 18-01-2017 19:40:00 -4.4 C 3.2 g/m*3 -4.4 C 3.2 km/h
Sensor: Nr:Datum:Temp:Abs-Feuchte:Windchill:Wind:
Aussen-T/F 1651 18-01-2017 19:45:00 -4.4 C 3.24 g/m*3 -4.4 C 3.2 km/h
1652 18-01-2017 19:50:00 -4.4 C 3.2 g/m*3 -4.4 C 0 km/h
1653 18-01-2017 19:55:00 -4.6 C 3.15 g/m*3 -4.6 C 3.2 km/h
1654 18-01-2017 20:00:00 -4.5 C 3.21 g/m*3 -4.5 C 3.2 km/h
1655 18-01-2017 20:05:00 -4.5 C 3.21 g/m*3 -4.5 C 3.2 km/h
1656 18-01-2017 20:10:00 -4.5 C 3.21 g/m*3 -4.5 C 3.2 km/h
1657 18-01-2017 20:15:00 -4.4 C 3.24 g/m*3 -4.4 C 3.2 km/h
1658 18-01-2017 20:20:00 -4.5 C 3.18 g/m*3 -4.5 C 3.2 km/h
1659 18-01-2017 20:25:00 -4.5 C 3.18 g/m*3 -4.5 C 3.2 km/h
1660 18-01-2017 20:30:00 -4.6 C 3.15 g/m*3 -4.6 C 1.6 km/h
1661 18-01-2017 20:35:00 -4.6 C 3.15 g/m*3 -4.6 C 3.2 km/h
1662 18-01-2017 20:40:00 -4.7 C 3.13 g/m*3 -4.7 C 3.2 km/h
1663 18-01-2017 20:45:00 -4.7 C 3.13 g/m*3 -4.7 C 0 km/h
1664 18-01-2017 20:50:00 -4.8 C 3.11 g/m*3 -4.8 C 1.6 km/h
1665 18-01-2017 20:55:00 -4.9 C 3.09 g/m*3 -4.9 C 0 km/h
1666 18-01-2017 21:00:00 -5 C 3.06 g/m*3 -5 C 0 km/h
1667 18-01-2017 21:05:00 -5.1 C 3.04 g/m*3 -5.1 C 1.6 km/h
1668 18-01-2017 21:10:00 -5.1 C 3.08 g/m*3 -5.1 C 1.6 km/h
1669 18-01-2017 21:15:00 -5.1 C 3.08 g/m*3 -5.1 C 0 km/h
1670 18-01-2017 21:20:00 -5.2 C 3.05 g/m*3 -5.2 C 1.6 km/h
1671 18-01-2017 21:25:00 -5.2 C 3.05 g/m*3 -5.2 C 1.6 km/h
1672 18-01-2017 21:30:00 -5.2 C 3.05 g/m*3 -5.2 C 3.2 km/h
1673 18-01-2017 21:35:00 -5.2 C 3.09 g/m*3 -5.2 C 1.6 km/h
1674 18-01-2017 21:40:00 -5.1 C 3.11 g/m*3 -5.1 C 1.6 km/h
1675 18-01-2017 21:45:00 -5.2 C 3.05 g/m*3 -5.2 C 1.6 km/h
Sensor: Nr:Datum:Temp:Abs-Feuchte:Windchill:Wind:
Aussen-T/F 1676 18-01-2017 21:50:00 -5.2 C 3.05 g/m*3 -5.2 C 3.2 km/h
1677 18-01-2017 21:55:00 -5.2 C 3.05 g/m*3 -5.2 C 3.2 km/h
1678 18-01-2017 22:00:00 -5.2 C 3.09 g/m*3 -5.2 C 3.2 km/h
1679 18-01-2017 22:05:00 -5.2 C 3.09 g/m*3 -5.2 C 1.6 km/h
1680 18-01-2017 22:10:00 -5.2 C 3.09 g/m*3 -5.2 C 0 km/h
1681 18-01-2017 22:15:00 -5.1 C 3.11 g/m*3 -5.1 C 0 km/h
1682 18-01-2017 22:20:00 -5.1 C 3.11 g/m*3 -5.1 C 1.6 km/h
1683 18-01-2017 22:25:00 -5 C 3.13 g/m*3 -5 C 1.6 km/h
1684 18-01-2017 22:30:00 -5 C 3.1 g/m*3 -5 C 3.2 km/h
1685 18-01-2017 22:35:00 -5 C 3.1 g/m*3 -5 C 0 km/h
1686 18-01-2017 22:40:00 -5.2 C 3.02 g/m*3 -5.2 C 0 km/h
1687 18-01-2017 22:45:00 -5.4 C 2.98 g/m*3 -5.4 C 0 km/h
1688 18-01-2017 22:50:00 -5.6 C 2.93 g/m*3 -5.6 C 0 km/h
1689 18-01-2017 22:55:00 -5.7 C 2.95 g/m*3 -5.7 C 0 km/h
1690 18-01-2017 23:00:00 -5.8 C 2.92 g/m*3 -5.8 C 0 km/h
1691 18-01-2017 23:05:00 -5.9 C 2.9 g/m*3 -5.9 C 3.2 km/h
1692 18-01-2017 23:10:00 -5.9 C 2.93 g/m*3 -5.9 C 3.2 km/h
1693 18-01-2017 23:15:00 -5.9 C 2.93 g/m*3 -5.9 C 3.2 km/h
1694 18-01-2017 23:20:00 -5.8 C 2.96 g/m*3 -5.8 C 1.6 km/h
1695 18-01-2017 23:25:00 -5.8 C 2.96 g/m*3 -5.8 C 0 km/h
1696 18-01-2017 23:30:00 -5.9 C 2.93 g/m*3 -5.9 C 0 km/h
1697 18-01-2017 23:35:00 -6.1 C 2.89 g/m*3 -6.1 C 0 km/h
1698 18-01-2017 23:40:00 -6.1 C 2.89 g/m*3 -6.1 C 0 km/h
1699 18-01-2017 23:45:00 -6.2 C 2.87 g/m*3 -6.2 C 0 km/h
1700 18-01-2017 23:50:00 -6.3 C 2.85 g/m*3 -6.3 C 0 km/h
Sensor: Nr:Datum:Temp:Abs-Feuchte:Windchill:Wind:
Aussen-T/F 1701 18-01-2017 23:55:00 -6.3 C 2.85 g/m*3 -6.3 C 0 km/h
1702 19-01-2017 00:00:00 -6.4 C 2.83 g/m*3 -6.4 C 1.6 km/h
1703 19-01-2017 00:05:00 -6.4 C 2.83 g/m*3 -6.4 C 1.6 km/h
1704 19-01-2017 00:10:00 -6.4 C 2.83 g/m*3 -6.4 C 0 km/h
1705 19-01-2017 00:15:00 -6.4 C 2.83 g/m*3 -6.4 C 0 km/h
1706 19-01-2017 00:20:00 -6.4 C 2.83 g/m*3 -6.4 C 0 km/h
1707 19-01-2017 00:25:00 -6.5 C 2.81 g/m*3 -6.5 C 0 km/h
1708 19-01-2017 00:30:00 -6.6 C 2.79 g/m*3 -6.6 C 0 km/h
1709 19-01-2017 00:35:00 -6.6 C 2.79 g/m*3 -6.6 C 0 km/h
1710 19-01-2017 00:40:00 -6.6 C 2.79 g/m*3 -6.6 C 0 km/h
1711 19-01-2017 00:45:00 -6.6 C 2.79 g/m*3 -6.6 C 0 km/h
1712 19-01-2017 00:50:00 -6.6 C 2.82 g/m*3 -6.6 C 0 km/h
1713 19-01-2017 00:55:00 -6.8 C 2.75 g/m*3 -6.8 C 0 km/h
1714 19-01-2017 01:00:00 -6.8 C 2.75 g/m*3 -6.8 C 0 km/h
1715 19-01-2017 01:05:00 -6.8 C 2.78 g/m*3 -6.8 C 0 km/h
1716 19-01-2017 01:10:00 -6.8 C 2.78 g/m*3 -6.8 C 0 km/h
1717 19-01-2017 01:15:00 -6.9 C 2.73 g/m*3 -6.9 C 0 km/h
1718 19-01-2017 01:20:00 -6.9 C 2.73 g/m*3 -6.9 C 0 km/h
1719 19-01-2017 01:25:00 -6.9 C 2.76 g/m*3 -6.9 C 0 km/h
1720 19-01-2017 01:30:00 -6.8 C 2.78 g/m*3 -6.8 C 0 km/h
1721 19-01-2017 01:35:00 -6.9 C 2.76 g/m*3 -6.9 C 0 km/h
1722 19-01-2017 01:40:00 -6.9 C 2.76 g/m*3 -6.9 C 0 km/h
1723 19-01-2017 01:45:00 -7.1 C 2.72 g/m*3 -7.1 C 0 km/h
1724 19-01-2017 01:50:00 -7.2 C 2.7 g/m*3 -7.2 C 0 km/h
1725 19-01-2017 01:55:00 -7.2 C 2.7 g/m*3 -7.2 C 0 km/h
Sensor: Nr:Datum:Temp:Abs-Feuchte:Windchill:Wind:
Aussen-T/F 1726 19-01-2017 02:00:00 -7.2 C 2.7 g/m*3 -7.2 C 0 km/h
1727 19-01-2017 02:05:00 -7.2 C 2.7 g/m*3 -7.2 C 0 km/h
1728 19-01-2017 02:10:00 -7.2 C 2.7 g/m*3 -7.2 C 0 km/h
1729 19-01-2017 02:15:00 -7.2 C 2.7 g/m*3 -7.2 C 0 km/h
1730 19-01-2017 02:20:00 -7.2 C 2.7 g/m*3 -7.2 C 0 km/h
1731 19-01-2017 02:25:00 -7.3 C 2.68 g/m*3 -7.3 C 0 km/h
1732 19-01-2017 02:30:00 -7.3 C 2.68 g/m*3 -7.3 C 0 km/h
1733 19-01-2017 02:35:00 -7.3 C 2.68 g/m*3 -7.3 C 0 km/h
1734 19-01-2017 02:40:00 -7.4 C 2.66 g/m*3 -7.4 C 0 km/h
1735 19-01-2017 02:45:00 -7.4 C 2.66 g/m*3 -7.4 C 0 km/h
1736 19-01-2017 02:50:00 -7.4 C 2.66 g/m*3 -7.4 C 0 km/h
1737 19-01-2017 02:55:00 -7.4 C 2.66 g/m*3 -7.4 C 0 km/h
1738 19-01-2017 03:00:00 -7.4 C 2.66 g/m*3 -7.4 C 0 km/h
1739 19-01-2017 03:05:00 -7.4 C 2.66 g/m*3 -7.4 C 0 km/h
1740 19-01-2017 03:10:00 -7.4 C 2.66 g/m*3 -7.4 C 0 km/h
1741 19-01-2017 03:15:00 -7.4 C 2.66 g/m*3 -7.4 C 0 km/h
1742 19-01-2017 03:20:00 -7.5 C 2.64 g/m*3 -7.5 C 0 km/h
1743 19-01-2017 03:25:00 -7.6 C 2.62 g/m*3 -7.6 C 0 km/h
1744 19-01-2017 03:30:00 -7.6 C 2.62 g/m*3 -7.6 C 0 km/h
1745 19-01-2017 03:35:00 -7.6 C 2.62 g/m*3 -7.6 C 0 km/h
1746 19-01-2017 03:40:00 -7.7 C 2.6 g/m*3 -7.7 C 0 km/h
1747 19-01-2017 03:45:00 -7.7 C 2.6 g/m*3 -7.7 C 0 km/h
1748 19-01-2017 03:50:00 -7.7 C 2.63 g/m*3 -7.7 C 0 km/h
1749 19-01-2017 03:55:00 -7.6 C 2.62 g/m*3 -7.6 C 0 km/h
1750 19-01-2017 04:00:00 -7.6 C 2.65 g/m*3 -7.6 C 0 km/h
Sensor: Nr:Datum:Temp:Abs-Feuchte:Windchill:Wind:
Aussen-T/F 1751 19-01-2017 04:05:00 -7.7 C 2.63 g/m*3 -7.7 C 0 km/h
1752 19-01-2017 04:10:00 -7.7 C 2.6 g/m*3 -7.7 C 0 km/h
1753 19-01-2017 04:15:00 -7.8 C 2.58 g/m*3 -7.8 C 0 km/h
1754 19-01-2017 04:20:00 -7.8 C 2.58 g/m*3 -7.8 C 0 km/h
1755 19-01-2017 04:25:00 -7.9 C 2.56 g/m*3 -7.9 C 0 km/h
1756 19-01-2017 04:30:00 -8 C 2.54 g/m*3 -8 C 0 km/h
1757 19-01-2017 04:35:00 -7.9 C 2.59 g/m*3 -7.9 C 0 km/h
1758 19-01-2017 04:40:00 -8 C 2.57 g/m*3 -8 C 0 km/h
1759 19-01-2017 04:45:00 -8 C 2.57 g/m*3 -8 C 0 km/h
1760 19-01-2017 04:50:00 -8 C 2.54 g/m*3 -8 C 0 km/h
1761 19-01-2017 04:55:00 -8 C 2.57 g/m*3 -8 C 0 km/h
1762 19-01-2017 05:00:00 -8.1 C 2.52 g/m*3 -8.1 C 0 km/h
1763 19-01-2017 05:05:00 -8.2 C 2.51 g/m*3 -8.2 C 0 km/h
1764 19-01-2017 05:10:00 -8.2 C 2.51 g/m*3 -8.2 C 0 km/h
1765 19-01-2017 05:15:00 -8.2 C 2.53 g/m*3 -8.2 C 0 km/h
1766 19-01-2017 05:20:00 -8.2 C 2.53 g/m*3 -8.2 C 0 km/h
1767 19-01-2017 05:25:00 -8.1 C 2.55 g/m*3 -8.1 C 0 km/h
1768 19-01-2017 05:30:00 -8.1 C 2.55 g/m*3 -8.1 C 0 km/h
1769 19-01-2017 05:35:00 -8.1 C 2.55 g/m*3 -8.1 C 0 km/h
1770 19-01-2017 05:40:00 -8.2 C 2.53 g/m*3 -8.2 C 0 km/h
1771 19-01-2017 05:45:00 -8.2 C 2.53 g/m*3 -8.2 C 0 km/h
1772 19-01-2017 05:50:00 -8.2 C 2.53 g/m*3 -8.2 C 0 km/h
1773 19-01-2017 05:55:00 -8.3 C 2.49 g/m*3 -8.3 C 0 km/h
1774 19-01-2017 06:00:00 -8.3 C 2.49 g/m*3 -8.3 C 0 km/h
1775 19-01-2017 06:05:00 -8.3 C 2.49 g/m*3 -8.3 C 0 km/h
Sensor: Nr:Datum:Temp:Abs-Feuchte:Windchill:Wind:
Aussen-T/F 1776 19-01-2017 06:10:00 -8.3 C 2.49 g/m*3 -8.3 C 0 km/h
1777 19-01-2017 06:15:00 -8.3 C 2.49 g/m*3 -8.3 C 0 km/h
1778 19-01-2017 06:20:00 -8.3 C 2.49 g/m*3 -8.3 C 0 km/h
1779 19-01-2017 06:25:00 -8.2 C 2.53 g/m*3 -8.2 C 0 km/h
1780 19-01-2017 06:30:00 -8.3 C 2.49 g/m*3 -8.3 C 0 km/h
1781 19-01-2017 06:35:00 -8.3 C 2.49 g/m*3 -8.3 C 0 km/h
1782 19-01-2017 06:40:00 -8.4 C 2.47 g/m*3 -8.4 C 0 km/h
1783 19-01-2017 06:45:00 -8.4 C 2.47 g/m*3 -8.4 C 0 km/h
1784 19-01-2017 06:50:00 -8.5 C 2.45 g/m*3 -8.5 C 0 km/h
1785 19-01-2017 06:55:00 -8.5 C 2.45 g/m*3 -8.5 C 0 km/h
1786 19-01-2017 07:00:00 -8.6 C 2.43 g/m*3 -8.6 C 0 km/h
1787 19-01-2017 07:05:00 -8.6 C 2.43 g/m*3 -8.6 C 0 km/h
1788 19-01-2017 07:10:00 -8.6 C 2.46 g/m*3 -8.6 C 0 km/h
1789 19-01-2017 07:15:00 -8.5 C 2.48 g/m*3 -8.5 C 0 km/h
1790 19-01-2017 07:20:00 -8.5 C 2.48 g/m*3 -8.5 C 0 km/h
1791 19-01-2017 07:25:00 -8.4 C 2.5 g/m*3 -8.4 C 0 km/h
1792 19-01-2017 07:30:00 -8.4 C 2.5 g/m*3 -8.4 C 0 km/h
1793 19-01-2017 07:35:00 -8.4 C 2.5 g/m*3 -8.4 C 0 km/h
1794 19-01-2017 07:40:00 -8.5 C 2.45 g/m*3 -8.5 C 0 km/h
1795 19-01-2017 07:45:00 -8.6 C 2.43 g/m*3 -8.6 C 0 km/h
1796 19-01-2017 07:50:00 -8.6 C 2.43 g/m*3 -8.6 C 0 km/h
1797 19-01-2017 07:55:00 -8.6 C 2.43 g/m*3 -8.6 C 0 km/h
1798 19-01-2017 10:10:00 -7.8 C 2.61 g/m*3 -7.8 C 0 km/h
1799 19-01-2017 10:15:00 -7.7 C 2.63 g/m*3 -7.7 C 0 km/h
1800 19-01-2017 10:20:00 -7.7 C 2.63 g/m*3 -7.7 C 0 km/h
Sensor: Nr:Datum:Temp:Abs-Feuchte:Windchill:Wind:
Aussen-T/F 1801 19-01-2017 10:25:00 -7.6 C 2.65 g/m*3 -7.6 C 0 km/h
1802 19-01-2017 10:30:00 -7.5 C 2.67 g/m*3 -7.5 C 0 km/h
1803 19-01-2017 10:35:00 -7.4 C 2.69 g/m*3 -7.4 C 0 km/h
1804 19-01-2017 10:40:00 -7.3 C 2.71 g/m*3 -7.3 C 0 km/h
1805 19-01-2017 10:45:00 -7.2 C 2.73 g/m*3 -7.2 C 0 km/h
1806 19-01-2017 10:50:00 -7.1 C 2.75 g/m*3 -7.1 C 0 km/h
1807 19-01-2017 10:55:00 -6.9 C 2.79 g/m*3 -6.9 C 0 km/h
1808 19-01-2017 11:00:00 -6.9 C 2.79 g/m*3 -6.9 C 0 km/h
1809 19-01-2017 11:05:00 -6.8 C 2.81 g/m*3 -6.8 C 0 km/h
1810 19-01-2017 11:10:00 -6.8 C 2.81 g/m*3 -6.8 C 0 km/h
1811 19-01-2017 11:15:00 -6.7 C 2.83 g/m*3 -6.7 C 1.6 km/h
1812 19-01-2017 11:20:00 -6.6 C 2.85 g/m*3 -6.6 C 1.6 km/h
1813 19-01-2017 11:25:00 -6.6 C 2.85 g/m*3 -6.6 C 0 km/h
1814 19-01-2017 11:30:00 -6.4 C 2.89 g/m*3 -6.4 C 0 km/h
1815 19-01-2017 11:35:00 -6.4 C 2.89 g/m*3 -6.4 C 0 km/h
1816 19-01-2017 11:40:00 -6.3 C 2.91 g/m*3 -6.3 C 0 km/h
1817 19-01-2017 11:45:00 -6.3 C 2.91 g/m*3 -6.3 C 0 km/h
1818 19-01-2017 11:50:00 -6.2 C 2.93 g/m*3 -6.2 C 0 km/h
1819 19-01-2017 11:55:00 -6.1 C 2.96 g/m*3 -6.1 C 0 km/h
1820 19-01-2017 12:00:00 -6.1 C 2.96 g/m*3 -6.1 C 0 km/h
1821 19-01-2017 12:05:00 -6 C 2.98 g/m*3 -6 C 0 km/h
1822 19-01-2017 12:10:00 -5.9 C 3 g/m*3 -5.9 C 1.6 km/h
1823 19-01-2017 12:15:00 -5.8 C 3.02 g/m*3 -5.8 C 3.2 km/h
1824 19-01-2017 12:20:00 -5.7 C 3.04 g/m*3 -5.7 C 3.2 km/h
1825 19-01-2017 12:25:00 -5.6 C 3.06 g/m*3 -5.6 C 3.2 km/h
Sensor: Nr:Datum:Temp:Abs-Feuchte:Windchill:Wind:
Aussen-T/F 1826 19-01-2017 12:30:00 -5.5 C 3.09 g/m*3 -5.5 C 3.2 km/h
1827 19-01-2017 12:35:00 -5.4 C 3.11 g/m*3 -5.4 C 4.8 km/h
1828 19-01-2017 12:40:00 -5.3 C 3.13 g/m*3 -5.3 C 4.8 km/h
1829 19-01-2017 12:45:00 -5.2 C 3.15 g/m*3 -5.2 C 1.6 km/h
1830 19-01-2017 12:50:00 -5.1 C 3.18 g/m*3 -5.1 C 0 km/h
1831 19-01-2017 12:55:00 -5 C 3.2 g/m*3 -5 C 0 km/h
1832 19-01-2017 13:00:00 -4.9 C 3.19 g/m*3 -4.9 C 0 km/h
1833 19-01-2017 13:05:00 -4.8 C 3.25 g/m*3 -4.8 C 3.2 km/h
1834 19-01-2017 13:10:00 -4.8 C 3.21 g/m*3 -4.8 C 3.2 km/h
1835 19-01-2017 13:15:00 -4.7 C 3.24 g/m*3 -4.7 C 3.2 km/h
1836 19-01-2017 13:20:00 -4.6 C 3.26 g/m*3 -4.6 C 3.2 km/h
1837 19-01-2017 13:25:00 -4.6 C 3.26 g/m*3 -4.6 C 3.2 km/h
1838 19-01-2017 13:30:00 -4.4 C 3.31 g/m*3 -4.4 C 3.2 km/h
1839 19-01-2017 13:35:00 -4.4 C 3.31 g/m*3 -4.4 C 3.2 km/h
1840 19-01-2017 13:40:00 -4.3 C 3.33 g/m*3 -4.3 C 3.2 km/h
1841 19-01-2017 13:45:00 -4.2 C 3.35 g/m*3 -4.2 C 3.2 km/h
1842 19-01-2017 13:50:00 -4.1 C 3.38 g/m*3 -4.1 C 3.2 km/h
1843 19-01-2017 13:55:00 -3.9 C 3.43 g/m*3 -3.9 C 3.2 km/h
1844 19-01-2017 14:00:00 -3.9 C 3.43 g/m*3 -3.9 C 3.2 km/h
1845 19-01-2017 14:05:00 -3.8 C 3.41 g/m*3 -3.8 C 4.8 km/h
1846 19-01-2017 14:10:00 -3.8 C 3.41 g/m*3 -3.8 C 3.2 km/h
1847 19-01-2017 14:15:00 -3.7 C 3.44 g/m*3 -3.7 C 3.2 km/h
1848 19-01-2017 14:20:00 -3.6 C 3.46 g/m*3 -3.6 C 4.8 km/h
1849 19-01-2017 14:25:00 -3.6 C 3.46 g/m*3 -3.6 C 4.8 km/h
1850 19-01-2017 14:30:00 -3.4 C 3.51 g/m*3 -3.4 C 4.8 km/h
Sensor: Nr:Datum:Temp:Abs-Feuchte:Windchill:Wind:
Aussen-T/F 1851 19-01-2017 14:35:00 -3.4 C 3.51 g/m*3 -3.4 C 4.8 km/h
1852 19-01-2017 14:40:00 -3.3 C 3.54 g/m*3 -3.3 C 4.8 km/h
1853 19-01-2017 14:45:00 -3.2 C 3.52 g/m*3 -3.2 C 4.8 km/h
1854 19-01-2017 14:50:00 -3.2 C 3.52 g/m*3 -3.2 C 4.8 km/h
1855 19-01-2017 14:55:00 -3.1 C 3.55 g/m*3 -3.1 C 4.8 km/h
1856 19-01-2017 15:00:00 -3.1 C 3.55 g/m*3 -3.1 C 3.2 km/h
1857 19-01-2017 15:05:00 -3.1 C 3.55 g/m*3 -3.1 C 4.8 km/h
1858 19-01-2017 15:10:00 -3 C 3.57 g/m*3 -3 C 4.8 km/h
1859 19-01-2017 15:15:00 -2.9 C 3.56 g/m*3 -2.9 C 4.8 km/h
1860 19-01-2017 15:20:00 -2.9 C 3.56 g/m*3 -2.9 C 4.8 km/h
1861 19-01-2017 15:25:00 -2.9 C 3.56 g/m*3 -2.9 C 4.8 km/h
1862 19-01-2017 15:30:00 -2.9 C 3.56 g/m*3 -2.9 C 4.8 km/h
1863 19-01-2017 15:35:00 -2.9 C 3.56 g/m*3 -2.9 C 4.8 km/h
1864 19-01-2017 15:40:00 -2.9 C 3.56 g/m*3 -2.9 C 4.8 km/h
1865 19-01-2017 15:45:00 -2.9 C 3.56 g/m*3 -5.53 C 6.4 km/h
1866 19-01-2017 15:50:00 -2.8 C 3.59 g/m*3 -2.8 C 4.8 km/h
1867 19-01-2017 15:55:00 -2.8 C 3.59 g/m*3 -2.8 C 4.8 km/h
1868 19-01-2017 16:00:00 -2.8 C 3.59 g/m*3 -2.8 C 4.8 km/h
1869 19-01-2017 16:05:00 -2.8 C 3.59 g/m*3 -5.42 C 6.4 km/h
1870 19-01-2017 16:10:00 -2.8 C 3.59 g/m*3 -2.8 C 4.8 km/h
1871 19-01-2017 16:15:00 -2.8 C 3.59 g/m*3 -2.8 C 4.8 km/h
1872 19-01-2017 16:20:00 -2.8 C 3.59 g/m*3 -2.8 C 4.8 km/h
1873 19-01-2017 16:25:00 -2.8 C 3.55 g/m*3 -2.8 C 4.8 km/h
1874 19-01-2017 16:30:00 -2.8 C 3.59 g/m*3 -2.8 C 4.8 km/h
1875 19-01-2017 16:35:00 -2.9 C 3.56 g/m*3 -2.9 C 4.8 km/h
Sensor: Nr:Datum:Temp:Abs-Feuchte:Windchill:Wind:
Aussen-T/F 1876 19-01-2017 16:40:00 -2.9 C 3.56 g/m*3 -2.9 C 4.8 km/h
1877 19-01-2017 16:45:00 -2.9 C 3.56 g/m*3 -2.9 C 4.8 km/h
1878 19-01-2017 16:50:00 -2.9 C 3.56 g/m*3 -2.9 C 4.8 km/h
1879 19-01-2017 16:55:00 -2.9 C 3.52 g/m*3 -5.53 C 6.4 km/h
1880 19-01-2017 17:00:00 -2.9 C 3.52 g/m*3 -5.53 C 6.4 km/h
1881 19-01-2017 17:05:00 -3 C 3.5 g/m*3 -5.65 C 6.4 km/h
1882 19-01-2017 17:10:00 -3.1 C 3.47 g/m*3 -5.76 C 6.4 km/h
1883 19-01-2017 17:15:00 -3 C 3.5 g/m*3 -5.65 C 6.4 km/h
1884 19-01-2017 17:20:00 -3 C 3.5 g/m*3 -5.65 C 6.4 km/h
1885 19-01-2017 17:25:00 -3 C 3.5 g/m*3 -5.65 C 6.4 km/h
1886 19-01-2017 17:30:00 -3 C 3.5 g/m*3 -5.65 C 6.4 km/h
1887 19-01-2017 17:35:00 -3 C 3.46 g/m*3 -3 C 4.8 km/h
1888 19-01-2017 17:40:00 -3 C 3.46 g/m*3 -3 C 4.8 km/h
1889 19-01-2017 17:45:00 -3 C 3.46 g/m*3 -3 C 4.8 km/h
1890 19-01-2017 17:50:00 -3.1 C 3.43 g/m*3 -3.1 C 3.2 km/h
1891 19-01-2017 17:55:00 -3.2 C 3.41 g/m*3 -3.2 C 4.8 km/h
1892 19-01-2017 18:00:00 -3.3 C 3.38 g/m*3 -3.3 C 4.8 km/h
1893 19-01-2017 18:05:00 -3.3 C 3.38 g/m*3 -3.3 C 4.8 km/h
1894 19-01-2017 18:10:00 -3.3 C 3.38 g/m*3 -3.3 C 3.2 km/h
1895 19-01-2017 18:15:00 -3.4 C 3.4 g/m*3 -3.4 C 3.2 km/h
1896 19-01-2017 18:20:00 -3.5 C 3.34 g/m*3 -3.5 C 0 km/h
1897 19-01-2017 18:25:00 -3.6 C 3.35 g/m*3 -3.6 C 0 km/h
1898 19-01-2017 18:30:00 -3.8 C 3.27 g/m*3 -3.8 C 0 km/h
1899 19-01-2017 18:35:00 -4 C 3.26 g/m*3 -4 C 0 km/h
1900 19-01-2017 18:40:00 -4.1 C 3.23 g/m*3 -4.1 C 0 km/h
Sensor: Nr:Datum:Temp:Abs-Feuchte:Windchill:Wind:
Aussen-T/F 1901 19-01-2017 18:45:00 -4.1 C 3.27 g/m*3 -4.1 C 1.6 km/h
1902 19-01-2017 18:50:00 -4.3 C 3.22 g/m*3 -4.3 C 1.6 km/h
1903 19-01-2017 18:55:00 -4.3 C 3.22 g/m*3 -4.3 C 1.6 km/h
1904 19-01-2017 19:00:00 -4.3 C 3.22 g/m*3 -4.3 C 1.6 km/h
1905 19-01-2017 19:05:00 -4.4 C 3.2 g/m*3 -4.4 C 0 km/h
1906 19-01-2017 19:10:00 -4.6 C 3.15 g/m*3 -4.6 C 0 km/h
1907 19-01-2017 19:15:00 -4.7 C 3.13 g/m*3 -4.7 C 0 km/h
1908 19-01-2017 19:20:00 -4.8 C 3.11 g/m*3 -4.8 C 0 km/h
1909 19-01-2017 19:25:00 -4.9 C 3.09 g/m*3 -4.9 C 0 km/h
1910 19-01-2017 19:30:00 -5 C 3.06 g/m*3 -5 C 0 km/h
1911 19-01-2017 19:35:00 -5.2 C 3.02 g/m*3 -5.2 C 0 km/h
1912 19-01-2017 19:40:00 -5.3 C 3 g/m*3 -5.3 C 0 km/h
1913 19-01-2017 19:45:00 -5.3 C 3.03 g/m*3 -5.3 C 0 km/h
1914 19-01-2017 19:50:00 -5.3 C 3.03 g/m*3 -5.3 C 0 km/h
1915 19-01-2017 19:55:00 -5.4 C 3.01 g/m*3 -5.4 C 0 km/h
1916 19-01-2017 20:00:00 -5.4 C 3.01 g/m*3 -5.4 C 0 km/h
1917 19-01-2017 20:05:00 -5.4 C 3.01 g/m*3 -5.4 C 0 km/h
1918 19-01-2017 20:10:00 -5.6 C 2.97 g/m*3 -5.6 C 0 km/h
1919 19-01-2017 20:15:00 -5.6 C 2.97 g/m*3 -5.6 C 0 km/h
1920 19-01-2017 20:20:00 -5.7 C 2.95 g/m*3 -5.7 C 0 km/h
1921 19-01-2017 20:25:00 -5.8 C 2.92 g/m*3 -5.8 C 0 km/h
1922 19-01-2017 20:30:00 -5.9 C 2.9 g/m*3 -5.9 C 0 km/h
1923 19-01-2017 20:35:00 -5.9 C 2.9 g/m*3 -5.9 C 0 km/h
1924 19-01-2017 20:40:00 -5.9 C 2.9 g/m*3 -5.9 C 0 km/h
1925 19-01-2017 20:45:00 -5.8 C 2.96 g/m*3 -5.8 C 0 km/h
Sensor: Nr:Datum:Temp:Abs-Feuchte:Windchill:Wind:
Aussen-T/F 1926 19-01-2017 20:50:00 -5.8 C 2.96 g/m*3 -5.8 C 0 km/h
1927 19-01-2017 20:55:00 -5.8 C 2.92 g/m*3 -5.8 C 0 km/h
1928 19-01-2017 21:00:00 -5.8 C 2.92 g/m*3 -5.8 C 0 km/h
1929 19-01-2017 21:05:00 -5.8 C 2.92 g/m*3 -5.8 C 0 km/h
1930 19-01-2017 21:10:00 -5.9 C 2.9 g/m*3 -5.9 C 0 km/h
1931 19-01-2017 21:15:00 -6.1 C 2.86 g/m*3 -6.1 C 0 km/h
1932 19-01-2017 21:20:00 -6.1 C 2.86 g/m*3 -6.1 C 0 km/h
1933 19-01-2017 21:25:00 -6.3 C 2.82 g/m*3 -6.3 C 0 km/h
1934 19-01-2017 21:30:00 -6.3 C 2.82 g/m*3 -6.3 C 0 km/h
1935 19-01-2017 21:35:00 -6.3 C 2.82 g/m*3 -6.3 C 0 km/h
1936 19-01-2017 21:40:00 -6.4 C 2.8 g/m*3 -6.4 C 0 km/h
1937 19-01-2017 21:45:00 -6.4 C 2.8 g/m*3 -6.4 C 0 km/h
1938 19-01-2017 21:50:00 -6.4 C 2.83 g/m*3 -6.4 C 0 km/h
1939 19-01-2017 21:55:00 -6.4 C 2.83 g/m*3 -6.4 C 0 km/h
1940 19-01-2017 22:00:00 -6.4 C 2.83 g/m*3 -6.4 C 0 km/h
1941 19-01-2017 22:05:00 -6.6 C 2.79 g/m*3 -6.6 C 0 km/h
1942 19-01-2017 22:10:00 -6.6 C 2.79 g/m*3 -6.6 C 0 km/h
1943 19-01-2017 22:15:00 -6.6 C 2.79 g/m*3 -6.6 C 0 km/h
1944 19-01-2017 22:20:00 -6.5 C 2.81 g/m*3 -6.5 C 0 km/h
1945 19-01-2017 22:25:00 -6.6 C 2.79 g/m*3 -6.6 C 0 km/h
1946 19-01-2017 22:30:00 -6.6 C 2.79 g/m*3 -6.6 C 0 km/h
1947 19-01-2017 22:35:00 -6.7 C 2.77 g/m*3 -6.7 C 0 km/h
1948 19-01-2017 22:40:00 -6.7 C 2.77 g/m*3 -6.7 C 0 km/h
1949 19-01-2017 22:45:00 -6.7 C 2.77 g/m*3 -6.7 C 0 km/h
1950 19-01-2017 22:50:00 -6.7 C 2.77 g/m*3 -6.7 C 0 km/h
Sensor: Nr:Datum:Temp:Abs-Feuchte:Windchill:Wind:
Aussen-T/F 1951 19-01-2017 22:55:00 -6.7 C 2.77 g/m*3 -6.7 C 0 km/h
1952 19-01-2017 23:00:00 -6.8 C 2.75 g/m*3 -6.8 C 0 km/h
1953 19-01-2017 23:05:00 -6.8 C 2.75 g/m*3 -6.8 C 0 km/h
1954 19-01-2017 23:10:00 -6.8 C 2.75 g/m*3 -6.8 C 0 km/h
1955 19-01-2017 23:15:00 -6.9 C 2.73 g/m*3 -6.9 C 0 km/h
1956 19-01-2017 23:20:00 -6.9 C 2.73 g/m*3 -6.9 C 0 km/h
1957 19-01-2017 23:25:00 -6.9 C 2.73 g/m*3 -6.9 C 0 km/h
1958 19-01-2017 23:30:00 -6.8 C 2.75 g/m*3 -6.8 C 1.6 km/h
1959 19-01-2017 23:35:00 -6.9 C 2.73 g/m*3 -6.9 C 0 km/h
1960 19-01-2017 23:40:00 -6.9 C 2.73 g/m*3 -6.9 C 0 km/h
1961 19-01-2017 23:45:00 -7 C 2.71 g/m*3 -7 C 0 km/h
1962 19-01-2017 23:50:00 -7 C 2.71 g/m*3 -7 C 0 km/h
1963 19-01-2017 23:55:00 -6.9 C 2.73 g/m*3 -6.9 C 0 km/h
1964 20-01-2017 00:00:00 -6.8 C 2.75 g/m*3 -6.8 C 0 km/h
1965 20-01-2017 00:05:00 -6.8 C 2.75 g/m*3 -6.8 C 0 km/h
1966 20-01-2017 00:10:00 -6.9 C 2.73 g/m*3 -6.9 C 0 km/h
1967 20-01-2017 00:15:00 -7.1 C 2.69 g/m*3 -7.1 C 0 km/h
1968 20-01-2017 00:20:00 -7.2 C 2.67 g/m*3 -7.2 C 0 km/h
1969 20-01-2017 00:25:00 -7.3 C 2.62 g/m*3 -7.3 C 0 km/h
1970 20-01-2017 00:30:00 -7.4 C 2.6 g/m*3 -7.4 C 0 km/h
1971 20-01-2017 00:35:00 -7.5 C 2.61 g/m*3 -7.5 C 0 km/h
1972 20-01-2017 00:40:00 -7.6 C 2.59 g/m*3 -7.6 C 0 km/h
1973 20-01-2017 00:45:00 -7.6 C 2.59 g/m*3 -7.6 C 0 km/h
1974 20-01-2017 00:50:00 -7.7 C 2.57 g/m*3 -7.7 C 0 km/h
1975 20-01-2017 00:55:00 -7.7 C 2.57 g/m*3 -7.7 C 0 km/h
Sensor: Nr:Datum:Temp:Abs-Feuchte:Windchill:Wind:
Aussen-T/F 1976 20-01-2017 01:00:00 -7.7 C 2.57 g/m*3 -7.7 C 0 km/h
1977 20-01-2017 01:05:00 -7.7 C 2.57 g/m*3 -7.7 C 0 km/h
1978 20-01-2017 01:10:00 -7.7 C 2.6 g/m*3 -7.7 C 0 km/h
1979 20-01-2017 01:15:00 -7.7 C 2.6 g/m*3 -7.7 C 0 km/h
1980 20-01-2017 01:20:00 -7.7 C 2.6 g/m*3 -7.7 C 0 km/h
1981 20-01-2017 01:25:00 -7.7 C 2.57 g/m*3 -7.7 C 0 km/h
1982 20-01-2017 01:30:00 -7.8 C 2.55 g/m*3 -7.8 C 0 km/h
1983 20-01-2017 01:35:00 -7.7 C 2.6 g/m*3 -7.7 C 0 km/h
1984 20-01-2017 01:40:00 -7.7 C 2.6 g/m*3 -7.7 C 0 km/h
1985 20-01-2017 01:45:00 -7.8 C 2.58 g/m*3 -7.8 C 0 km/h
1986 20-01-2017 01:50:00 -7.8 C 2.55 g/m*3 -7.8 C 0 km/h
1987 20-01-2017 01:55:00 -7.8 C 2.55 g/m*3 -7.8 C 0 km/h
1988 20-01-2017 02:00:00 -7.9 C 2.53 g/m*3 -7.9 C 0 km/h
1989 20-01-2017 02:05:00 -8 C 2.52 g/m*3 -8 C 0 km/h
1990 20-01-2017 02:10:00 -8.1 C 2.5 g/m*3 -8.1 C 0 km/h
1991 20-01-2017 02:15:00 -8.2 C 2.48 g/m*3 -8.2 C 0 km/h
1992 20-01-2017 02:20:00 -8.2 C 2.48 g/m*3 -8.2 C 0 km/h
1993 20-01-2017 02:25:00 -8.2 C 2.48 g/m*3 -8.2 C 0 km/h
1994 20-01-2017 02:30:00 -8.2 C 2.48 g/m*3 -8.2 C 0 km/h
1995 20-01-2017 02:35:00 -8.3 C 2.46 g/m*3 -8.3 C 0 km/h
1996 20-01-2017 02:40:00 -8.3 C 2.49 g/m*3 -8.3 C 0 km/h
1997 20-01-2017 02:45:00 -8.3 C 2.49 g/m*3 -8.3 C 0 km/h
1998 20-01-2017 02:50:00 -8.3 C 2.49 g/m*3 -8.3 C 0 km/h
1999 20-01-2017 02:55:00 -8.3 C 2.49 g/m*3 -8.3 C 0 km/h
2000 20-01-2017 03:00:00 -8.3 C 2.49 g/m*3 -8.3 C 0 km/h
Sensor: Nr:Datum:Temp:Abs-Feuchte:Windchill:Wind:
Aussen-T/F 2001 20-01-2017 03:05:00 -8.3 C 2.49 g/m*3 -8.3 C 0 km/h
2002 20-01-2017 03:10:00 -8.3 C 2.49 g/m*3 -8.3 C 0 km/h
2003 20-01-2017 03:15:00 -8.4 C 2.44 g/m*3 -8.4 C 0 km/h
2004 20-01-2017 03:20:00 -8.6 C 2.41 g/m*3 -8.6 C 0 km/h
2005 20-01-2017 03:25:00 -8.7 C 2.39 g/m*3 -8.7 C 0 km/h
2006 20-01-2017 03:30:00 -8.7 C 2.41 g/m*3 -8.7 C 0 km/h
2007 20-01-2017 03:35:00 -8.7 C 2.41 g/m*3 -8.7 C 0 km/h
2008 20-01-2017 03:40:00 -8.7 C 2.41 g/m*3 -8.7 C 0 km/h
2009 20-01-2017 03:45:00 -8.6 C 2.43 g/m*3 -8.6 C 0 km/h
2010 20-01-2017 03:50:00 -8.6 C 2.43 g/m*3 -8.6 C 0 km/h
2011 20-01-2017 03:55:00 -8.7 C 2.41 g/m*3 -8.7 C 0 km/h
2012 20-01-2017 04:00:00 -8.7 C 2.41 g/m*3 -8.7 C 0 km/h
2013 20-01-2017 04:05:00 -8.6 C 2.43 g/m*3 -8.6 C 0 km/h
2014 20-01-2017 04:10:00 -8.4 C 2.5 g/m*3 -8.4 C 0 km/h
2015 20-01-2017 04:15:00 -8.4 C 2.47 g/m*3 -8.4 C 0 km/h
2016 20-01-2017 04:20:00 -8.4 C 2.47 g/m*3 -8.4 C 0 km/h
2017 20-01-2017 04:25:00 -8.5 C 2.45 g/m*3 -8.5 C 0 km/h
2018 20-01-2017 04:30:00 -8.6 C 2.43 g/m*3 -8.6 C 0 km/h
2019 20-01-2017 04:35:00 -8.7 C 2.41 g/m*3 -8.7 C 0 km/h
2020 20-01-2017 04:40:00 -8.8 C 2.4 g/m*3 -8.8 C 0 km/h
2021 20-01-2017 04:45:00 -8.9 C 2.38 g/m*3 -8.9 C 0 km/h
2022 20-01-2017 04:50:00 -8.9 C 2.38 g/m*3 -8.9 C 0 km/h
2023 20-01-2017 04:55:00 -9 C 2.36 g/m*3 -9 C 0 km/h
2024 20-01-2017 05:00:00 -9.1 C 2.34 g/m*3 -9.1 C 0 km/h
2025 20-01-2017 05:05:00 -9.1 C 2.34 g/m*3 -9.1 C 0 km/h
Sensor: Nr:Datum:Temp:Abs-Feuchte:Windchill:Wind:
Aussen-T/F 2026 20-01-2017 05:10:00 -9.2 C 2.33 g/m*3 -9.2 C 0 km/h
2027 20-01-2017 05:15:00 -9.2 C 2.33 g/m*3 -9.2 C 0 km/h
2028 20-01-2017 05:20:00 -9.2 C 2.33 g/m*3 -9.2 C 0 km/h
2029 20-01-2017 05:25:00 -9.2 C 2.33 g/m*3 -9.2 C 0 km/h
2030 20-01-2017 05:30:00 -9.2 C 2.33 g/m*3 -9.2 C 0 km/h
2031 20-01-2017 05:35:00 -9.2 C 2.33 g/m*3 -9.2 C 0 km/h
2032 20-01-2017 05:40:00 -9.2 C 2.33 g/m*3 -9.2 C 0 km/h
2033 20-01-2017 05:45:00 -9.3 C 2.31 g/m*3 -9.3 C 0 km/h
2034 20-01-2017 05:50:00 -9.3 C 2.31 g/m*3 -9.3 C 0 km/h
2035 20-01-2017 05:55:00 -9.3 C 2.31 g/m*3 -9.3 C 0 km/h
2036 20-01-2017 06:00:00 -9.3 C 2.31 g/m*3 -9.3 C 0 km/h
2037 20-01-2017 06:05:00 -9.3 C 2.31 g/m*3 -9.3 C 0 km/h
2038 20-01-2017 06:10:00 -9.4 C 2.29 g/m*3 -9.4 C 0 km/h
2039 20-01-2017 06:15:00 -9.4 C 2.29 g/m*3 -9.4 C 0 km/h
2040 20-01-2017 06:20:00 -9.5 C 2.27 g/m*3 -9.5 C 0 km/h
2041 20-01-2017 06:25:00 -9.5 C 2.27 g/m*3 -9.5 C 0 km/h
2042 20-01-2017 06:30:00 -9.6 C 2.26 g/m*3 -9.6 C 0 km/h
2043 20-01-2017 06:35:00 -9.6 C 2.26 g/m*3 -9.6 C 0 km/h
2044 20-01-2017 06:40:00 -9.6 C 2.26 g/m*3 -9.6 C 0 km/h
2045 20-01-2017 06:45:00 -9.6 C 2.26 g/m*3 -9.6 C 0 km/h
2046 20-01-2017 06:50:00 -9.6 C 2.26 g/m*3 -9.6 C 0 km/h
2047 20-01-2017 06:55:00 -9.6 C 2.26 g/m*3 -9.6 C 0 km/h
2048 20-01-2017 07:00:00 -9.6 C 2.26 g/m*3 -9.6 C 0 km/h
2049 20-01-2017 07:05:00 -9.6 C 2.26 g/m*3 -9.6 C 0 km/h
2050 20-01-2017 07:10:00 -9.6 C 2.26 g/m*3 -9.6 C 0 km/h
Sensor: Nr:Datum:Temp:Abs-Feuchte:Windchill:Wind:
Aussen-T/F 2051 20-01-2017 07:15:00 -9.6 C 2.26 g/m*3 -9.6 C 0 km/h
2052 20-01-2017 07:20:00 -9.6 C 2.26 g/m*3 -9.6 C 0 km/h
2053 20-01-2017 07:25:00 -9.6 C 2.26 g/m*3 -9.6 C 0 km/h
2054 20-01-2017 07:30:00 -9.6 C 2.26 g/m*3 -9.6 C 0 km/h
2055 20-01-2017 10:10:00 -9.3 C 2.31 g/m*3 -9.3 C 0 km/h
2056 20-01-2017 10:15:00 -9.3 C 2.31 g/m*3 -9.3 C 0 km/h
2057 20-01-2017 10:20:00 -9.2 C 2.33 g/m*3 -9.2 C 0 km/h
2058 20-01-2017 10:25:00 -9.2 C 2.33 g/m*3 -9.2 C 0 km/h
2059 20-01-2017 10:30:00 -9 C 2.36 g/m*3 -9 C 0 km/h
2060 20-01-2017 10:35:00 -8.9 C 2.38 g/m*3 -8.9 C 0 km/h
2061 20-01-2017 10:40:00 -8.7 C 2.44 g/m*3 -8.7 C 0 km/h
2062 20-01-2017 10:45:00 -8.6 C 2.46 g/m*3 -8.6 C 0 km/h
2063 20-01-2017 10:50:00 -8.4 C 2.5 g/m*3 -8.4 C 0 km/h
2064 20-01-2017 10:55:00 -8.2 C 2.53 g/m*3 -8.2 C 0 km/h
2065 20-01-2017 11:00:00 -8.1 C 2.55 g/m*3 -8.1 C 1.6 km/h
2066 20-01-2017 11:05:00 -7.9 C 2.59 g/m*3 -7.9 C 0 km/h
2067 20-01-2017 11:10:00 -7.7 C 2.63 g/m*3 -7.7 C 1.6 km/h
2068 20-01-2017 11:15:00 -7.6 C 2.65 g/m*3 -7.6 C 0 km/h
2069 20-01-2017 11:20:00 -7.4 C 2.69 g/m*3 -7.4 C 0 km/h
2070 20-01-2017 11:25:00 -7.3 C 2.71 g/m*3 -7.3 C 0 km/h
2071 20-01-2017 11:30:00 -7.3 C 2.71 g/m*3 -7.3 C 0 km/h
2072 20-01-2017 11:35:00 -7.2 C 2.73 g/m*3 -7.2 C 0 km/h
2073 20-01-2017 11:40:00 -7.2 C 2.73 g/m*3 -7.2 C 0 km/h
2074 20-01-2017 11:45:00 -7 C 2.77 g/m*3 -7 C 1.6 km/h
2075 20-01-2017 11:50:00 -6.9 C 2.79 g/m*3 -6.9 C 0 km/h
Sensor: Nr:Datum:Temp:Abs-Feuchte:Windchill:Wind:
Aussen-T/F 2076 20-01-2017 11:55:00 -6.7 C 2.83 g/m*3 -6.7 C 0 km/h
2077 20-01-2017 12:00:00 -6.6 C 2.85 g/m*3 -6.6 C 1.6 km/h
2078 20-01-2017 12:05:00 -6.4 C 2.89 g/m*3 -6.4 C 0 km/h
2079 20-01-2017 12:10:00 -6.3 C 2.91 g/m*3 -6.3 C 0 km/h
2080 20-01-2017 12:15:00 -6.2 C 2.93 g/m*3 -6.2 C 0 km/h
2081 20-01-2017 12:20:00 -6.1 C 2.96 g/m*3 -6.1 C 3.2 km/h
2082 20-01-2017 12:25:00 -5.9 C 3 g/m*3 -5.9 C 3.2 km/h
2083 20-01-2017 12:30:00 -5.7 C 3.04 g/m*3 -5.7 C 1.6 km/h
2084 20-01-2017 12:35:00 -5.6 C 3.06 g/m*3 -5.6 C 1.6 km/h
2085 20-01-2017 12:40:00 -5.4 C 3.11 g/m*3 -5.4 C 1.6 km/h
2086 20-01-2017 12:45:00 -5.3 C 3.13 g/m*3 -5.3 C 1.6 km/h
2087 20-01-2017 12:50:00 -5.2 C 3.15 g/m*3 -5.2 C 1.6 km/h
2088 20-01-2017 12:55:00 -5 C 3.2 g/m*3 -5 C 3.2 km/h
2089 20-01-2017 13:00:00 -4.9 C 3.19 g/m*3 -4.9 C 3.2 km/h
2090 20-01-2017 13:05:00 -4.8 C 3.21 g/m*3 -4.8 C 1.6 km/h
2091 20-01-2017 13:10:00 -4.7 C 3.24 g/m*3 -4.7 C 3.2 km/h
2092 20-01-2017 13:15:00 -4.6 C 3.22 g/m*3 -4.6 C 1.6 km/h
2093 20-01-2017 13:20:00 -4.4 C 3.27 g/m*3 -4.4 C 3.2 km/h
2094 20-01-2017 13:25:00 -4.3 C 3.29 g/m*3 -4.3 C 3.2 km/h
2095 20-01-2017 13:30:00 -4.2 C 3.32 g/m*3 -4.2 C 3.2 km/h
2096 20-01-2017 13:35:00 -4.1 C 3.31 g/m*3 -4.1 C 3.2 km/h
2097 20-01-2017 13:40:00 -4 C 3.33 g/m*3 -4 C 3.2 km/h
2098 20-01-2017 13:45:00 -3.9 C 3.35 g/m*3 -3.9 C 3.2 km/h
2099 20-01-2017 13:50:00 -3.8 C 3.38 g/m*3 -3.8 C 4.8 km/h
2100 20-01-2017 13:55:00 -3.6 C 3.43 g/m*3 -3.6 C 4.8 km/h
Sensor: Nr:Datum:Temp:Abs-Feuchte:Windchill:Wind:
Aussen-T/F 2101 20-01-2017 14:00:00 -3.5 C 3.45 g/m*3 -3.5 C 4.8 km/h
2102 20-01-2017 14:05:00 -3.4 C 3.44 g/m*3 -3.4 C 4.8 km/h
2103 20-01-2017 14:10:00 -3.3 C 3.46 g/m*3 -3.3 C 4.8 km/h
2104 20-01-2017 14:15:00 -3.3 C 3.46 g/m*3 -3.3 C 4.8 km/h
2105 20-01-2017 14:20:00 -3.2 C 3.45 g/m*3 -3.2 C 4.8 km/h
2106 20-01-2017 14:25:00 -3.1 C 3.47 g/m*3 -3.1 C 4.8 km/h
2107 20-01-2017 14:30:00 -3.1 C 3.47 g/m*3 -5.76 C 6.4 km/h
2108 20-01-2017 14:35:00 -3 C 3.46 g/m*3 -5.65 C 6.4 km/h
2109 20-01-2017 14:40:00 -2.9 C 3.48 g/m*3 -2.9 C 4.8 km/h
2110 20-01-2017 14:45:00 -2.9 C 3.48 g/m*3 -2.9 C 4.8 km/h
2111 20-01-2017 14:50:00 -2.8 C 3.51 g/m*3 -2.8 C 4.8 km/h
2112 20-01-2017 14:55:00 -2.8 C 3.51 g/m*3 -2.8 C 4.8 km/h
2113 20-01-2017 15:00:00 -2.7 C 3.53 g/m*3 -2.7 C 4.8 km/h
2114 20-01-2017 15:05:00 -2.7 C 3.53 g/m*3 -2.7 C 4.8 km/h
2115 20-01-2017 15:10:00 -2.6 C 3.56 g/m*3 -2.6 C 4.8 km/h
2116 20-01-2017 15:15:00 -2.6 C 3.56 g/m*3 -2.6 C 4.8 km/h
2117 20-01-2017 15:20:00 -2.5 C 3.58 g/m*3 -2.5 C 4.8 km/h
2118 20-01-2017 15:25:00 -2.4 C 3.61 g/m*3 -2.4 C 4.8 km/h
2119 20-01-2017 15:30:00 -2.4 C 3.61 g/m*3 -4.95 C 6.4 km/h
2120 20-01-2017 15:35:00 -2.3 C 3.63 g/m*3 -2.3 C 4.8 km/h
2121 20-01-2017 15:40:00 -2.3 C 3.63 g/m*3 -2.3 C 4.8 km/h
2122 20-01-2017 15:45:00 -2.3 C 3.59 g/m*3 -2.3 C 4.8 km/h
2123 20-01-2017 15:50:00 -2.3 C 3.59 g/m*3 -2.3 C 4.8 km/h
2124 20-01-2017 15:55:00 -2.3 C 3.59 g/m*3 -4.84 C 6.4 km/h
2125 20-01-2017 16:00:00 -2.2 C 3.62 g/m*3 -4.72 C 6.4 km/h
Sensor: Nr:Datum:Temp:Abs-Feuchte:Windchill:Wind:
Aussen-T/F 2126 20-01-2017 16:05:00 -2.2 C 3.66 g/m*3 -4.72 C 6.4 km/h
2127 20-01-2017 16:10:00 -2.2 C 3.66 g/m*3 -4.72 C 6.4 km/h
2128 20-01-2017 16:15:00 -2.1 C 3.64 g/m*3 -4.61 C 6.4 km/h
2129 20-01-2017 16:20:00 -2.1 C 3.64 g/m*3 -4.61 C 6.4 km/h
2130 20-01-2017 16:25:00 -2.1 C 3.64 g/m*3 -4.61 C 6.4 km/h
2131 20-01-2017 16:30:00 -2 C 3.67 g/m*3 -2 C 4.8 km/h
2132 20-01-2017 16:35:00 -2.1 C 3.6 g/m*3 -2.1 C 4.8 km/h
2133 20-01-2017 16:40:00 -2.1 C 3.6 g/m*3 -2.1 C 4.8 km/h
2134 20-01-2017 16:45:00 -2.1 C 3.6 g/m*3 -2.1 C 4.8 km/h
2135 20-01-2017 16:50:00 -2.1 C 3.6 g/m*3 -2.1 C 4.8 km/h
2136 20-01-2017 16:55:00 -2.1 C 3.6 g/m*3 -4.61 C 6.4 km/h
2137 20-01-2017 17:00:00 -2.2 C 3.57 g/m*3 -2.2 C 4.8 km/h
2138 20-01-2017 17:05:00 -2.2 C 3.53 g/m*3 -2.2 C 4.8 km/h
2139 20-01-2017 17:10:00 -2.3 C 3.51 g/m*3 -2.3 C 1.6 km/h
2140 20-01-2017 17:15:00 -2.4 C 3.48 g/m*3 -2.4 C 4.8 km/h
2141 20-01-2017 17:20:00 -2.5 C 3.46 g/m*3 -2.5 C 4.8 km/h
2142 20-01-2017 17:25:00 -2.6 C 3.48 g/m*3 -2.6 C 3.2 km/h
2143 20-01-2017 17:30:00 -2.7 C 3.45 g/m*3 -2.7 C 3.2 km/h
2144 20-01-2017 17:35:00 -2.7 C 3.45 g/m*3 -2.7 C 3.2 km/h
2145 20-01-2017 17:40:00 -2.8 C 3.43 g/m*3 -2.8 C 3.2 km/h
2146 20-01-2017 17:45:00 -2.8 C 3.47 g/m*3 -2.8 C 1.6 km/h
2147 20-01-2017 17:50:00 -2.9 C 3.44 g/m*3 -2.9 C 3.2 km/h
2148 20-01-2017 17:55:00 -3.1 C 3.35 g/m*3 -3.1 C 3.2 km/h
2149 20-01-2017 18:00:00 -3.3 C 3.31 g/m*3 -3.3 C 3.2 km/h
2150 20-01-2017 18:05:00 -3.3 C 3.35 g/m*3 -3.3 C 3.2 km/h
Sensor: Nr:Datum:Temp:Abs-Feuchte:Windchill:Wind:
Aussen-T/F 2151 20-01-2017 18:10:00 -3.3 C 3.35 g/m*3 -3.3 C 3.2 km/h
2152 20-01-2017 18:15:00 -3.4 C 3.32 g/m*3 -3.4 C 1.6 km/h
2153 20-01-2017 18:20:00 -3.4 C 3.36 g/m*3 -3.4 C 0 km/h
2154 20-01-2017 18:25:00 -3.5 C 3.34 g/m*3 -3.5 C 0 km/h
2155 20-01-2017 18:30:00 -3.5 C 3.34 g/m*3 -3.5 C 3.2 km/h
2156 20-01-2017 18:35:00 -3.6 C 3.31 g/m*3 -3.6 C 1.6 km/h
2157 20-01-2017 18:40:00 -3.6 C 3.35 g/m*3 -3.6 C 0 km/h
2158 20-01-2017 18:45:00 -3.6 C 3.35 g/m*3 -3.6 C 0 km/h
2159 20-01-2017 18:50:00 -3.6 C 3.35 g/m*3 -3.6 C 0 km/h
2160 20-01-2017 18:55:00 -3.7 C 3.29 g/m*3 -3.7 C 0 km/h
2161 20-01-2017 19:00:00 -3.8 C 3.3 g/m*3 -3.8 C 0 km/h
2162 20-01-2017 19:05:00 -3.9 C 3.24 g/m*3 -3.9 C 0 km/h
2163 20-01-2017 19:10:00 -4.1 C 3.2 g/m*3 -4.1 C 0 km/h
2164 20-01-2017 19:15:00 -4.2 C 3.17 g/m*3 -4.2 C 0 km/h
2165 20-01-2017 19:20:00 -4.4 C 3.13 g/m*3 -4.4 C 0 km/h
2166 20-01-2017 19:25:00 -4.6 C 3.08 g/m*3 -4.6 C 0 km/h
2167 20-01-2017 19:30:00 -4.7 C 3.06 g/m*3 -4.7 C 0 km/h
2168 20-01-2017 19:35:00 -4.7 C 3.1 g/m*3 -4.7 C 0 km/h
2169 20-01-2017 19:40:00 -4.7 C 3.1 g/m*3 -4.7 C 0 km/h
2170 20-01-2017 19:45:00 -4.7 C 3.13 g/m*3 -4.7 C 0 km/h
2171 20-01-2017 19:50:00 -4.8 C 3.11 g/m*3 -4.8 C 0 km/h
2172 20-01-2017 19:55:00 -4.8 C 3.11 g/m*3 -4.8 C 0 km/h
2173 20-01-2017 20:00:00 -4.9 C 3.05 g/m*3 -4.9 C 0 km/h
2174 20-01-2017 20:05:00 -4.9 C 3.05 g/m*3 -4.9 C 0 km/h
2175 20-01-2017 20:10:00 -4.9 C 3.05 g/m*3 -4.9 C 0 km/h
Sensor: Nr:Datum:Temp:Abs-Feuchte:Windchill:Wind:
Aussen-T/F 2176 20-01-2017 20:15:00 -5.1 C 3.01 g/m*3 -5.1 C 0 km/h
2177 20-01-2017 20:20:00 -5.2 C 2.99 g/m*3 -5.2 C 0 km/h
2178 20-01-2017 20:25:00 -5.1 C 3.04 g/m*3 -5.1 C 0 km/h
2179 20-01-2017 20:30:00 -5.2 C 2.99 g/m*3 -5.2 C 0 km/h
2180 20-01-2017 20:35:00 -5.3 C 2.97 g/m*3 -5.3 C 0 km/h
2181 20-01-2017 20:40:00 -5.3 C 2.97 g/m*3 -5.3 C 0 km/h
2182 20-01-2017 20:45:00 -5.3 C 3 g/m*3 -5.3 C 0 km/h
2183 20-01-2017 20:50:00 -5.4 C 2.94 g/m*3 -5.4 C 0 km/h
2184 20-01-2017 20:55:00 -5.6 C 2.9 g/m*3 -5.6 C 0 km/h
2185 20-01-2017 21:00:00 -5.7 C 2.88 g/m*3 -5.7 C 0 km/h
2186 20-01-2017 21:05:00 -5.7 C 2.91 g/m*3 -5.7 C 0 km/h
2187 20-01-2017 21:10:00 -5.7 C 2.91 g/m*3 -5.7 C 0 km/h
2188 20-01-2017 21:15:00 -5.8 C 2.89 g/m*3 -5.8 C 0 km/h
2189 20-01-2017 21:20:00 -5.8 C 2.89 g/m*3 -5.8 C 0 km/h
2190 20-01-2017 21:25:00 -5.9 C 2.87 g/m*3 -5.9 C 0 km/h
2191 20-01-2017 21:30:00 -6 C 2.85 g/m*3 -6 C 0 km/h
2192 20-01-2017 21:35:00 -6.1 C 2.83 g/m*3 -6.1 C 0 km/h
2193 20-01-2017 21:40:00 -6.1 C 2.83 g/m*3 -6.1 C 0 km/h
2194 20-01-2017 21:45:00 -6 C 2.88 g/m*3 -6 C 0 km/h
2195 20-01-2017 21:50:00 -6.1 C 2.83 g/m*3 -6.1 C 0 km/h
2196 20-01-2017 21:55:00 -6.2 C 2.81 g/m*3 -6.2 C 0 km/h
2197 20-01-2017 22:00:00 -6.2 C 2.81 g/m*3 -6.2 C 0 km/h
2198 20-01-2017 22:05:00 -6.3 C 2.79 g/m*3 -6.3 C 0 km/h
2199 20-01-2017 22:10:00 -6.3 C 2.79 g/m*3 -6.3 C 0 km/h
2200 20-01-2017 22:15:00 -6.4 C 2.77 g/m*3 -6.4 C 0 km/h
Sensor: Nr:Datum:Temp:Abs-Feuchte:Windchill:Wind:
Aussen-T/F 2201 20-01-2017 22:20:00 -6.3 C 2.82 g/m*3 -6.3 C 0 km/h
2202 20-01-2017 22:25:00 -6.4 C 2.8 g/m*3 -6.4 C 0 km/h
2203 20-01-2017 22:30:00 -6.4 C 2.8 g/m*3 -6.4 C 0 km/h
2204 20-01-2017 22:35:00 -6.4 C 2.8 g/m*3 -6.4 C 0 km/h
2205 20-01-2017 22:40:00 -6.6 C 2.73 g/m*3 -6.6 C 0 km/h
2206 20-01-2017 22:45:00 -6.7 C 2.71 g/m*3 -6.7 C 0 km/h
2207 20-01-2017 22:50:00 -6.7 C 2.74 g/m*3 -6.7 C 0 km/h
2208 20-01-2017 22:55:00 -6.8 C 2.72 g/m*3 -6.8 C 0 km/h
2209 20-01-2017 23:00:00 -6.8 C 2.72 g/m*3 -6.8 C 0 km/h
2210 20-01-2017 23:05:00 -6.7 C 2.77 g/m*3 -6.7 C 0 km/h
2211 20-01-2017 23:10:00 -6.7 C 2.77 g/m*3 -6.7 C 3.2 km/h
2212 20-01-2017 23:15:00 -6.7 C 2.74 g/m*3 -6.7 C 0 km/h
2213 20-01-2017 23:20:00 -6.7 C 2.77 g/m*3 -6.7 C 0 km/h
2214 20-01-2017 23:25:00 -6.7 C 2.74 g/m*3 -6.7 C 0 km/h
2215 20-01-2017 23:30:00 -6.8 C 2.72 g/m*3 -6.8 C 0 km/h
2216 20-01-2017 23:35:00 -6.9 C 2.7 g/m*3 -6.9 C 0 km/h
2217 20-01-2017 23:40:00 -7 C 2.68 g/m*3 -7 C 0 km/h
2218 20-01-2017 23:45:00 -7.1 C 2.66 g/m*3 -7.1 C 0 km/h
2219 20-01-2017 23:50:00 -7.2 C 2.64 g/m*3 -7.2 C 0 km/h
2220 20-01-2017 23:55:00 -7.3 C 2.62 g/m*3 -7.3 C 0 km/h
2221 21-01-2017 00:00:00 -7.3 C 2.65 g/m*3 -7.3 C 0 km/h
2222 21-01-2017 00:05:00 -7.2 C 2.67 g/m*3 -7.2 C 0 km/h
2223 21-01-2017 00:10:00 -7.2 C 2.67 g/m*3 -7.2 C 0 km/h
2224 21-01-2017 00:15:00 -7.2 C 2.67 g/m*3 -7.2 C 0 km/h
2225 21-01-2017 00:20:00 -7.3 C 2.65 g/m*3 -7.3 C 0 km/h
Sensor: Nr:Datum:Temp:Abs-Feuchte:Windchill:Wind:
Aussen-T/F 2226 21-01-2017 00:25:00 -7.3 C 2.65 g/m*3 -7.3 C 0 km/h
2227 21-01-2017 00:30:00 -7.3 C 2.65 g/m*3 -7.3 C 1.6 km/h
2228 21-01-2017 00:35:00 -7.3 C 2.65 g/m*3 -7.3 C 0 km/h
2229 21-01-2017 00:40:00 -7.3 C 2.65 g/m*3 -7.3 C 0 km/h
2230 21-01-2017 00:45:00 -7.3 C 2.65 g/m*3 -7.3 C 0 km/h
2231 21-01-2017 00:50:00 -7.3 C 2.65 g/m*3 -7.3 C 0 km/h
2232 21-01-2017 00:55:00 -7.4 C 2.63 g/m*3 -7.4 C 0 km/h
2233 21-01-2017 01:00:00 -7.4 C 2.63 g/m*3 -7.4 C 0 km/h
2234 21-01-2017 01:05:00 -7.3 C 2.68 g/m*3 -7.3 C 0 km/h
2235 21-01-2017 01:10:00 -7.3 C 2.68 g/m*3 -7.3 C 0 km/h
2236 21-01-2017 01:15:00 -7.2 C 2.7 g/m*3 -7.2 C 0 km/h
2237 21-01-2017 01:20:00 -7.2 C 2.7 g/m*3 -7.2 C 0 km/h
2238 21-01-2017 01:25:00 -7.3 C 2.65 g/m*3 -7.3 C 0 km/h
2239 21-01-2017 01:30:00 -7.4 C 2.63 g/m*3 -7.4 C 0 km/h
2240 21-01-2017 01:35:00 -7.4 C 2.63 g/m*3 -7.4 C 0 km/h
2241 21-01-2017 01:40:00 -7.5 C 2.61 g/m*3 -7.5 C 0 km/h
2242 21-01-2017 01:45:00 -7.6 C 2.59 g/m*3 -7.6 C 0 km/h
2243 21-01-2017 01:50:00 -7.6 C 2.59 g/m*3 -7.6 C 0 km/h
2244 21-01-2017 01:55:00 -7.7 C 2.57 g/m*3 -7.7 C 0 km/h
2245 21-01-2017 02:00:00 -7.7 C 2.6 g/m*3 -7.7 C 0 km/h
2246 21-01-2017 02:05:00 -7.6 C 2.62 g/m*3 -7.6 C 0 km/h
2247 21-01-2017 02:10:00 -7.7 C 2.6 g/m*3 -7.7 C 0 km/h
2248 21-01-2017 02:15:00 -7.6 C 2.62 g/m*3 -7.6 C 0 km/h
2249 21-01-2017 02:20:00 -7.6 C 2.62 g/m*3 -7.6 C 0 km/h
2250 21-01-2017 02:25:00 -7.7 C 2.6 g/m*3 -7.7 C 0 km/h
Sensor: Nr:Datum:Temp:Abs-Feuchte:Windchill:Wind:
Aussen-T/F 2251 21-01-2017 02:30:00 -7.7 C 2.6 g/m*3 -7.7 C 0 km/h
2252 21-01-2017 02:35:00 -7.7 C 2.6 g/m*3 -7.7 C 0 km/h
2253 21-01-2017 02:40:00 -7.8 C 2.58 g/m*3 -7.8 C 0 km/h
2254 21-01-2017 02:45:00 -7.8 C 2.58 g/m*3 -7.8 C 0 km/h
2255 21-01-2017 02:50:00 -7.8 C 2.58 g/m*3 -7.8 C 0 km/h
2256 21-01-2017 02:55:00 -7.9 C 2.56 g/m*3 -7.9 C 0 km/h
2257 21-01-2017 03:00:00 -7.9 C 2.56 g/m*3 -7.9 C 0 km/h
2258 21-01-2017 03:05:00 -8 C 2.54 g/m*3 -8 C 0 km/h
2259 21-01-2017 03:10:00 -8.1 C 2.52 g/m*3 -8.1 C 0 km/h
2260 21-01-2017 03:15:00 -8.1 C 2.52 g/m*3 -8.1 C 0 km/h
2261 21-01-2017 03:20:00 -8.1 C 2.52 g/m*3 -8.1 C 0 km/h
2262 21-01-2017 03:25:00 -8.1 C 2.52 g/m*3 -8.1 C 0 km/h
2263 21-01-2017 03:30:00 -8.1 C 2.52 g/m*3 -8.1 C 0 km/h
2264 21-01-2017 03:35:00 -8.1 C 2.52 g/m*3 -8.1 C 0 km/h
2265 21-01-2017 03:40:00 -8.1 C 2.52 g/m*3 -8.1 C 0 km/h
2266 21-01-2017 03:45:00 -8.1 C 2.52 g/m*3 -8.1 C 0 km/h
2267 21-01-2017 03:50:00 -8.1 C 2.52 g/m*3 -8.1 C 0 km/h
2268 21-01-2017 03:55:00 -8.2 C 2.51 g/m*3 -8.2 C 0 km/h
2269 21-01-2017 04:00:00 -8.2 C 2.51 g/m*3 -8.2 C 0 km/h
2270 21-01-2017 04:05:00 -8.2 C 2.51 g/m*3 -8.2 C 0 km/h
2271 21-01-2017 04:10:00 -8.3 C 2.49 g/m*3 -8.3 C 0 km/h
2272 21-01-2017 04:15:00 -8.3 C 2.49 g/m*3 -8.3 C 0 km/h
2273 21-01-2017 04:20:00 -8.3 C 2.49 g/m*3 -8.3 C 0 km/h
2274 21-01-2017 04:25:00 -8.3 C 2.49 g/m*3 -8.3 C 0 km/h
2275 21-01-2017 04:30:00 -8.3 C 2.49 g/m*3 -8.3 C 0 km/h
Sensor: Nr:Datum:Temp:Abs-Feuchte:Windchill:Wind:
Aussen-T/F 2276 21-01-2017 04:35:00 -8.3 C 2.49 g/m*3 -8.3 C 0 km/h
2277 21-01-2017 04:40:00 -8.4 C 2.47 g/m*3 -8.4 C 0 km/h
2278 21-01-2017 04:45:00 -8.4 C 2.47 g/m*3 -8.4 C 0 km/h
2279 21-01-2017 04:50:00 -8.5 C 2.45 g/m*3 -8.5 C 0 km/h
2280 21-01-2017 04:55:00 -8.6 C 2.43 g/m*3 -8.6 C 0 km/h
2281 21-01-2017 05:00:00 -8.6 C 2.43 g/m*3 -8.6 C 0 km/h
2282 21-01-2017 05:05:00 -8.6 C 2.43 g/m*3 -8.6 C 0 km/h
2283 21-01-2017 05:10:00 -8.6 C 2.43 g/m*3 -8.6 C 0 km/h
2284 21-01-2017 05:15:00 -8.6 C 2.43 g/m*3 -8.6 C 0 km/h
2285 21-01-2017 05:20:00 -8.5 C 2.48 g/m*3 -8.5 C 0 km/h
2286 21-01-2017 05:25:00 -8.4 C 2.5 g/m*3 -8.4 C 0 km/h
2287 21-01-2017 05:30:00 -8.4 C 2.47 g/m*3 -8.4 C 0 km/h
2288 21-01-2017 05:35:00 -8.5 C 2.45 g/m*3 -8.5 C 0 km/h
2289 21-01-2017 05:40:00 -8.6 C 2.43 g/m*3 -8.6 C 0 km/h
2290 21-01-2017 05:45:00 -8.6 C 2.43 g/m*3 -8.6 C 0 km/h
2291 21-01-2017 05:50:00 -8.6 C 2.43 g/m*3 -8.6 C 0 km/h
2292 21-01-2017 05:55:00 -8.6 C 2.43 g/m*3 -8.6 C 0 km/h
2293 21-01-2017 06:00:00 -8.5 C 2.48 g/m*3 -8.5 C 0 km/h
2294 21-01-2017 06:05:00 -8.5 C 2.48 g/m*3 -8.5 C 0 km/h
2295 21-01-2017 06:10:00 -8.5 C 2.45 g/m*3 -8.5 C 0 km/h
2296 21-01-2017 06:15:00 -8.6 C 2.43 g/m*3 -8.6 C 0 km/h
2297 21-01-2017 06:20:00 -8.7 C 2.41 g/m*3 -8.7 C 0 km/h
2298 21-01-2017 06:25:00 -8.7 C 2.41 g/m*3 -8.7 C 0 km/h
2299 21-01-2017 06:30:00 -8.6 C 2.43 g/m*3 -8.6 C 0 km/h
2300 21-01-2017 06:35:00 -8.7 C 2.41 g/m*3 -8.7 C 0 km/h
Sensor: Nr:Datum:Temp:Abs-Feuchte:Windchill:Wind:
Aussen-T/F 2301 21-01-2017 06:40:00 -8.7 C 2.41 g/m*3 -8.7 C 0 km/h
2302 21-01-2017 06:45:00 -8.7 C 2.41 g/m*3 -8.7 C 0 km/h
2303 21-01-2017 10:10:00 -8.1 C 2.55 g/m*3 -8.1 C 0 km/h
2304 21-01-2017 10:15:00 -7.9 C 2.59 g/m*3 -7.9 C 0 km/h
2305 21-01-2017 10:20:00 -7.9 C 2.59 g/m*3 -7.9 C 0 km/h
2306 21-01-2017 10:25:00 -7.8 C 2.61 g/m*3 -7.8 C 0 km/h
2307 21-01-2017 10:30:00 -7.7 C 2.63 g/m*3 -7.7 C 0 km/h
2308 21-01-2017 10:35:00 -7.7 C 2.63 g/m*3 -7.7 C 0 km/h
2309 21-01-2017 10:40:00 -7.6 C 2.65 g/m*3 -7.6 C 0 km/h
2310 21-01-2017 10:45:00 -7.5 C 2.67 g/m*3 -7.5 C 0 km/h
2311 21-01-2017 10:50:00 -7.4 C 2.69 g/m*3 -7.4 C 0 km/h
2312 21-01-2017 10:55:00 -7.3 C 2.71 g/m*3 -7.3 C 0 km/h
2313 21-01-2017 11:00:00 -7.1 C 2.75 g/m*3 -7.1 C 0 km/h
2314 21-01-2017 11:05:00 -7 C 2.77 g/m*3 -7 C 0 km/h
2315 21-01-2017 11:10:00 -6.9 C 2.79 g/m*3 -6.9 C 0 km/h
2316 21-01-2017 11:15:00 -6.8 C 2.81 g/m*3 -6.8 C 0 km/h
2317 21-01-2017 11:20:00 -6.8 C 2.81 g/m*3 -6.8 C 0 km/h
2318 21-01-2017 11:25:00 -6.7 C 2.83 g/m*3 -6.7 C 0 km/h
2319 21-01-2017 11:30:00 -6.6 C 2.85 g/m*3 -6.6 C 0 km/h
2320 21-01-2017 11:35:00 -6.5 C 2.87 g/m*3 -6.5 C 0 km/h
2321 21-01-2017 11:40:00 -6.4 C 2.89 g/m*3 -6.4 C 0 km/h
2322 21-01-2017 11:45:00 -6.3 C 2.91 g/m*3 -6.3 C 0 km/h
2323 21-01-2017 11:50:00 -6.2 C 2.93 g/m*3 -6.2 C 0 km/h
2324 21-01-2017 11:55:00 -6 C 2.98 g/m*3 -6 C 0 km/h
2325 21-01-2017 12:00:00 -5.9 C 3.03 g/m*3 -5.9 C 0 km/h
Sensor: Nr:Datum:Temp:Abs-Feuchte:Windchill:Wind:
Aussen-T/F 2326 21-01-2017 12:05:00 -5.7 C 3.07 g/m*3 -5.7 C 0 km/h
2327 21-01-2017 12:10:00 -5.6 C 3.1 g/m*3 -5.6 C 0 km/h
2328 21-01-2017 12:15:00 -5.4 C 3.14 g/m*3 -5.4 C 0 km/h
2329 21-01-2017 12:20:00 -5.3 C 3.17 g/m*3 -5.3 C 1.6 km/h
2330 21-01-2017 12:25:00 -5.1 C 3.21 g/m*3 -5.1 C 0 km/h
2331 21-01-2017 12:30:00 -4.9 C 3.26 g/m*3 -4.9 C 0 km/h
2332 21-01-2017 12:35:00 -4.8 C 3.28 g/m*3 -4.8 C 0 km/h
2333 21-01-2017 12:40:00 -4.7 C 3.31 g/m*3 -4.7 C 0 km/h
2334 21-01-2017 12:45:00 -4.6 C 3.33 g/m*3 -4.6 C 0 km/h
2335 21-01-2017 12:50:00 -4.5 C 3.35 g/m*3 -4.5 C 1.6 km/h
2336 21-01-2017 12:55:00 -4.4 C 3.38 g/m*3 -4.4 C 0 km/h
2337 21-01-2017 13:00:00 -4.3 C 3.4 g/m*3 -4.3 C 1.6 km/h
2338 21-01-2017 13:05:00 -4.2 C 3.43 g/m*3 -4.2 C 3.2 km/h
2339 21-01-2017 13:10:00 -4 C 3.48 g/m*3 -4 C 1.6 km/h
2340 21-01-2017 13:15:00 -3.9 C 3.5 g/m*3 -3.9 C 1.6 km/h
2341 21-01-2017 13:20:00 -3.7 C 3.55 g/m*3 -3.7 C 3.2 km/h
2342 21-01-2017 13:25:00 -3.6 C 3.58 g/m*3 -3.6 C 1.6 km/h
2343 21-01-2017 13:30:00 -3.5 C 3.56 g/m*3 -3.5 C 1.6 km/h
2344 21-01-2017 13:35:00 -3.4 C 3.59 g/m*3 -3.4 C 3.2 km/h
2345 21-01-2017 13:40:00 -3.3 C 3.61 g/m*3 -3.3 C 3.2 km/h
2346 21-01-2017 13:45:00 -3.1 C 3.67 g/m*3 -3.1 C 3.2 km/h
2347 21-01-2017 13:50:00 -2.9 C 3.72 g/m*3 -2.9 C 3.2 km/h
2348 21-01-2017 13:55:00 -2.8 C 3.71 g/m*3 -2.8 C 3.2 km/h
2349 21-01-2017 14:00:00 -2.7 C 3.73 g/m*3 -2.7 C 3.2 km/h
2350 21-01-2017 14:05:00 -2.6 C 3.76 g/m*3 -2.6 C 3.2 km/h
Sensor: Nr:Datum:Temp:Abs-Feuchte:Windchill:Wind:
Aussen-T/F 2351 21-01-2017 14:10:00 -2.5 C 3.78 g/m*3 -2.5 C 3.2 km/h
2352 21-01-2017 14:15:00 -2.3 C 3.84 g/m*3 -2.3 C 3.2 km/h
2353 21-01-2017 14:20:00 -2.2 C 3.87 g/m*3 -2.2 C 3.2 km/h
2354 21-01-2017 14:25:00 -2.1 C 3.89 g/m*3 -2.1 C 3.2 km/h
2355 21-01-2017 14:30:00 -2 C 3.88 g/m*3 -2 C 3.2 km/h
2356 21-01-2017 14:35:00 -1.9 C 3.91 g/m*3 -1.9 C 3.2 km/h
2357 21-01-2017 14:40:00 -1.8 C 3.93 g/m*3 -1.8 C 3.2 km/h
2358 21-01-2017 14:45:00 -1.8 C 3.89 g/m*3 -1.8 C 4.8 km/h
2359 21-01-2017 14:50:00 -1.7 C 3.92 g/m*3 -1.7 C 3.2 km/h
2360 21-01-2017 14:55:00 -1.6 C 3.94 g/m*3 -1.6 C 4.8 km/h
2361 21-01-2017 15:00:00 -1.5 C 3.97 g/m*3 -1.5 C 4.8 km/h
2362 21-01-2017 15:05:00 -1.4 C 4 g/m*3 -1.4 C 4.8 km/h
2363 21-01-2017 15:10:00 -1.3 C 4.03 g/m*3 -1.3 C 4.8 km/h
2364 21-01-2017 15:15:00 -1.3 C 3.98 g/m*3 -1.3 C 4.8 km/h
2365 21-01-2017 15:20:00 -1.2 C 4.01 g/m*3 -3.57 C 6.4 km/h
2366 21-01-2017 15:25:00 -1.2 C 4.01 g/m*3 -3.57 C 6.4 km/h
2367 21-01-2017 15:30:00 -1.2 C 4.01 g/m*3 -3.57 C 6.4 km/h
2368 21-01-2017 15:35:00 -1.2 C 4.01 g/m*3 -1.2 C 4.8 km/h
2369 21-01-2017 15:40:00 -1.1 C 4 g/m*3 -1.1 C 4.8 km/h
2370 21-01-2017 15:45:00 -1.1 C 4 g/m*3 -3.45 C 6.4 km/h
2371 21-01-2017 15:50:00 -1.1 C 4 g/m*3 -3.45 C 6.4 km/h
2372 21-01-2017 15:55:00 -1.1 C 4 g/m*3 -3.45 C 6.4 km/h
2373 21-01-2017 16:00:00 -1.1 C 4 g/m*3 -3.45 C 6.4 km/h
2374 21-01-2017 16:05:00 -1.1 C 4 g/m*3 -3.45 C 6.4 km/h
2375 21-01-2017 16:10:00 -1.1 C 3.95 g/m*3 -3.45 C 6.4 km/h
Sensor: Nr:Datum:Temp:Abs-Feuchte:Windchill:Wind:
Aussen-T/F 2376 21-01-2017 16:15:00 -1.2 C 3.92 g/m*3 -3.57 C 6.4 km/h
2377 21-01-2017 16:20:00 -1.2 C 3.92 g/m*3 -3.57 C 6.4 km/h
2378 21-01-2017 16:25:00 -1.2 C 3.92 g/m*3 -3.57 C 6.4 km/h
2379 21-01-2017 16:30:00 -1.2 C 3.92 g/m*3 -3.57 C 6.4 km/h
2380 21-01-2017 16:35:00 -1.3 C 3.9 g/m*3 -3.68 C 6.4 km/h
2381 21-01-2017 16:40:00 -1.3 C 3.9 g/m*3 -3.68 C 6.4 km/h
2382 21-01-2017 16:45:00 -1.3 C 3.9 g/m*3 -3.68 C 6.4 km/h
2383 21-01-2017 16:50:00 -1.3 C 3.9 g/m*3 -3.68 C 6.4 km/h
2384 21-01-2017 16:55:00 -1.3 C 3.9 g/m*3 -3.68 C 6.4 km/h
2385 21-01-2017 17:00:00 -1.4 C 3.82 g/m*3 -3.8 C 6.4 km/h
2386 21-01-2017 17:05:00 -1.5 C 3.84 g/m*3 -1.5 C 4.8 km/h
2387 21-01-2017 17:10:00 -1.6 C 3.77 g/m*3 -4.03 C 6.4 km/h
2388 21-01-2017 17:15:00 -1.6 C 3.77 g/m*3 -4.03 C 6.4 km/h
2389 21-01-2017 17:20:00 -1.6 C 3.77 g/m*3 -1.6 C 4.8 km/h
2390 21-01-2017 17:25:00 -1.7 C 3.75 g/m*3 -1.7 C 4.8 km/h
2391 21-01-2017 17:30:00 -1.7 C 3.75 g/m*3 -4.15 C 6.4 km/h
2392 21-01-2017 17:35:00 -1.8 C 3.72 g/m*3 -4.26 C 6.4 km/h
2393 21-01-2017 17:40:00 -1.9 C 3.69 g/m*3 -1.9 C 4.8 km/h
2394 21-01-2017 17:45:00 -2 C 3.67 g/m*3 -2 C 4.8 km/h
2395 21-01-2017 17:50:00 -2.2 C 3.62 g/m*3 -2.2 C 1.6 km/h
2396 21-01-2017 17:55:00 -2.3 C 3.63 g/m*3 -2.3 C 3.2 km/h
2397 21-01-2017 18:00:00 -2.3 C 3.63 g/m*3 -2.3 C 4.8 km/h
2398 21-01-2017 18:05:00 -2.4 C 3.61 g/m*3 -2.4 C 3.2 km/h
2399 21-01-2017 18:10:00 -2.5 C 3.58 g/m*3 -2.5 C 3.2 km/h
2400 21-01-2017 18:15:00 -2.7 C 3.53 g/m*3 -2.7 C 3.2 km/h
Sensor: Nr:Datum:Temp:Abs-Feuchte:Windchill:Wind:
Aussen-T/F 2401 21-01-2017 18:20:00 -2.8 C 3.51 g/m*3 -2.8 C 1.6 km/h
2402 21-01-2017 18:25:00 -2.9 C 3.48 g/m*3 -2.9 C 0 km/h
2403 21-01-2017 18:30:00 -3.1 C 3.47 g/m*3 -3.1 C 0 km/h
2404 21-01-2017 18:35:00 -3.2 C 3.45 g/m*3 -3.2 C 0 km/h
2405 21-01-2017 18:40:00 -3.4 C 3.4 g/m*3 -3.4 C 0 km/h
2406 21-01-2017 18:45:00 -3.6 C 3.35 g/m*3 -3.6 C 1.6 km/h
2407 21-01-2017 18:50:00 -3.7 C 3.33 g/m*3 -3.7 C 0 km/h
2408 21-01-2017 18:55:00 -3.8 C 3.3 g/m*3 -3.8 C 0 km/h
2409 21-01-2017 19:00:00 -4.1 C 3.23 g/m*3 -4.1 C 0 km/h
2410 21-01-2017 19:05:00 -4.2 C 3.21 g/m*3 -4.2 C 0 km/h
2411 21-01-2017 19:10:00 -4.2 C 3.25 g/m*3 -4.2 C 0 km/h
2412 21-01-2017 19:15:00 -4.2 C 3.25 g/m*3 -4.2 C 0 km/h
2413 21-01-2017 19:20:00 -4.2 C 3.25 g/m*3 -4.2 C 0 km/h
2414 21-01-2017 19:25:00 -4.3 C 3.22 g/m*3 -4.3 C 0 km/h
2415 21-01-2017 19:30:00 -4.4 C 3.24 g/m*3 -4.4 C 1.6 km/h
2416 21-01-2017 19:35:00 -4.3 C 3.26 g/m*3 -4.3 C 4.8 km/h
2417 21-01-2017 19:40:00 -4.2 C 3.32 g/m*3 -4.2 C 3.2 km/h
2418 21-01-2017 19:45:00 -4.2 C 3.28 g/m*3 -4.2 C 0 km/h
2419 21-01-2017 19:50:00 -4.3 C 3.22 g/m*3 -4.3 C 1.6 km/h
2420 21-01-2017 19:55:00 -4.5 C 3.18 g/m*3 -4.5 C 0 km/h
2421 21-01-2017 20:00:00 -4.6 C 3.15 g/m*3 -4.6 C 1.6 km/h
2422 21-01-2017 20:05:00 -4.6 C 3.19 g/m*3 -4.6 C 0 km/h
2423 21-01-2017 20:10:00 -4.8 C 3.11 g/m*3 -4.8 C 0 km/h
2424 21-01-2017 20:15:00 -4.8 C 3.14 g/m*3 -4.8 C 0 km/h
2425 21-01-2017 20:20:00 -4.8 C 3.14 g/m*3 -4.8 C 0 km/h
Sensor: Nr:Datum:Temp:Abs-Feuchte:Windchill:Wind:
Aussen-T/F 2426 21-01-2017 20:25:00 -5.1 C 3.04 g/m*3 -5.1 C 0 km/h
2427 21-01-2017 20:30:00 -5.2 C 3.02 g/m*3 -5.2 C 0 km/h
2428 21-01-2017 20:35:00 -5.3 C 3.03 g/m*3 -5.3 C 0 km/h
2429 21-01-2017 20:40:00 -5.2 C 3.05 g/m*3 -5.2 C 0 km/h
2430 21-01-2017 20:45:00 -5.3 C 3.03 g/m*3 -5.3 C 0 km/h
2431 21-01-2017 20:50:00 -5.3 C 3.03 g/m*3 -5.3 C 0 km/h
2432 21-01-2017 20:55:00 -5.4 C 3.04 g/m*3 -5.4 C 0 km/h
2433 21-01-2017 21:00:00 -5.4 C 3.04 g/m*3 -5.4 C 0 km/h
2434 21-01-2017 21:05:00 -5.4 C 3.01 g/m*3 -5.4 C 0 km/h
2435 21-01-2017 21:10:00 -5.4 C 3.04 g/m*3 -5.4 C 0 km/h
2436 21-01-2017 21:15:00 -5.5 C 3.02 g/m*3 -5.5 C 0 km/h
2437 21-01-2017 21:20:00 -5.6 C 2.97 g/m*3 -5.6 C 0 km/h
2438 21-01-2017 21:25:00 -5.7 C 2.95 g/m*3 -5.7 C 0 km/h
2439 21-01-2017 21:30:00 -5.7 C 2.98 g/m*3 -5.7 C 0 km/h
2440 21-01-2017 21:35:00 -5.8 C 2.92 g/m*3 -5.8 C 0 km/h
2441 21-01-2017 21:40:00 -6 C 2.88 g/m*3 -6 C 0 km/h
2442 21-01-2017 21:45:00 -6 C 2.91 g/m*3 -6 C 1.6 km/h
2443 21-01-2017 21:50:00 -5.9 C 2.93 g/m*3 -5.9 C 0 km/h
2444 21-01-2017 21:55:00 -6.1 C 2.89 g/m*3 -6.1 C 0 km/h
2445 21-01-2017 22:00:00 -6.2 C 2.87 g/m*3 -6.2 C 0 km/h
2446 21-01-2017 22:05:00 -6.2 C 2.87 g/m*3 -6.2 C 0 km/h
2447 21-01-2017 22:10:00 -6.3 C 2.85 g/m*3 -6.3 C 0 km/h
2448 21-01-2017 22:15:00 -6.3 C 2.85 g/m*3 -6.3 C 0 km/h
2449 21-01-2017 22:20:00 -6.3 C 2.85 g/m*3 -6.3 C 0 km/h
2450 21-01-2017 22:25:00 -6.3 C 2.85 g/m*3 -6.3 C 0 km/h
Sensor: Nr:Datum:Temp:Abs-Feuchte:Windchill:Wind:
Aussen-T/F 2451 21-01-2017 22:30:00 -6.3 C 2.85 g/m*3 -6.3 C 0 km/h
2452 21-01-2017 22:35:00 -6.2 C 2.9 g/m*3 -6.2 C 0 km/h
2453 21-01-2017 22:40:00 -6.3 C 2.85 g/m*3 -6.3 C 0 km/h
2454 21-01-2017 22:45:00 -6.4 C 2.83 g/m*3 -6.4 C 0 km/h
2455 21-01-2017 22:50:00 -6.5 C 2.81 g/m*3 -6.5 C 0 km/h
2456 21-01-2017 22:55:00 -6.6 C 2.79 g/m*3 -6.6 C 0 km/h
2457 21-01-2017 23:00:00 -6.6 C 2.79 g/m*3 -6.6 C 0 km/h
2458 21-01-2017 23:05:00 -6.7 C 2.77 g/m*3 -6.7 C 0 km/h
2459 21-01-2017 23:10:00 -6.8 C 2.75 g/m*3 -6.8 C 0 km/h
2460 21-01-2017 23:15:00 -6.8 C 2.75 g/m*3 -6.8 C 0 km/h
2461 21-01-2017 23:20:00 -6.9 C 2.73 g/m*3 -6.9 C 0 km/h
2462 21-01-2017 23:25:00 -6.9 C 2.73 g/m*3 -6.9 C 0 km/h
2463 21-01-2017 23:30:00 -7 C 2.71 g/m*3 -7 C 0 km/h
2464 21-01-2017 23:35:00 -6.9 C 2.76 g/m*3 -6.9 C 0 km/h
2465 21-01-2017 23:40:00 -6.8 C 2.78 g/m*3 -6.8 C 0 km/h
2466 21-01-2017 23:45:00 -6.8 C 2.78 g/m*3 -6.8 C 0 km/h
2467 21-01-2017 23:50:00 -6.9 C 2.73 g/m*3 -6.9 C 0 km/h
2468 21-01-2017 23:55:00 -7.1 C 2.69 g/m*3 -7.1 C 0 km/h
2469 22-01-2017 00:00:00 -7.2 C 2.7 g/m*3 -7.2 C 0 km/h
2470 22-01-2017 00:05:00 -7.3 C 2.65 g/m*3 -7.3 C 0 km/h
2471 22-01-2017 00:10:00 -7.1 C 2.72 g/m*3 -7.1 C 0 km/h
2472 22-01-2017 00:15:00 -6.9 C 2.79 g/m*3 -6.9 C 3.2 km/h
2473 22-01-2017 00:20:00 -6.8 C 2.81 g/m*3 -6.8 C 1.6 km/h
2474 22-01-2017 00:25:00 -6.7 C 2.8 g/m*3 -6.7 C 0 km/h
2475 22-01-2017 00:30:00 -6.7 C 2.8 g/m*3 -6.7 C 0 km/h
Sensor: Nr:Datum:Temp:Abs-Feuchte:Windchill:Wind:
Aussen-T/F 2476 22-01-2017 00:35:00 -6.8 C 2.78 g/m*3 -6.8 C 0 km/h
2477 22-01-2017 00:40:00 -7 C 2.74 g/m*3 -7 C 0 km/h
2478 22-01-2017 00:45:00 -7.2 C 2.7 g/m*3 -7.2 C 0 km/h
2479 22-01-2017 00:50:00 -7.3 C 2.65 g/m*3 -7.3 C 0 km/h
2480 22-01-2017 00:55:00 -7.5 C 2.61 g/m*3 -7.5 C 0 km/h
2481 22-01-2017 01:00:00 -7.6 C 2.59 g/m*3 -7.6 C 0 km/h
2482 22-01-2017 01:05:00 -7.7 C 2.6 g/m*3 -7.7 C 0 km/h
2483 22-01-2017 01:10:00 -7.5 C 2.64 g/m*3 -7.5 C 0 km/h
2484 22-01-2017 01:15:00 -7.4 C 2.66 g/m*3 -7.4 C 0 km/h
2485 22-01-2017 01:20:00 -7.5 C 2.64 g/m*3 -7.5 C 0 km/h
2486 22-01-2017 01:25:00 -7.6 C 2.62 g/m*3 -7.6 C 0 km/h
2487 22-01-2017 01:30:00 -7.7 C 2.6 g/m*3 -7.7 C 0 km/h
2488 22-01-2017 01:35:00 -7.7 C 2.6 g/m*3 -7.7 C 0 km/h
2489 22-01-2017 01:40:00 -7.7 C 2.6 g/m*3 -7.7 C 0 km/h
2490 22-01-2017 01:45:00 -7.6 C 2.65 g/m*3 -7.6 C 0 km/h
2491 22-01-2017 01:50:00 -7.5 C 2.67 g/m*3 -7.5 C 0 km/h
2492 22-01-2017 01:55:00 -7.4 C 2.69 g/m*3 -7.4 C 0 km/h
2493 22-01-2017 02:00:00 -7.4 C 2.69 g/m*3 -7.4 C 0 km/h
2494 22-01-2017 02:05:00 -7.6 C 2.62 g/m*3 -7.6 C 1.6 km/h
2495 22-01-2017 02:10:00 -7.7 C 2.6 g/m*3 -7.7 C 0 km/h
2496 22-01-2017 02:15:00 -7.7 C 2.6 g/m*3 -7.7 C 0 km/h
2497 22-01-2017 02:20:00 -7.8 C 2.58 g/m*3 -7.8 C 0 km/h
2498 22-01-2017 02:25:00 -8 C 2.54 g/m*3 -8 C 0 km/h
2499 22-01-2017 02:30:00 -8.2 C 2.51 g/m*3 -8.2 C 0 km/h
2500 22-01-2017 02:35:00 -8.2 C 2.51 g/m*3 -8.2 C 0 km/h
Sensor: Nr:Datum:Temp:Abs-Feuchte:Windchill:Wind:
Aussen-T/F 2501 22-01-2017 02:40:00 -8.3 C 2.49 g/m*3 -8.3 C 0 km/h
2502 22-01-2017 02:45:00 -8.3 C 2.49 g/m*3 -8.3 C 0 km/h
2503 22-01-2017 02:50:00 -8.4 C 2.47 g/m*3 -8.4 C 0 km/h
2504 22-01-2017 02:55:00 -8.6 C 2.43 g/m*3 -8.6 C 0 km/h
2505 22-01-2017 03:00:00 -8.7 C 2.39 g/m*3 -8.7 C 0 km/h
2506 22-01-2017 03:05:00 -8.8 C 2.37 g/m*3 -8.8 C 0 km/h
2507 22-01-2017 03:10:00 -8.9 C 2.38 g/m*3 -8.9 C 0 km/h
2508 22-01-2017 03:15:00 -9 C 2.36 g/m*3 -9 C 0 km/h
2509 22-01-2017 03:20:00 -9 C 2.36 g/m*3 -9 C 0 km/h
2510 22-01-2017 03:25:00 -9 C 2.36 g/m*3 -9 C 0 km/h
2511 22-01-2017 03:30:00 -8.9 C 2.38 g/m*3 -8.9 C 0 km/h
2512 22-01-2017 03:35:00 -9.1 C 2.34 g/m*3 -9.1 C 0 km/h
2513 22-01-2017 03:40:00 -9.1 C 2.34 g/m*3 -9.1 C 0 km/h
2514 22-01-2017 03:45:00 -9.1 C 2.34 g/m*3 -9.1 C 0 km/h
2515 22-01-2017 03:50:00 -9.1 C 2.34 g/m*3 -9.1 C 0 km/h
2516 22-01-2017 03:55:00 -9.1 C 2.34 g/m*3 -9.1 C 0 km/h
2517 22-01-2017 04:00:00 -9 C 2.36 g/m*3 -9 C 0 km/h
2518 22-01-2017 04:05:00 -8.8 C 2.42 g/m*3 -8.8 C 0 km/h
2519 22-01-2017 04:10:00 -8.7 C 2.44 g/m*3 -8.7 C 0 km/h
2520 22-01-2017 04:15:00 -8.7 C 2.44 g/m*3 -8.7 C 0 km/h
2521 22-01-2017 04:20:00 -8.7 C 2.41 g/m*3 -8.7 C 0 km/h
2522 22-01-2017 04:25:00 -8.7 C 2.41 g/m*3 -8.7 C 0 km/h
2523 22-01-2017 04:30:00 -8.7 C 2.41 g/m*3 -8.7 C 1.6 km/h
2524 22-01-2017 04:35:00 -8.8 C 2.4 g/m*3 -8.8 C 0 km/h
2525 22-01-2017 04:40:00 -8.7 C 2.41 g/m*3 -8.7 C 1.6 km/h
Sensor: Nr:Datum:Temp:Abs-Feuchte:Windchill:Wind:
Aussen-T/F 2526 22-01-2017 04:45:00 -8.7 C 2.41 g/m*3 -8.7 C 1.6 km/h
2527 22-01-2017 04:50:00 -8.7 C 2.41 g/m*3 -8.7 C 0 km/h
2528 22-01-2017 04:55:00 -8.7 C 2.41 g/m*3 -8.7 C 0 km/h
2529 22-01-2017 05:00:00 -8.7 C 2.41 g/m*3 -8.7 C 0 km/h
2530 22-01-2017 05:05:00 -8.9 C 2.38 g/m*3 -8.9 C 0 km/h
2531 22-01-2017 05:10:00 -9.1 C 2.32 g/m*3 -9.1 C 0 km/h
2532 22-01-2017 05:15:00 -9.2 C 2.3 g/m*3 -9.2 C 0 km/h
2533 22-01-2017 05:20:00 -9.3 C 2.31 g/m*3 -9.3 C 0 km/h
2534 22-01-2017 05:25:00 -9.3 C 2.31 g/m*3 -9.3 C 0 km/h
2535 22-01-2017 05:30:00 -9.2 C 2.33 g/m*3 -9.2 C 0 km/h
2536 22-01-2017 05:35:00 -9.2 C 2.33 g/m*3 -9.2 C 0 km/h
2537 22-01-2017 05:40:00 -9.3 C 2.31 g/m*3 -9.3 C 0 km/h
2538 22-01-2017 05:45:00 -9.3 C 2.31 g/m*3 -9.3 C 0 km/h
2539 22-01-2017 05:50:00 -9.4 C 2.29 g/m*3 -9.4 C 0 km/h
2540 22-01-2017 05:55:00 -9.5 C 2.25 g/m*3 -9.5 C 0 km/h
2541 22-01-2017 06:00:00 -9.7 C 2.22 g/m*3 -9.7 C 0 km/h
2542 22-01-2017 06:05:00 -9.8 C 2.2 g/m*3 -9.8 C 0 km/h
2543 22-01-2017 06:10:00 -9.9 C 2.18 g/m*3 -9.9 C 0 km/h
2544 22-01-2017 06:15:00 -10 C 2.17 g/m*3 -10 C 0 km/h
2545 22-01-2017 06:20:00 -10.1 C 2.15 g/m*3 -10.1 C 0 km/h
2546 22-01-2017 06:25:00 -10.1 C 2.15 g/m*3 -10.1 C 0 km/h
2547 22-01-2017 06:30:00 -10.1 C 2.15 g/m*3 -10.1 C 0 km/h
2548 22-01-2017 06:35:00 -10.1 C 2.15 g/m*3 -10.1 C 0 km/h
2549 22-01-2017 06:40:00 -10.1 C 2.15 g/m*3 -10.1 C 0 km/h
2550 22-01-2017 06:45:00 -10.1 C 2.17 g/m*3 -10.1 C 0 km/h
Sensor: Nr:Datum:Temp:Abs-Feuchte:Windchill:Wind:
Aussen-T/F 2551 22-01-2017 06:50:00 -10.1 C 2.17 g/m*3 -10.1 C 0 km/h
2552 22-01-2017 06:55:00 -9.9 C 2.21 g/m*3 -9.9 C 0 km/h
2553 22-01-2017 07:00:00 -9.9 C 2.21 g/m*3 -9.9 C 0 km/h
2554 22-01-2017 07:05:00 -9.8 C 2.22 g/m*3 -9.8 C 0 km/h
2555 22-01-2017 07:10:00 -9.8 C 2.22 g/m*3 -9.8 C 0 km/h
2556 22-01-2017 07:15:00 -9.8 C 2.22 g/m*3 -9.8 C 0 km/h
2557 22-01-2017 07:20:00 -9.9 C 2.21 g/m*3 -9.9 C 0 km/h
2558 22-01-2017 07:25:00 -10.1 C 2.15 g/m*3 -10.1 C 0 km/h
2559 22-01-2017 07:30:00 -10.2 C 2.13 g/m*3 -10.2 C 0 km/h
2560 22-01-2017 07:35:00 -10.3 C 2.12 g/m*3 -10.3 C 0 km/h
2561 22-01-2017 09:55:00 -9.9 C 2.21 g/m*3 -9.9 C 0 km/h
2562 22-01-2017 10:00:00 -9.8 C 2.22 g/m*3 -9.8 C 0 km/h
2563 22-01-2017 10:05:00 -9.8 C 2.22 g/m*3 -9.8 C 0 km/h
2564 22-01-2017 10:10:00 -9.7 C 2.24 g/m*3 -9.7 C 0 km/h
2565 22-01-2017 10:15:00 -9.7 C 2.24 g/m*3 -9.7 C 0 km/h
2566 22-01-2017 10:20:00 -9.7 C 2.24 g/m*3 -9.7 C 0 km/h
2567 22-01-2017 10:25:00 -9.6 C 2.26 g/m*3 -9.6 C 0 km/h
2568 22-01-2017 10:30:00 -9.6 C 2.26 g/m*3 -9.6 C 0 km/h
2569 22-01-2017 10:35:00 -9.6 C 2.26 g/m*3 -9.6 C 0 km/h
2570 22-01-2017 10:40:00 -9.5 C 2.27 g/m*3 -9.5 C 0 km/h
2571 22-01-2017 10:45:00 -9.4 C 2.29 g/m*3 -9.4 C 0 km/h
2572 22-01-2017 10:50:00 -9.3 C 2.31 g/m*3 -9.3 C 0 km/h
2573 22-01-2017 10:55:00 -9.2 C 2.33 g/m*3 -9.2 C 0 km/h
2574 22-01-2017 11:00:00 -9.1 C 2.34 g/m*3 -9.1 C 0 km/h
2575 22-01-2017 11:05:00 -9 C 2.36 g/m*3 -9 C 0 km/h
Sensor: Nr:Datum:Temp:Abs-Feuchte:Windchill:Wind:
Aussen-T/F 2576 22-01-2017 11:10:00 -8.8 C 2.4 g/m*3 -8.8 C 0 km/h
2577 22-01-2017 11:15:00 -8.7 C 2.41 g/m*3 -8.7 C 0 km/h
2578 22-01-2017 11:20:00 -8.6 C 2.46 g/m*3 -8.6 C 0 km/h
2579 22-01-2017 11:25:00 -8.5 C 2.45 g/m*3 -8.5 C 0 km/h
2580 22-01-2017 11:30:00 -8.4 C 2.47 g/m*3 -8.4 C 0 km/h
2581 22-01-2017 11:35:00 -8.3 C 2.49 g/m*3 -8.3 C 0 km/h
2582 22-01-2017 11:40:00 -8.3 C 2.49 g/m*3 -8.3 C 0 km/h
2583 22-01-2017 11:45:00 -8.2 C 2.53 g/m*3 -8.2 C 0 km/h
2584 22-01-2017 11:50:00 -8.1 C 2.55 g/m*3 -8.1 C 0 km/h
2585 22-01-2017 11:55:00 -7.9 C 2.59 g/m*3 -7.9 C 0 km/h
2586 22-01-2017 12:00:00 -7.8 C 2.61 g/m*3 -7.8 C 0 km/h
2587 22-01-2017 12:05:00 -7.7 C 2.63 g/m*3 -7.7 C 0 km/h
2588 22-01-2017 12:10:00 -7.5 C 2.67 g/m*3 -7.5 C 0 km/h
2589 22-01-2017 12:15:00 -7.4 C 2.69 g/m*3 -7.4 C 0 km/h
2590 22-01-2017 12:20:00 -7.3 C 2.71 g/m*3 -7.3 C 0 km/h
2591 22-01-2017 12:25:00 -7.2 C 2.73 g/m*3 -7.2 C 0 km/h
2592 22-01-2017 12:30:00 -7 C 2.77 g/m*3 -7 C 0 km/h
2593 22-01-2017 12:35:00 -6.9 C 2.79 g/m*3 -6.9 C 1.6 km/h
2594 22-01-2017 12:40:00 -6.8 C 2.81 g/m*3 -6.8 C 1.6 km/h
2595 22-01-2017 12:45:00 -6.7 C 2.83 g/m*3 -6.7 C 1.6 km/h
2596 22-01-2017 12:50:00 -6.7 C 2.83 g/m*3 -6.7 C 1.6 km/h
2597 22-01-2017 12:55:00 -6.6 C 2.85 g/m*3 -6.6 C 3.2 km/h
2598 22-01-2017 13:00:00 -6.4 C 2.89 g/m*3 -6.4 C 3.2 km/h
2599 22-01-2017 13:05:00 -6.3 C 2.91 g/m*3 -6.3 C 1.6 km/h
2600 22-01-2017 13:10:00 -6.2 C 2.93 g/m*3 -6.2 C 3.2 km/h
Sensor: Nr:Datum:Temp:Abs-Feuchte:Windchill:Wind:
Aussen-T/F 2601 22-01-2017 13:15:00 -6.1 C 2.96 g/m*3 -6.1 C 3.2 km/h
2602 22-01-2017 13:20:00 -6 C 2.98 g/m*3 -6 C 1.6 km/h
2603 22-01-2017 13:25:00 -5.9 C 3 g/m*3 -5.9 C 3.2 km/h
2604 22-01-2017 13:30:00 -5.8 C 3.02 g/m*3 -5.8 C 1.6 km/h
2605 22-01-2017 13:35:00 -5.7 C 3.04 g/m*3 -5.7 C 0 km/h
2606 22-01-2017 13:40:00 -5.6 C 3.06 g/m*3 -5.6 C 1.6 km/h
2607 22-01-2017 13:45:00 -5.6 C 3.06 g/m*3 -5.6 C 3.2 km/h
2608 22-01-2017 13:50:00 -5.4 C 3.11 g/m*3 -5.4 C 3.2 km/h
2609 22-01-2017 13:55:00 -5.3 C 3.13 g/m*3 -5.3 C 1.6 km/h
2610 22-01-2017 14:00:00 -5.3 C 3.13 g/m*3 -5.3 C 1.6 km/h
2611 22-01-2017 14:05:00 -5.2 C 3.15 g/m*3 -5.2 C 3.2 km/h
2612 22-01-2017 14:10:00 -5.1 C 3.18 g/m*3 -5.1 C 3.2 km/h
2613 22-01-2017 14:15:00 -5 C 3.2 g/m*3 -5 C 3.2 km/h
2614 22-01-2017 14:20:00 -4.9 C 3.22 g/m*3 -4.9 C 3.2 km/h
2615 22-01-2017 14:25:00 -4.8 C 3.25 g/m*3 -4.8 C 3.2 km/h
2616 22-01-2017 14:30:00 -4.7 C 3.27 g/m*3 -4.7 C 3.2 km/h
2617 22-01-2017 14:35:00 -4.6 C 3.29 g/m*3 -4.6 C 3.2 km/h
2618 22-01-2017 14:40:00 -4.5 C 3.32 g/m*3 -4.5 C 3.2 km/h
2619 22-01-2017 14:45:00 -4.4 C 3.34 g/m*3 -4.4 C 3.2 km/h
2620 22-01-2017 14:50:00 -4.4 C 3.31 g/m*3 -4.4 C 3.2 km/h
2621 22-01-2017 14:55:00 -4.3 C 3.33 g/m*3 -4.3 C 3.2 km/h
2622 22-01-2017 15:00:00 -4.3 C 3.33 g/m*3 -4.3 C 3.2 km/h
2623 22-01-2017 15:05:00 -4.2 C 3.35 g/m*3 -4.2 C 3.2 km/h
2624 22-01-2017 15:10:00 -4.1 C 3.38 g/m*3 -4.1 C 3.2 km/h
2625 22-01-2017 15:15:00 -4.1 C 3.38 g/m*3 -4.1 C 3.2 km/h
Sensor: Nr:Datum:Temp:Abs-Feuchte:Windchill:Wind:
Aussen-T/F 2626 22-01-2017 15:20:00 -4 C 3.4 g/m*3 -4 C 4.8 km/h
2627 22-01-2017 15:25:00 -3.9 C 3.43 g/m*3 -3.9 C 3.2 km/h
2628 22-01-2017 15:30:00 -3.9 C 3.43 g/m*3 -3.9 C 4.8 km/h
2629 22-01-2017 15:35:00 -3.8 C 3.41 g/m*3 -3.8 C 3.2 km/h
2630 22-01-2017 15:40:00 -3.8 C 3.41 g/m*3 -3.8 C 3.2 km/h
2631 22-01-2017 15:45:00 -3.8 C 3.41 g/m*3 -3.8 C 3.2 km/h
2632 22-01-2017 15:50:00 -3.7 C 3.44 g/m*3 -3.7 C 4.8 km/h
2633 22-01-2017 15:55:00 -3.7 C 3.44 g/m*3 -3.7 C 4.8 km/h
2634 22-01-2017 16:00:00 -3.7 C 3.44 g/m*3 -3.7 C 4.8 km/h
2635 22-01-2017 16:05:00 -3.7 C 3.44 g/m*3 -3.7 C 4.8 km/h
2636 22-01-2017 16:10:00 -3.7 C 3.44 g/m*3 -3.7 C 4.8 km/h
2637 22-01-2017 16:15:00 -3.7 C 3.44 g/m*3 -3.7 C 4.8 km/h
2638 22-01-2017 16:20:00 -3.7 C 3.44 g/m*3 -3.7 C 4.8 km/h
2639 22-01-2017 16:25:00 -3.7 C 3.44 g/m*3 -3.7 C 4.8 km/h
2640 22-01-2017 16:30:00 -3.6 C 3.46 g/m*3 -3.6 C 4.8 km/h
2641 22-01-2017 16:35:00 -3.6 C 3.46 g/m*3 -3.6 C 4.8 km/h
2642 22-01-2017 16:40:00 -3.6 C 3.43 g/m*3 -3.6 C 4.8 km/h
2643 22-01-2017 16:45:00 -3.6 C 3.43 g/m*3 -3.6 C 4.8 km/h
2644 22-01-2017 16:50:00 -3.7 C 3.4 g/m*3 -3.7 C 4.8 km/h
2645 22-01-2017 16:55:00 -3.7 C 3.4 g/m*3 -3.7 C 4.8 km/h
2646 22-01-2017 17:00:00 -3.7 C 3.4 g/m*3 -3.7 C 4.8 km/h
2647 22-01-2017 17:05:00 -3.7 C 3.4 g/m*3 -3.7 C 3.2 km/h
2648 22-01-2017 17:10:00 -3.8 C 3.34 g/m*3 -3.8 C 0 km/h
2649 22-01-2017 17:15:00 -4 C 3.29 g/m*3 -4 C 3.2 km/h
2650 22-01-2017 17:20:00 -4.1 C 3.27 g/m*3 -4.1 C 3.2 km/h
Sensor: Nr:Datum:Temp:Abs-Feuchte:Windchill:Wind:
Aussen-T/F 2651 22-01-2017 17:25:00 -4.2 C 3.25 g/m*3 -4.2 C 4.8 km/h
2652 22-01-2017 17:30:00 -4.1 C 3.31 g/m*3 -4.1 C 4.8 km/h
2653 22-01-2017 17:35:00 -4.2 C 3.25 g/m*3 -4.2 C 0 km/h
2654 22-01-2017 17:40:00 -4.4 C 3.16 g/m*3 -4.4 C 0 km/h
2655 22-01-2017 17:45:00 -4.7 C 3.1 g/m*3 -4.7 C 0 km/h
2656 22-01-2017 17:50:00 -4.9 C 3.05 g/m*3 -4.9 C 1.6 km/h
2657 22-01-2017 17:55:00 -5 C 3.06 g/m*3 -5 C 0 km/h
2658 22-01-2017 18:00:00 -4.9 C 3.12 g/m*3 -4.9 C 0 km/h
2659 22-01-2017 18:05:00 -4.9 C 3.12 g/m*3 -4.9 C 0 km/h
2660 22-01-2017 18:10:00 -4.9 C 3.12 g/m*3 -4.9 C 0 km/h
2661 22-01-2017 18:15:00 -5 C 3.1 g/m*3 -5 C 1.6 km/h
2662 22-01-2017 18:20:00 -5.2 C 3.05 g/m*3 -5.2 C 1.6 km/h
2663 22-01-2017 18:25:00 -5.3 C 3.03 g/m*3 -5.3 C 3.2 km/h
2664 22-01-2017 18:30:00 -5.3 C 3.03 g/m*3 -5.3 C 3.2 km/h
2665 22-01-2017 18:35:00 -5.2 C 3.09 g/m*3 -5.2 C 3.2 km/h
2666 22-01-2017 18:40:00 -5.3 C 3.07 g/m*3 -5.3 C 0 km/h
2667 22-01-2017 18:45:00 -5.6 C 2.97 g/m*3 -5.6 C 0 km/h
2668 22-01-2017 18:50:00 -5.7 C 2.95 g/m*3 -5.7 C 1.6 km/h
2669 22-01-2017 18:55:00 -5.8 C 2.92 g/m*3 -5.8 C 0 km/h
2670 22-01-2017 19:00:00 -5.8 C 2.92 g/m*3 -5.8 C 0 km/h
2671 22-01-2017 19:05:00 -5.9 C 2.93 g/m*3 -5.9 C 0 km/h
2672 22-01-2017 19:10:00 -6 C 2.91 g/m*3 -6 C 0 km/h
2673 22-01-2017 19:15:00 -6.1 C 2.89 g/m*3 -6.1 C 0 km/h
2674 22-01-2017 19:20:00 -6.1 C 2.89 g/m*3 -6.1 C 0 km/h
2675 22-01-2017 19:25:00 -6.2 C 2.87 g/m*3 -6.2 C 0 km/h
Sensor: Nr:Datum:Temp:Abs-Feuchte:Windchill:Wind:
Aussen-T/F 2676 22-01-2017 19:30:00 -6.3 C 2.85 g/m*3 -6.3 C 0 km/h
2677 22-01-2017 19:35:00 -6.4 C 2.83 g/m*3 -6.4 C 0 km/h
2678 22-01-2017 19:40:00 -6.4 C 2.83 g/m*3 -6.4 C 1.6 km/h
2679 22-01-2017 19:45:00 -6.4 C 2.83 g/m*3 -6.4 C 0 km/h
2680 22-01-2017 19:50:00 -6.4 C 2.83 g/m*3 -6.4 C 0 km/h
2681 22-01-2017 19:55:00 -6.6 C 2.79 g/m*3 -6.6 C 0 km/h
2682 22-01-2017 20:00:00 -6.6 C 2.79 g/m*3 -6.6 C 0 km/h
2683 22-01-2017 20:05:00 -6.6 C 2.79 g/m*3 -6.6 C 0 km/h
2684 22-01-2017 20:10:00 -6.6 C 2.79 g/m*3 -6.6 C 0 km/h
2685 22-01-2017 20:15:00 -6.6 C 2.79 g/m*3 -6.6 C 0 km/h
2686 22-01-2017 20:20:00 -6.7 C 2.77 g/m*3 -6.7 C 0 km/h
2687 22-01-2017 20:25:00 -6.9 C 2.73 g/m*3 -6.9 C 0 km/h
2688 22-01-2017 20:30:00 -7 C 2.71 g/m*3 -7 C 0 km/h
2689 22-01-2017 20:35:00 -7.1 C 2.69 g/m*3 -7.1 C 0 km/h
2690 22-01-2017 20:40:00 -7.3 C 2.65 g/m*3 -7.3 C 0 km/h
2691 22-01-2017 20:45:00 -7.3 C 2.65 g/m*3 -7.3 C 0 km/h
2692 22-01-2017 20:50:00 -7.4 C 2.63 g/m*3 -7.4 C 0 km/h
2693 22-01-2017 20:55:00 -7.3 C 2.65 g/m*3 -7.3 C 0 km/h
2694 22-01-2017 21:00:00 -7.4 C 2.63 g/m*3 -7.4 C 0 km/h
2695 22-01-2017 21:05:00 -7.6 C 2.59 g/m*3 -7.6 C 0 km/h
2696 22-01-2017 21:10:00 -7.6 C 2.59 g/m*3 -7.6 C 0 km/h
2697 22-01-2017 21:15:00 -7.5 C 2.64 g/m*3 -7.5 C 0 km/h
2698 22-01-2017 21:20:00 -7.4 C 2.66 g/m*3 -7.4 C 0 km/h
2699 22-01-2017 21:25:00 -7.3 C 2.68 g/m*3 -7.3 C 0 km/h
2700 22-01-2017 21:30:00 -7.5 C 2.64 g/m*3 -7.5 C 0 km/h
Sensor: Nr:Datum:Temp:Abs-Feuchte:Windchill:Wind:
Aussen-T/F 2701 22-01-2017 21:35:00 -7.4 C 2.66 g/m*3 -7.4 C 0 km/h
2702 22-01-2017 21:40:00 -7.5 C 2.64 g/m*3 -7.5 C 0 km/h
2703 22-01-2017 21:45:00 -7.6 C 2.62 g/m*3 -7.6 C 0 km/h
2704 22-01-2017 21:50:00 -7.7 C 2.6 g/m*3 -7.7 C 0 km/h
2705 22-01-2017 21:55:00 -7.7 C 2.6 g/m*3 -7.7 C 0 km/h
2706 22-01-2017 22:00:00 -7.8 C 2.58 g/m*3 -7.8 C 0 km/h
2707 22-01-2017 22:05:00 -7.9 C 2.56 g/m*3 -7.9 C 0 km/h
2708 22-01-2017 22:10:00 -8 C 2.54 g/m*3 -8 C 0 km/h
2709 22-01-2017 22:15:00 -8.1 C 2.52 g/m*3 -8.1 C 0 km/h
2710 22-01-2017 22:20:00 -8.1 C 2.52 g/m*3 -8.1 C 0 km/h
2711 22-01-2017 22:25:00 -8.1 C 2.52 g/m*3 -8.1 C 0 km/h
2712 22-01-2017 22:30:00 -8.2 C 2.51 g/m*3 -8.2 C 0 km/h
2713 22-01-2017 22:35:00 -8.2 C 2.51 g/m*3 -8.2 C 0 km/h
2714 22-01-2017 22:40:00 -8.1 C 2.52 g/m*3 -8.1 C 0 km/h
2715 22-01-2017 22:45:00 -8.1 C 2.55 g/m*3 -8.1 C 0 km/h
2716 22-01-2017 22:50:00 -7.9 C 2.59 g/m*3 -7.9 C 0 km/h
2717 22-01-2017 22:55:00 -7.7 C 2.63 g/m*3 -7.7 C 3.2 km/h
2718 22-01-2017 23:00:00 -7.6 C 2.65 g/m*3 -7.6 C 0 km/h
2719 22-01-2017 23:05:00 -7.7 C 2.6 g/m*3 -7.7 C 0 km/h
2720 22-01-2017 23:10:00 -7.7 C 2.6 g/m*3 -7.7 C 0 km/h
2721 22-01-2017 23:15:00 -7.8 C 2.58 g/m*3 -7.8 C 0 km/h
2722 22-01-2017 23:20:00 -8 C 2.54 g/m*3 -8 C 0 km/h
2723 22-01-2017 23:25:00 -8.1 C 2.52 g/m*3 -8.1 C 3.2 km/h
2724 22-01-2017 23:30:00 -8.2 C 2.51 g/m*3 -8.2 C 3.2 km/h
2725 22-01-2017 23:35:00 -8.2 C 2.51 g/m*3 -8.2 C 0 km/h
Sensor: Nr:Datum:Temp:Abs-Feuchte:Windchill:Wind:
Aussen-T/F 2726 22-01-2017 23:40:00 -8.2 C 2.51 g/m*3 -8.2 C 0 km/h
2727 22-01-2017 23:45:00 -8.3 C 2.49 g/m*3 -8.3 C 0 km/h
2728 22-01-2017 23:50:00 -8.4 C 2.47 g/m*3 -8.4 C 0 km/h
2729 22-01-2017 23:55:00 -8.3 C 2.49 g/m*3 -8.3 C 4.8 km/h
2730 23-01-2017 00:00:00 -8.2 C 2.53 g/m*3 -8.2 C 0 km/h
2731 23-01-2017 00:05:00 -8.2 C 2.53 g/m*3 -8.2 C 0 km/h
2732 23-01-2017 00:10:00 -8.2 C 2.51 g/m*3 -8.2 C 0 km/h
2733 23-01-2017 00:15:00 -8.3 C 2.49 g/m*3 -8.3 C 1.6 km/h
2734 23-01-2017 00:20:00 -8.3 C 2.49 g/m*3 -8.3 C 0 km/h
2735 23-01-2017 00:25:00 -8.3 C 2.49 g/m*3 -8.3 C 0 km/h
2736 23-01-2017 00:30:00 -8.3 C 2.49 g/m*3 -8.3 C 0 km/h
2737 23-01-2017 00:35:00 -8.2 C 2.51 g/m*3 -8.2 C 0 km/h
2738 23-01-2017 00:40:00 -8.2 C 2.53 g/m*3 -8.2 C 0 km/h
2739 23-01-2017 00:45:00 -8.2 C 2.51 g/m*3 -8.2 C 0 km/h
2740 23-01-2017 00:50:00 -8.2 C 2.51 g/m*3 -8.2 C 0 km/h
2741 23-01-2017 00:55:00 -8.3 C 2.49 g/m*3 -8.3 C 0 km/h
2742 23-01-2017 01:00:00 -8.3 C 2.49 g/m*3 -8.3 C 0 km/h
2743 23-01-2017 01:05:00 -8.4 C 2.47 g/m*3 -8.4 C 0 km/h
2744 23-01-2017 01:10:00 -8.6 C 2.43 g/m*3 -8.6 C 0 km/h
2745 23-01-2017 01:15:00 -8.8 C 2.37 g/m*3 -8.8 C 0 km/h
2746 23-01-2017 01:20:00 -8.9 C 2.35 g/m*3 -8.9 C 0 km/h
2747 23-01-2017 01:25:00 -9 C 2.36 g/m*3 -9 C 0 km/h
2748 23-01-2017 01:30:00 -8.9 C 2.38 g/m*3 -8.9 C 0 km/h
2749 23-01-2017 01:35:00 -9.1 C 2.34 g/m*3 -9.1 C 0 km/h
2750 23-01-2017 01:40:00 -9.2 C 2.3 g/m*3 -9.2 C 0 km/h
Sensor: Nr:Datum:Temp:Abs-Feuchte:Windchill:Wind:
Aussen-T/F 2751 23-01-2017 01:45:00 -9.2 C 2.33 g/m*3 -9.2 C 0 km/h
2752 23-01-2017 01:50:00 -9.3 C 2.28 g/m*3 -9.3 C 0 km/h
2753 23-01-2017 01:55:00 -9.3 C 2.31 g/m*3 -9.3 C 0 km/h
2754 23-01-2017 02:00:00 -9.4 C 2.29 g/m*3 -9.4 C 0 km/h
2755 23-01-2017 02:05:00 -9.4 C 2.29 g/m*3 -9.4 C 0 km/h
2756 23-01-2017 02:10:00 -9.5 C 2.27 g/m*3 -9.5 C 0 km/h
2757 23-01-2017 02:15:00 -9.5 C 2.27 g/m*3 -9.5 C 0 km/h
2758 23-01-2017 02:20:00 -9.6 C 2.26 g/m*3 -9.6 C 0 km/h
2759 23-01-2017 02:25:00 -9.6 C 2.23 g/m*3 -9.6 C 0 km/h
2760 23-01-2017 02:30:00 -9.6 C 2.26 g/m*3 -9.6 C 0 km/h
2761 23-01-2017 02:35:00 -9.7 C 2.24 g/m*3 -9.7 C 0 km/h
2762 23-01-2017 02:40:00 -9.7 C 2.24 g/m*3 -9.7 C 0 km/h
2763 23-01-2017 02:45:00 -9.7 C 2.24 g/m*3 -9.7 C 0 km/h
2764 23-01-2017 02:50:00 -9.7 C 2.24 g/m*3 -9.7 C 0 km/h
2765 23-01-2017 02:55:00 -9.7 C 2.24 g/m*3 -9.7 C 0 km/h
2766 23-01-2017 03:00:00 -9.7 C 2.24 g/m*3 -9.7 C 0 km/h
2767 23-01-2017 03:05:00 -9.7 C 2.24 g/m*3 -9.7 C 0 km/h
2768 23-01-2017 03:10:00 -9.8 C 2.22 g/m*3 -9.8 C 0 km/h
2769 23-01-2017 03:15:00 -9.8 C 2.22 g/m*3 -9.8 C 0 km/h
2770 23-01-2017 03:20:00 -9.9 C 2.21 g/m*3 -9.9 C 0 km/h
2771 23-01-2017 03:25:00 -9.9 C 2.21 g/m*3 -9.9 C 0 km/h
2772 23-01-2017 03:30:00 -9.9 C 2.21 g/m*3 -9.9 C 0 km/h
2773 23-01-2017 03:35:00 -10 C 2.19 g/m*3 -10 C 0 km/h
2774 23-01-2017 03:40:00 -10.1 C 2.15 g/m*3 -10.1 C 0 km/h
2775 23-01-2017 03:45:00 -9.9 C 2.21 g/m*3 -9.9 C 0 km/h
Sensor: Nr:Datum:Temp:Abs-Feuchte:Windchill:Wind:
Aussen-T/F 2776 23-01-2017 03:50:00 -9.7 C 2.24 g/m*3 -9.7 C 0 km/h
2777 23-01-2017 03:55:00 -9.6 C 2.26 g/m*3 -9.6 C 0 km/h
2778 23-01-2017 04:00:00 -9.5 C 2.27 g/m*3 -9.5 C 0 km/h
2779 23-01-2017 04:05:00 -9.5 C 2.27 g/m*3 -9.5 C 0 km/h
2780 23-01-2017 04:10:00 -9.5 C 2.27 g/m*3 -9.5 C 0 km/h
2781 23-01-2017 04:15:00 -9.5 C 2.27 g/m*3 -9.5 C 0 km/h
2782 23-01-2017 04:20:00 -9.6 C 2.26 g/m*3 -9.6 C 0 km/h
2783 23-01-2017 04:25:00 -9.6 C 2.26 g/m*3 -9.6 C 0 km/h
2784 23-01-2017 04:30:00 -9.6 C 2.26 g/m*3 -9.6 C 0 km/h
2785 23-01-2017 04:35:00 -9.6 C 2.26 g/m*3 -9.6 C 0 km/h
2786 23-01-2017 04:40:00 -9.6 C 2.26 g/m*3 -9.6 C 0 km/h
2787 23-01-2017 04:45:00 -9.7 C 2.24 g/m*3 -9.7 C 0 km/h
2788 23-01-2017 04:50:00 -9.7 C 2.24 g/m*3 -9.7 C 0 km/h
2789 23-01-2017 04:55:00 -9.8 C 2.22 g/m*3 -9.8 C 0 km/h
2790 23-01-2017 05:00:00 -9.8 C 2.22 g/m*3 -9.8 C 0 km/h
2791 23-01-2017 05:05:00 -9.9 C 2.18 g/m*3 -9.9 C 0 km/h
2792 23-01-2017 05:10:00 -10.1 C 2.15 g/m*3 -10.1 C 0 km/h
2793 23-01-2017 05:15:00 -10.1 C 2.15 g/m*3 -10.1 C 0 km/h
2794 23-01-2017 05:20:00 -10.1 C 2.15 g/m*3 -10.1 C 0 km/h
2795 23-01-2017 05:25:00 -10.1 C 2.15 g/m*3 -10.1 C 0 km/h
2796 23-01-2017 05:30:00 -10.2 C 2.13 g/m*3 -10.2 C 0 km/h
2797 23-01-2017 05:35:00 -10.3 C 2.12 g/m*3 -10.3 C 0 km/h
2798 23-01-2017 05:40:00 -10.3 C 2.12 g/m*3 -10.3 C 0 km/h
2799 23-01-2017 05:45:00 -10.4 C 2.1 g/m*3 -10.4 C 0 km/h
2800 23-01-2017 05:50:00 -10.5 C 2.09 g/m*3 -10.5 C 0 km/h
Sensor: Nr:Datum:Temp:Abs-Feuchte:Windchill:Wind:
Aussen-T/F 2801 23-01-2017 05:55:00 -10.5 C 2.09 g/m*3 -10.5 C 0 km/h
2802 23-01-2017 06:00:00 -10.4 C 2.1 g/m*3 -10.4 C 0 km/h
2803 23-01-2017 06:05:00 -10.3 C 2.14 g/m*3 -10.3 C 1.6 km/h
2804 23-01-2017 06:10:00 -10.2 C 2.16 g/m*3 -10.2 C 0 km/h
2805 23-01-2017 06:15:00 -10.2 C 2.16 g/m*3 -10.2 C 0 km/h
2806 23-01-2017 06:20:00 -10.2 C 2.16 g/m*3 -10.2 C 0 km/h
2807 23-01-2017 06:25:00 -10.2 C 2.13 g/m*3 -10.2 C 0 km/h
2808 23-01-2017 06:30:00 -10.3 C 2.12 g/m*3 -10.3 C 0 km/h
2809 23-01-2017 06:35:00 -10.3 C 2.12 g/m*3 -10.3 C 0 km/h
2810 23-01-2017 06:40:00 -10.2 C 2.16 g/m*3 -10.2 C 0 km/h
2811 23-01-2017 06:45:00 -10.2 C 2.16 g/m*3 -10.2 C 0 km/h
2812 23-01-2017 06:50:00 -10.2 C 2.16 g/m*3 -10.2 C 3.2 km/h
2813 23-01-2017 06:55:00 -10 C 2.19 g/m*3 -10 C 0 km/h
2814 23-01-2017 07:00:00 -9.9 C 2.21 g/m*3 -9.9 C 0 km/h
2815 23-01-2017 07:05:00 -9.7 C 2.24 g/m*3 -9.7 C 1.6 km/h
2816 23-01-2017 07:10:00 -9.6 C 2.26 g/m*3 -9.6 C 1.6 km/h
2817 23-01-2017 07:15:00 -9.4 C 2.29 g/m*3 -9.4 C 0 km/h
2818 23-01-2017 07:20:00 -9.3 C 2.31 g/m*3 -9.3 C 3.2 km/h
2819 23-01-2017 07:25:00 -9.2 C 2.33 g/m*3 -9.2 C 1.6 km/h
2820 23-01-2017 07:30:00 -9.1 C 2.34 g/m*3 -9.1 C 1.6 km/h
2821 23-01-2017 07:35:00 -9 C 2.36 g/m*3 -9 C 0 km/h
2822 23-01-2017 07:40:00 -8.9 C 2.38 g/m*3 -8.9 C 3.2 km/h
2823 23-01-2017 07:45:00 -8.8 C 2.4 g/m*3 -8.8 C 0 km/h
2824 23-01-2017 07:50:00 -8.7 C 2.41 g/m*3 -8.7 C 1.6 km/h
2825 23-01-2017 07:55:00 -8.7 C 2.41 g/m*3 -8.7 C 1.6 km/h
Sensor: Nr:Datum:Temp:Abs-Feuchte:Windchill:Wind:
Aussen-T/F 2826 23-01-2017 08:00:00 -8.6 C 2.43 g/m*3 -8.6 C 0 km/h
2827 23-01-2017 08:05:00 -8.6 C 2.43 g/m*3 -8.6 C 0 km/h
2828 23-01-2017 08:10:00 -8.5 C 2.45 g/m*3 -8.5 C 0 km/h
2829 23-01-2017 08:15:00 -8.4 C 2.47 g/m*3 -8.4 C 1.6 km/h
2830 23-01-2017 08:20:00 -8.4 C 2.47 g/m*3 -8.4 C 0 km/h
2831 23-01-2017 08:25:00 -8.3 C 2.49 g/m*3 -8.3 C 0 km/h
2832 23-01-2017 08:30:00 -8.3 C 2.49 g/m*3 -8.3 C 0 km/h
2833 23-01-2017 08:35:00 -8.2 C 2.51 g/m*3 -8.2 C 0 km/h
2834 23-01-2017 08:40:00 -8.2 C 2.51 g/m*3 -8.2 C 0 km/h
2835 23-01-2017 08:45:00 -8.1 C 2.52 g/m*3 -8.1 C 0 km/h
2836 23-01-2017 08:50:00 -8 C 2.54 g/m*3 -8 C 3.2 km/h
2837 23-01-2017 08:55:00 -7.9 C 2.56 g/m*3 -7.9 C 1.6 km/h
2838 23-01-2017 09:00:00 -7.9 C 2.56 g/m*3 -7.9 C 3.2 km/h
2839 23-01-2017 09:05:00 -7.8 C 2.58 g/m*3 -7.8 C 1.6 km/h
2840 23-01-2017 09:10:00 -7.8 C 2.58 g/m*3 -7.8 C 3.2 km/h
2841 23-01-2017 09:15:00 -7.7 C 2.6 g/m*3 -7.7 C 1.6 km/h
2842 23-01-2017 09:20:00 -7.7 C 2.6 g/m*3 -7.7 C 3.2 km/h
2843 23-01-2017 09:25:00 -7.6 C 2.62 g/m*3 -7.6 C 3.2 km/h
2844 23-01-2017 09:30:00 -7.6 C 2.62 g/m*3 -7.6 C 3.2 km/h
2845 23-01-2017 09:35:00 -7.5 C 2.64 g/m*3 -7.5 C 1.6 km/h
2846 23-01-2017 09:40:00 -7.4 C 2.66 g/m*3 -7.4 C 0 km/h
2847 23-01-2017 09:45:00 -7.4 C 2.66 g/m*3 -7.4 C 0 km/h
2848 23-01-2017 09:50:00 -7.3 C 2.68 g/m*3 -7.3 C 0 km/h
2849 23-01-2017 09:55:00 -7.2 C 2.7 g/m*3 -7.2 C 0 km/h
2850 23-01-2017 10:00:00 -7.1 C 2.72 g/m*3 -7.1 C 0 km/h
Sensor: Nr:Datum:Temp:Abs-Feuchte:Windchill:Wind:
Aussen-T/F 2851 23-01-2017 10:05:00 -7 C 2.74 g/m*3 -7 C 0 km/h
2852 23-01-2017 10:10:00 -6.9 C 2.76 g/m*3 -6.9 C 0 km/h
2853 23-01-2017 10:15:00 -6.8 C 2.78 g/m*3 -6.8 C 0 km/h
2854 23-01-2017 10:20:00 -6.7 C 2.8 g/m*3 -6.7 C 0 km/h
2855 23-01-2017 10:25:00 -6.7 C 2.8 g/m*3 -6.7 C 0 km/h
2856 23-01-2017 10:30:00 -6.6 C 2.82 g/m*3 -6.6 C 1.6 km/h
2857 23-01-2017 10:35:00 -6.5 C 2.84 g/m*3 -6.5 C 0 km/h
2858 23-01-2017 10:40:00 -6.4 C 2.86 g/m*3 -6.4 C 0 km/h
2859 23-01-2017 10:45:00 -6.3 C 2.88 g/m*3 -6.3 C 0 km/h
2860 23-01-2017 10:50:00 -6.2 C 2.9 g/m*3 -6.2 C 0 km/h
2861 23-01-2017 10:55:00 -6.2 C 2.9 g/m*3 -6.2 C 0 km/h
2862 23-01-2017 11:00:00 -6.1 C 2.92 g/m*3 -6.1 C 0 km/h
2863 23-01-2017 11:05:00 -5.9 C 2.97 g/m*3 -5.9 C 0 km/h
2864 23-01-2017 11:10:00 -5.8 C 2.99 g/m*3 -5.8 C 0 km/h
2865 23-01-2017 11:15:00 -5.7 C 3.01 g/m*3 -5.7 C 1.6 km/h
2866 23-01-2017 11:20:00 -5.6 C 3.03 g/m*3 -5.6 C 0 km/h
2867 23-01-2017 11:25:00 -5.5 C 3.05 g/m*3 -5.5 C 0 km/h
2868 23-01-2017 11:30:00 -5.4 C 3.08 g/m*3 -5.4 C 0 km/h
2869 23-01-2017 11:35:00 -5.3 C 3.1 g/m*3 -5.3 C 0 km/h
2870 23-01-2017 11:40:00 -5.3 C 3.1 g/m*3 -5.3 C 0 km/h
2871 23-01-2017 11:45:00 -5.2 C 3.12 g/m*3 -5.2 C 1.6 km/h
2872 23-01-2017 11:50:00 -5.2 C 3.12 g/m*3 -5.2 C 1.6 km/h
2873 23-01-2017 11:55:00 -5.2 C 3.09 g/m*3 -5.2 C 1.6 km/h
2874 23-01-2017 12:00:00 -5.1 C 3.14 g/m*3 -5.1 C 0 km/h
2875 23-01-2017 12:05:00 -5 C 3.17 g/m*3 -5 C 0 km/h
Sensor: Nr:Datum:Temp:Abs-Feuchte:Windchill:Wind:
Aussen-T/F 2876 23-01-2017 12:10:00 -5 C 3.17 g/m*3 -5 C 0 km/h
2877 23-01-2017 12:15:00 -4.9 C 3.16 g/m*3 -4.9 C 0 km/h
2878 23-01-2017 12:20:00 -4.9 C 3.16 g/m*3 -4.9 C 0 km/h
2879 23-01-2017 12:25:00 -4.9 C 3.16 g/m*3 -4.9 C 0 km/h
2880 23-01-2017 12:30:00 -4.8 C 3.18 g/m*3 -4.8 C 0 km/h
2881 23-01-2017 12:35:00 -4.7 C 3.2 g/m*3 -4.7 C 0 km/h
2882 23-01-2017 12:40:00 -4.7 C 3.2 g/m*3 -4.7 C 0 km/h
2883 23-01-2017 12:45:00 -4.6 C 3.26 g/m*3 -4.6 C 0 km/h
2884 23-01-2017 12:50:00 -4.5 C 3.25 g/m*3 -4.5 C 1.6 km/h
2885 23-01-2017 12:55:00 -4.4 C 3.27 g/m*3 -4.4 C 1.6 km/h
2886 23-01-2017 13:00:00 -4.3 C 3.29 g/m*3 -4.3 C 0 km/h
2887 23-01-2017 13:05:00 -4.2 C 3.35 g/m*3 -4.2 C 1.6 km/h
2888 23-01-2017 13:10:00 -4.2 C 3.35 g/m*3 -4.2 C 1.6 km/h
2889 23-01-2017 13:15:00 -4.1 C 3.34 g/m*3 -4.1 C 0 km/h
2890 23-01-2017 13:20:00 -4 C 3.4 g/m*3 -4 C 0 km/h
2891 23-01-2017 13:25:00 -3.8 C 3.45 g/m*3 -3.8 C 0 km/h
2892 23-01-2017 13:30:00 -3.7 C 3.48 g/m*3 -3.7 C 0 km/h
2893 23-01-2017 13:35:00 -3.5 C 3.53 g/m*3 -3.5 C 1.6 km/h
2894 23-01-2017 13:40:00 -3.3 C 3.61 g/m*3 -3.3 C 0 km/h
2895 23-01-2017 13:45:00 -3.2 C 3.6 g/m*3 -3.2 C 3.2 km/h
2896 23-01-2017 13:50:00 -3.1 C 3.63 g/m*3 -3.1 C 0 km/h
2897 23-01-2017 13:55:00 -3.1 C 3.63 g/m*3 -3.1 C 0 km/h
2898 23-01-2017 14:00:00 -2.9 C 3.68 g/m*3 -2.9 C 3.2 km/h
2899 23-01-2017 14:05:00 -2.9 C 3.68 g/m*3 -2.9 C 3.2 km/h
2900 23-01-2017 14:10:00 -2.8 C 3.71 g/m*3 -2.8 C 1.6 km/h
Sensor: Nr:Datum:Temp:Abs-Feuchte:Windchill:Wind:
Aussen-T/F 2901 23-01-2017 14:15:00 -2.8 C 3.71 g/m*3 -2.8 C 3.2 km/h
2902 23-01-2017 14:20:00 -2.8 C 3.67 g/m*3 -2.8 C 1.6 km/h
2903 23-01-2017 14:25:00 -2.8 C 3.67 g/m*3 -2.8 C 1.6 km/h
2904 23-01-2017 14:30:00 -2.8 C 3.67 g/m*3 -2.8 C 1.6 km/h
2905 23-01-2017 14:35:00 -2.8 C 3.67 g/m*3 -2.8 C 0 km/h
2906 23-01-2017 14:40:00 -2.7 C 3.73 g/m*3 -2.7 C 0 km/h
2907 23-01-2017 14:45:00 -2.7 C 3.73 g/m*3 -2.7 C 0 km/h
2908 23-01-2017 14:50:00 -2.6 C 3.76 g/m*3 -2.6 C 0 km/h
2909 23-01-2017 14:55:00 -2.6 C 3.76 g/m*3 -2.6 C 0 km/h
2910 23-01-2017 15:00:00 -2.5 C 3.78 g/m*3 -2.5 C 0 km/h
2911 23-01-2017 15:05:00 -2.4 C 3.81 g/m*3 -2.4 C 0 km/h
2912 23-01-2017 15:10:00 -2.4 C 3.81 g/m*3 -2.4 C 0 km/h
2913 23-01-2017 15:15:00 -2.3 C 3.84 g/m*3 -2.3 C 0 km/h
2914 23-01-2017 15:20:00 -2.3 C 3.84 g/m*3 -2.3 C 0 km/h
2915 23-01-2017 15:25:00 -2.3 C 3.84 g/m*3 -2.3 C 0 km/h
2916 23-01-2017 15:30:00 -2.2 C 3.82 g/m*3 -2.2 C 0 km/h
2917 23-01-2017 15:35:00 -2.2 C 3.82 g/m*3 -2.2 C 0 km/h
2918 23-01-2017 15:40:00 -2.1 C 3.85 g/m*3 -2.1 C 0 km/h
2919 23-01-2017 15:45:00 -2.1 C 3.85 g/m*3 -2.1 C 0 km/h
2920 23-01-2017 15:50:00 -2.1 C 3.85 g/m*3 -2.1 C 0 km/h
2921 23-01-2017 15:55:00 -2.1 C 3.85 g/m*3 -2.1 C 0 km/h
2922 23-01-2017 16:00:00 -2.1 C 3.85 g/m*3 -2.1 C 0 km/h
2923 23-01-2017 16:05:00 -2.1 C 3.85 g/m*3 -2.1 C 0 km/h
2924 23-01-2017 16:10:00 -2 C 3.88 g/m*3 -2 C 0 km/h
2925 23-01-2017 16:15:00 -2 C 3.88 g/m*3 -2 C 0 km/h
Sensor: Nr:Datum:Temp:Abs-Feuchte:Windchill:Wind:
Aussen-T/F 2926 23-01-2017 16:20:00 -1.9 C 3.91 g/m*3 -1.9 C 0 km/h
2927 23-01-2017 16:25:00 -1.9 C 3.91 g/m*3 -1.9 C 0 km/h
2928 23-01-2017 16:30:00 -1.9 C 3.91 g/m*3 -1.9 C 0 km/h
2929 23-01-2017 16:35:00 -1.9 C 3.91 g/m*3 -1.9 C 0 km/h
2930 23-01-2017 16:40:00 -1.9 C 3.91 g/m*3 -1.9 C 0 km/h
2931 23-01-2017 16:45:00 -1.9 C 3.91 g/m*3 -1.9 C 0 km/h
2932 23-01-2017 16:50:00 -1.8 C 3.93 g/m*3 -1.8 C 0 km/h
2933 23-01-2017 16:55:00 -1.8 C 3.93 g/m*3 -1.8 C 0 km/h
2934 23-01-2017 17:00:00 -1.8 C 3.98 g/m*3 -1.8 C 0 km/h
2935 23-01-2017 17:05:00 -1.8 C 3.98 g/m*3 -1.8 C 0 km/h
2936 23-01-2017 17:10:00 -1.8 C 3.98 g/m*3 -1.8 C 0 km/h
2937 23-01-2017 17:15:00 -1.8 C 3.98 g/m*3 -1.8 C 0 km/h
2938 23-01-2017 17:20:00 -1.8 C 3.98 g/m*3 -1.8 C 0 km/h
2939 23-01-2017 17:25:00 -1.8 C 3.98 g/m*3 -1.8 C 0 km/h
2940 23-01-2017 17:30:00 -1.8 C 3.98 g/m*3 -1.8 C 0 km/h
2941 23-01-2017 17:35:00 -1.8 C 3.98 g/m*3 -1.8 C 0 km/h
2942 23-01-2017 17:40:00 -1.8 C 3.98 g/m*3 -1.8 C 0 km/h
2943 23-01-2017 17:45:00 -1.8 C 3.98 g/m*3 -1.8 C 0 km/h
2944 23-01-2017 17:50:00 -1.8 C 3.98 g/m*3 -1.8 C 1.6 km/h
2945 23-01-2017 17:55:00 -1.9 C 3.95 g/m*3 -1.9 C 0 km/h
2946 23-01-2017 18:00:00 -1.9 C 3.95 g/m*3 -1.9 C 0 km/h
2947 23-01-2017 18:05:00 -1.9 C 3.95 g/m*3 -1.9 C 0 km/h
2948 23-01-2017 18:10:00 -1.9 C 3.95 g/m*3 -1.9 C 0 km/h
2949 23-01-2017 18:15:00 -1.9 C 3.95 g/m*3 -1.9 C 0 km/h
2950 23-01-2017 18:20:00 -1.9 C 3.95 g/m*3 -1.9 C 0 km/h
Sensor: Nr:Datum:Temp:Abs-Feuchte:Windchill:Wind:
Aussen-T/F 2951 23-01-2017 18:25:00 -1.9 C 3.95 g/m*3 -1.9 C 0 km/h
2952 23-01-2017 18:30:00 -1.9 C 3.95 g/m*3 -1.9 C 0 km/h
2953 23-01-2017 18:35:00 -1.8 C 3.98 g/m*3 -1.8 C 1.6 km/h
2954 23-01-2017 18:40:00 -1.8 C 3.98 g/m*3 -1.8 C 0 km/h
2955 23-01-2017 18:45:00 -1.8 C 3.98 g/m*3 -1.8 C 0 km/h
2956 23-01-2017 18:50:00 -1.8 C 3.98 g/m*3 -1.8 C 0 km/h
2957 23-01-2017 18:55:00 -1.8 C 3.98 g/m*3 -1.8 C 1.6 km/h
2958 23-01-2017 19:00:00 -1.8 C 3.98 g/m*3 -1.8 C 1.6 km/h
2959 23-01-2017 19:05:00 -1.7 C 4 g/m*3 -1.7 C 3.2 km/h
2960 23-01-2017 19:10:00 -1.7 C 4 g/m*3 -1.7 C 0 km/h
2961 23-01-2017 19:15:00 -1.7 C 4 g/m*3 -1.7 C 1.6 km/h
2962 23-01-2017 19:20:00 -1.7 C 4 g/m*3 -1.7 C 0 km/h
2963 23-01-2017 19:25:00 -1.7 C 4 g/m*3 -1.7 C 0 km/h
2964 23-01-2017 19:30:00 -1.7 C 4 g/m*3 -1.7 C 0 km/h
2965 23-01-2017 19:35:00 -1.7 C 4 g/m*3 -1.7 C 0 km/h
2966 23-01-2017 19:40:00 -1.7 C 4 g/m*3 -1.7 C 0 km/h
2967 23-01-2017 19:45:00 -1.7 C 4.05 g/m*3 -1.7 C 0 km/h
2968 23-01-2017 19:50:00 -1.7 C 4.05 g/m*3 -1.7 C 1.6 km/h
2969 23-01-2017 19:55:00 -1.6 C 4.07 g/m*3 -1.6 C 1.6 km/h
2970 23-01-2017 20:00:00 -1.6 C 4.07 g/m*3 -1.6 C 1.6 km/h
2971 23-01-2017 20:05:00 -1.6 C 4.07 g/m*3 -1.6 C 1.6 km/h
2972 23-01-2017 20:10:00 -1.5 C 4.1 g/m*3 -1.5 C 0 km/h
2973 23-01-2017 20:15:00 -1.5 C 4.1 g/m*3 -1.5 C 1.6 km/h
2974 23-01-2017 20:20:00 -1.4 C 4.13 g/m*3 -1.4 C 3.2 km/h
2975 23-01-2017 20:25:00 -1.4 C 4.13 g/m*3 -1.4 C 3.2 km/h
Sensor: Nr:Datum:Temp:Abs-Feuchte:Windchill:Wind:
Aussen-T/F 2976 23-01-2017 20:30:00 -1.4 C 4.13 g/m*3 -1.4 C 3.2 km/h
2977 23-01-2017 20:35:00 -1.4 C 4.13 g/m*3 -1.4 C 0 km/h
2978 23-01-2017 20:40:00 -1.4 C 4.13 g/m*3 -1.4 C 1.6 km/h
2979 23-01-2017 20:45:00 -1.3 C 4.16 g/m*3 -1.3 C 3.2 km/h
2980 23-01-2017 20:50:00 -1.3 C 4.16 g/m*3 -1.3 C 1.6 km/h
2981 23-01-2017 20:55:00 -1.3 C 4.16 g/m*3 -1.3 C 3.2 km/h
2982 23-01-2017 21:00:00 -1.3 C 4.16 g/m*3 -1.3 C 4.8 km/h
2983 23-01-2017 21:05:00 -1.3 C 4.16 g/m*3 -4.3 C 8.1 km/h
2984 23-01-2017 21:10:00 -1.3 C 4.16 g/m*3 -4.3 C 8.1 km/h
2985 23-01-2017 21:15:00 -1.3 C 4.16 g/m*3 -1.3 C 1.6 km/h
2986 23-01-2017 21:20:00 -1.3 C 4.16 g/m*3 -1.3 C 0 km/h
2987 23-01-2017 21:25:00 -1.3 C 4.16 g/m*3 -1.3 C 0 km/h
2988 23-01-2017 21:30:00 -1.3 C 4.16 g/m*3 -1.3 C 0 km/h
2989 23-01-2017 21:35:00 -1.3 C 4.16 g/m*3 -1.3 C 0 km/h
2990 23-01-2017 21:40:00 -1.3 C 4.16 g/m*3 -1.3 C 1.6 km/h
2991 23-01-2017 21:45:00 -1.3 C 4.16 g/m*3 -1.3 C 0 km/h
2992 23-01-2017 21:50:00 -1.3 C 4.16 g/m*3 -1.3 C 0 km/h
2993 23-01-2017 21:55:00 -1.3 C 4.16 g/m*3 -1.3 C 0 km/h
2994 23-01-2017 22:00:00 -1.3 C 4.16 g/m*3 -1.3 C 3.2 km/h
2995 23-01-2017 22:05:00 -1.3 C 4.16 g/m*3 -1.3 C 1.6 km/h
2996 23-01-2017 22:10:00 -1.3 C 4.16 g/m*3 -1.3 C 1.6 km/h
2997 23-01-2017 22:15:00 -1.3 C 4.16 g/m*3 -1.3 C 0 km/h
2998 23-01-2017 22:20:00 -1.3 C 4.16 g/m*3 -1.3 C 1.6 km/h
2999 23-01-2017 22:25:00 -1.3 C 4.16 g/m*3 -1.3 C 1.6 km/h
3000 23-01-2017 22:30:00 -1.3 C 4.16 g/m*3 -1.3 C 1.6 km/h
Sensor: Nr:Datum:Temp:Abs-Feuchte:Windchill:Wind:
Aussen-T/F 3001 23-01-2017 22:35:00 -1.3 C 4.16 g/m*3 -1.3 C 0 km/h
3002 23-01-2017 22:40:00 -1.3 C 4.16 g/m*3 -1.3 C 0 km/h
3003 23-01-2017 22:45:00 -1.3 C 4.16 g/m*3 -1.3 C 0 km/h
3004 23-01-2017 22:50:00 -1.3 C 4.16 g/m*3 -1.3 C 0 km/h
3005 23-01-2017 22:55:00 -1.3 C 4.16 g/m*3 -1.3 C 0 km/h
3006 23-01-2017 23:00:00 -1.3 C 4.16 g/m*3 -1.3 C 0 km/h
3007 23-01-2017 23:05:00 -1.3 C 4.16 g/m*3 -1.3 C 0 km/h
3008 23-01-2017 23:10:00 -1.3 C 4.16 g/m*3 -1.3 C 0 km/h
3009 23-01-2017 23:15:00 -1.3 C 4.16 g/m*3 -1.3 C 0 km/h
3010 23-01-2017 23:20:00 -1.3 C 4.16 g/m*3 -1.3 C 0 km/h
3011 23-01-2017 23:25:00 -1.3 C 4.16 g/m*3 -1.3 C 0 km/h
3012 23-01-2017 23:30:00 -1.3 C 4.16 g/m*3 -1.3 C 0 km/h
3013 23-01-2017 23:35:00 -1.3 C 4.16 g/m*3 -1.3 C 0 km/h
3014 23-01-2017 23:40:00 -1.3 C 4.16 g/m*3 -1.3 C 1.6 km/h
3015 23-01-2017 23:45:00 -1.3 C 4.16 g/m*3 -1.3 C 0 km/h
3016 23-01-2017 23:50:00 -1.4 C 4.13 g/m*3 -1.4 C 0 km/h
3017 23-01-2017 23:55:00 -1.4 C 4.13 g/m*3 -1.4 C 0 km/h
3018 24-01-2017 00:00:00 -1.4 C 4.13 g/m*3 -1.4 C 0 km/h
3019 24-01-2017 00:05:00 -1.4 C 4.13 g/m*3 -1.4 C 0 km/h
3020 24-01-2017 00:10:00 -1.4 C 4.13 g/m*3 -1.4 C 0 km/h
3021 24-01-2017 00:15:00 -1.4 C 4.13 g/m*3 -1.4 C 0 km/h
3022 24-01-2017 00:20:00 -1.4 C 4.13 g/m*3 -1.4 C 0 km/h
3023 24-01-2017 00:25:00 -1.4 C 4.13 g/m*3 -1.4 C 0 km/h
3024 24-01-2017 00:30:00 -1.4 C 4.13 g/m*3 -1.4 C 0 km/h
3025 24-01-2017 00:35:00 -1.4 C 4.13 g/m*3 -1.4 C 0 km/h
Sensor: Nr:Datum:Temp:Abs-Feuchte:Windchill:Wind:
Aussen-T/F 3026 24-01-2017 00:40:00 -1.4 C 4.13 g/m*3 -1.4 C 0 km/h
3027 24-01-2017 00:45:00 -1.4 C 4.13 g/m*3 -1.4 C 0 km/h
3028 24-01-2017 00:50:00 -1.4 C 4.13 g/m*3 -1.4 C 0 km/h
3029 24-01-2017 00:55:00 -1.4 C 4.13 g/m*3 -1.4 C 0 km/h
3030 24-01-2017 01:00:00 -1.4 C 4.13 g/m*3 -1.4 C 0 km/h
3031 24-01-2017 01:05:00 -1.4 C 4.13 g/m*3 -1.4 C 0 km/h
3032 24-01-2017 01:10:00 -1.4 C 4.13 g/m*3 -1.4 C 0 km/h
3033 24-01-2017 01:15:00 -1.4 C 4.13 g/m*3 -1.4 C 0 km/h
3034 24-01-2017 01:20:00 -1.5 C 4.1 g/m*3 -1.5 C 0 km/h
3035 24-01-2017 01:25:00 -1.5 C 4.06 g/m*3 -1.5 C 0 km/h
3036 24-01-2017 01:30:00 -1.5 C 4.06 g/m*3 -1.5 C 0 km/h
3037 24-01-2017 01:35:00 -1.5 C 4.06 g/m*3 -1.5 C 0 km/h
3038 24-01-2017 01:40:00 -1.6 C 4.03 g/m*3 -1.6 C 0 km/h
3039 24-01-2017 01:45:00 -1.6 C 4.03 g/m*3 -1.6 C 0 km/h
3040 24-01-2017 01:50:00 -1.6 C 4.03 g/m*3 -1.6 C 0 km/h
3041 24-01-2017 01:55:00 -1.6 C 4.03 g/m*3 -1.6 C 0 km/h
3042 24-01-2017 02:00:00 -1.6 C 4.03 g/m*3 -1.6 C 1.6 km/h
3043 24-01-2017 02:05:00 -1.6 C 4.03 g/m*3 -1.6 C 0 km/h
3044 24-01-2017 02:10:00 -1.6 C 4.03 g/m*3 -1.6 C 0 km/h
3045 24-01-2017 02:15:00 -1.6 C 4.03 g/m*3 -1.6 C 0 km/h
3046 24-01-2017 02:20:00 -1.6 C 4.03 g/m*3 -1.6 C 0 km/h
3047 24-01-2017 02:25:00 -1.6 C 4.03 g/m*3 -1.6 C 0 km/h
3048 24-01-2017 02:30:00 -1.6 C 4.03 g/m*3 -1.6 C 1.6 km/h
3049 24-01-2017 02:35:00 -1.7 C 4 g/m*3 -1.7 C 0 km/h
3050 24-01-2017 02:40:00 -1.7 C 4 g/m*3 -1.7 C 0 km/h
Sensor: Nr:Datum:Temp:Abs-Feuchte:Windchill:Wind:
Aussen-T/F 3051 24-01-2017 02:45:00 -1.7 C 4 g/m*3 -1.7 C 0 km/h
3052 24-01-2017 02:50:00 -1.7 C 4 g/m*3 -1.7 C 1.6 km/h
3053 24-01-2017 02:55:00 -1.7 C 4 g/m*3 -1.7 C 0 km/h
3054 24-01-2017 03:00:00 -1.7 C 4 g/m*3 -1.7 C 0 km/h
3055 24-01-2017 03:05:00 -1.7 C 4 g/m*3 -1.7 C 0 km/h
3056 24-01-2017 03:10:00 -1.7 C 4 g/m*3 -1.7 C 0 km/h
3057 24-01-2017 03:15:00 -1.7 C 4 g/m*3 -1.7 C 0 km/h
3058 24-01-2017 03:20:00 -1.7 C 4 g/m*3 -1.7 C 0 km/h
3059 24-01-2017 03:25:00 -1.7 C 4 g/m*3 -1.7 C 0 km/h
3060 24-01-2017 03:30:00 -1.7 C 4 g/m*3 -1.7 C 0 km/h
3061 24-01-2017 03:35:00 -1.7 C 4 g/m*3 -1.7 C 0 km/h
3062 24-01-2017 03:40:00 -1.7 C 4 g/m*3 -1.7 C 0 km/h
3063 24-01-2017 03:45:00 -1.7 C 4 g/m*3 -1.7 C 0 km/h
3064 24-01-2017 03:50:00 -1.7 C 4 g/m*3 -1.7 C 0 km/h
3065 24-01-2017 03:55:00 -1.7 C 4 g/m*3 -1.7 C 0 km/h
3066 24-01-2017 04:00:00 -1.8 C 3.98 g/m*3 -1.8 C 0 km/h
3067 24-01-2017 04:05:00 -1.8 C 3.98 g/m*3 -1.8 C 0 km/h
3068 24-01-2017 04:10:00 -1.8 C 3.98 g/m*3 -1.8 C 0 km/h
3069 24-01-2017 04:15:00 -1.8 C 3.98 g/m*3 -1.8 C 0 km/h
3070 24-01-2017 04:20:00 -1.8 C 3.98 g/m*3 -1.8 C 0 km/h
3071 24-01-2017 04:25:00 -1.8 C 3.98 g/m*3 -1.8 C 0 km/h
3072 24-01-2017 04:30:00 -1.8 C 3.98 g/m*3 -1.8 C 0 km/h
3073 24-01-2017 04:35:00 -1.8 C 3.98 g/m*3 -1.8 C 0 km/h
3074 24-01-2017 04:40:00 -1.9 C 3.95 g/m*3 -1.9 C 0 km/h
3075 24-01-2017 04:45:00 -1.9 C 3.95 g/m*3 -1.9 C 0 km/h
Sensor: Nr:Datum:Temp:Abs-Feuchte:Windchill:Wind:
Aussen-T/F 3076 24-01-2017 04:50:00 -1.9 C 3.95 g/m*3 -1.9 C 0 km/h
3077 24-01-2017 04:55:00 -1.9 C 3.95 g/m*3 -1.9 C 0 km/h
3078 24-01-2017 05:00:00 -1.9 C 3.95 g/m*3 -1.9 C 0 km/h
3079 24-01-2017 05:05:00 -1.9 C 3.95 g/m*3 -1.9 C 0 km/h
3080 24-01-2017 05:10:00 -1.9 C 3.95 g/m*3 -1.9 C 0 km/h
3081 24-01-2017 05:15:00 -1.9 C 3.95 g/m*3 -1.9 C 0 km/h
3082 24-01-2017 05:20:00 -1.9 C 3.95 g/m*3 -1.9 C 0 km/h
3083 24-01-2017 05:25:00 -1.9 C 3.99 g/m*3 -1.9 C 0 km/h
3084 24-01-2017 05:30:00 -1.9 C 3.99 g/m*3 -1.9 C 0 km/h
3085 24-01-2017 05:35:00 -1.9 C 3.99 g/m*3 -1.9 C 0 km/h
3086 24-01-2017 05:40:00 -1.9 C 3.99 g/m*3 -1.9 C 0 km/h
3087 24-01-2017 05:45:00 -1.9 C 3.99 g/m*3 -1.9 C 0 km/h
3088 24-01-2017 05:50:00 -1.9 C 3.99 g/m*3 -1.9 C 0 km/h
3089 24-01-2017 05:55:00 -1.9 C 3.99 g/m*3 -1.9 C 0 km/h
3090 24-01-2017 06:00:00 -1.8 C 4.02 g/m*3 -1.8 C 0 km/h
3091 24-01-2017 06:05:00 -1.8 C 4.02 g/m*3 -1.8 C 0 km/h
3092 24-01-2017 06:10:00 -1.9 C 3.99 g/m*3 -1.9 C 0 km/h
3093 24-01-2017 06:15:00 -1.8 C 4.02 g/m*3 -1.8 C 0 km/h
3094 24-01-2017 06:20:00 -1.8 C 4.02 g/m*3 -1.8 C 0 km/h
3095 24-01-2017 06:25:00 -1.8 C 4.02 g/m*3 -1.8 C 0 km/h
3096 24-01-2017 06:30:00 -1.8 C 4.02 g/m*3 -1.8 C 0 km/h
3097 24-01-2017 06:35:00 -1.8 C 4.02 g/m*3 -1.8 C 0 km/h
3098 24-01-2017 06:40:00 -1.8 C 4.02 g/m*3 -1.8 C 0 km/h
3099 24-01-2017 06:45:00 -1.8 C 4.02 g/m*3 -1.8 C 0 km/h
3100 24-01-2017 06:50:00 -1.8 C 4.02 g/m*3 -1.8 C 0 km/h
Sensor: Nr:Datum:Temp:Abs-Feuchte:Windchill:Wind:
Aussen-T/F 3101 24-01-2017 06:55:00 -1.8 C 4.02 g/m*3 -1.8 C 0 km/h
3102 24-01-2017 07:00:00 -1.8 C 4.02 g/m*3 -1.8 C 0 km/h
3103 24-01-2017 07:05:00 -1.8 C 4.02 g/m*3 -1.8 C 0 km/h
3104 24-01-2017 07:10:00 -1.8 C 4.02 g/m*3 -1.8 C 0 km/h
3105 24-01-2017 07:15:00 -1.8 C 4.02 g/m*3 -1.8 C 0 km/h
3106 24-01-2017 07:20:00 -1.8 C 4.02 g/m*3 -1.8 C 0 km/h
3107 24-01-2017 07:25:00 -1.8 C 4.02 g/m*3 -1.8 C 0 km/h
3108 24-01-2017 07:30:00 -1.8 C 4.02 g/m*3 -1.8 C 0 km/h
3109 24-01-2017 07:35:00 -1.8 C 4.02 g/m*3 -1.8 C 0 km/h
3110 24-01-2017 07:40:00 -1.8 C 4.02 g/m*3 -1.8 C 0 km/h
3111 24-01-2017 07:45:00 -1.8 C 4.02 g/m*3 -1.8 C 0 km/h
3112 24-01-2017 07:50:00 -1.8 C 4.02 g/m*3 -1.8 C 0 km/h
3113 24-01-2017 07:55:00 -1.8 C 4.02 g/m*3 -1.8 C 0 km/h
3114 24-01-2017 08:00:00 -1.8 C 4.02 g/m*3 -1.8 C 0 km/h
3115 24-01-2017 08:05:00 -1.8 C 4.02 g/m*3 -1.8 C 0 km/h
3116 24-01-2017 08:10:00 -1.8 C 4.02 g/m*3 -1.8 C 0 km/h
3117 24-01-2017 08:15:00 -1.8 C 4.02 g/m*3 -1.8 C 0 km/h
3118 24-01-2017 08:20:00 -1.8 C 4.02 g/m*3 -1.8 C 0 km/h
3119 24-01-2017 08:25:00 -1.8 C 4.02 g/m*3 -1.8 C 0 km/h
3120 24-01-2017 08:30:00 -1.8 C 4.02 g/m*3 -1.8 C 0 km/h
3121 24-01-2017 08:35:00 -1.8 C 4.02 g/m*3 -1.8 C 0 km/h
3122 24-01-2017 08:40:00 -1.8 C 4.02 g/m*3 -1.8 C 0 km/h
3123 24-01-2017 08:45:00 -1.8 C 4.02 g/m*3 -1.8 C 0 km/h
3124 24-01-2017 08:50:00 -1.8 C 4.02 g/m*3 -1.8 C 0 km/h
3125 24-01-2017 08:55:00 -1.7 C 4.05 g/m*3 -1.7 C 0 km/h
Sensor: Nr:Datum:Temp:Abs-Feuchte:Windchill:Wind:
Aussen-T/F 3126 24-01-2017 09:00:00 -1.7 C 4.05 g/m*3 -1.7 C 0 km/h
3127 24-01-2017 09:05:00 -1.7 C 4.05 g/m*3 -1.7 C 0 km/h
3128 24-01-2017 09:10:00 -1.7 C 4.05 g/m*3 -1.7 C 0 km/h
3129 24-01-2017 09:15:00 -1.7 C 4.05 g/m*3 -1.7 C 0 km/h
3130 24-01-2017 09:20:00 -1.6 C 4.07 g/m*3 -1.6 C 0 km/h
3131 24-01-2017 09:25:00 -1.6 C 4.07 g/m*3 -1.6 C 0 km/h
3132 24-01-2017 09:30:00 -1.6 C 4.07 g/m*3 -1.6 C 0 km/h
3133 24-01-2017 09:35:00 -1.5 C 4.1 g/m*3 -1.5 C 0 km/h
3134 24-01-2017 09:40:00 -1.4 C 4.13 g/m*3 -1.4 C 1.6 km/h
3135 24-01-2017 09:45:00 -1.4 C 4.13 g/m*3 -1.4 C 1.6 km/h
3136 24-01-2017 09:50:00 -1.3 C 4.16 g/m*3 -1.3 C 1.6 km/h
3137 24-01-2017 09:55:00 -1.2 C 4.19 g/m*3 -1.2 C 3.2 km/h
3138 24-01-2017 10:00:00 -1.2 C 4.19 g/m*3 -1.2 C 4.8 km/h
3139 24-01-2017 10:05:00 -1.2 C 4.15 g/m*3 -1.2 C 4.8 km/h
3140 24-01-2017 10:10:00 -1.1 C 4.17 g/m*3 -1.1 C 3.2 km/h
3141 24-01-2017 10:15:00 -1.1 C 4.17 g/m*3 -1.1 C 0 km/h
3142 24-01-2017 10:20:00 -1 C 4.2 g/m*3 -1 C 0 km/h
3143 24-01-2017 10:25:00 -0.9 C 4.23 g/m*3 -0.9 C 0 km/h
3144 24-01-2017 10:30:00 -0.9 C 4.23 g/m*3 -0.9 C 0 km/h
3145 24-01-2017 10:35:00 -0.8 C 4.26 g/m*3 -0.8 C 0 km/h
3146 24-01-2017 10:40:00 -0.8 C 4.26 g/m*3 -0.8 C 0 km/h
3147 24-01-2017 10:45:00 -0.7 C 4.25 g/m*3 -0.7 C 0 km/h
3148 24-01-2017 10:50:00 -0.7 C 4.25 g/m*3 -0.7 C 1.6 km/h
3149 24-01-2017 10:55:00 -0.7 C 4.25 g/m*3 -0.7 C 0 km/h
3150 24-01-2017 11:00:00 -0.7 C 4.25 g/m*3 -0.7 C 0 km/h
Sensor: Nr:Datum:Temp:Abs-Feuchte:Windchill:Wind:
Aussen-T/F 3151 24-01-2017 11:05:00 -0.7 C 4.25 g/m*3 -0.7 C 0 km/h
3152 24-01-2017 11:10:00 -0.6 C 4.28 g/m*3 -0.6 C 0 km/h
3153 24-01-2017 11:15:00 -0.6 C 4.28 g/m*3 -0.6 C 0 km/h
3154 24-01-2017 11:20:00 -0.4 C 4.34 g/m*3 -0.4 C 0 km/h
3155 24-01-2017 11:25:00 -0.3 C 4.37 g/m*3 -0.3 C 0 km/h
3156 24-01-2017 11:30:00 -0.4 C 4.24 g/m*3 -0.4 C 1.6 km/h
3157 24-01-2017 11:35:00 -0.4 C 4.24 g/m*3 -0.4 C 0 km/h
3158 24-01-2017 11:40:00 -0.4 C 4.24 g/m*3 -0.4 C 0 km/h
3159 24-01-2017 11:45:00 -0.4 C 4.24 g/m*3 -0.4 C 0 km/h
3160 24-01-2017 11:50:00 -0.4 C 4.24 g/m*3 -0.4 C 0 km/h
3161 24-01-2017 11:55:00 -0.4 C 4.29 g/m*3 -0.4 C 0 km/h
3162 24-01-2017 12:00:00 -0.4 C 4.29 g/m*3 -0.4 C 0 km/h
3163 24-01-2017 12:05:00 -0.3 C 4.32 g/m*3 -0.3 C 0 km/h
3164 24-01-2017 12:10:00 -0.2 C 4.3 g/m*3 -0.2 C 0 km/h
3165 24-01-2017 12:15:00 -0.2 C 4.3 g/m*3 -0.2 C 0 km/h
3166 24-01-2017 12:20:00 -0.2 C 4.3 g/m*3 -0.2 C 0 km/h
3167 24-01-2017 12:25:00 -0.2 C 4.3 g/m*3 -0.2 C 0 km/h
3168 24-01-2017 12:30:00 -0.2 C 4.3 g/m*3 -0.2 C 0 km/h
3169 24-01-2017 12:35:00 -0.2 C 4.3 g/m*3 -0.2 C 0 km/h
3170 24-01-2017 12:40:00 -0.1 C 4.33 g/m*3 -0.1 C 0 km/h
3171 24-01-2017 12:45:00 0 C 4.36 g/m*3 0 C 0 km/h
3172 24-01-2017 12:50:00 0.1 C 4.39 g/m*3 0.1 C 0 km/h
3173 24-01-2017 12:55:00 0.2 C 4.37 g/m*3 0.2 C 0 km/h
3174 24-01-2017 13:00:00 0.3 C 4.4 g/m*3 0.3 C 0 km/h
3175 24-01-2017 13:05:00 0.3 C 4.4 g/m*3 0.3 C 0 km/h
Sensor: Nr:Datum:Temp:Abs-Feuchte:Windchill:Wind:
Aussen-T/F 3176 24-01-2017 13:10:00 0.3 C 4.4 g/m*3 0.3 C 0 km/h
3177 24-01-2017 13:15:00 0.3 C 4.35 g/m*3 0.3 C 0 km/h
3178 24-01-2017 13:20:00 0.2 C 4.32 g/m*3 0.2 C 0 km/h
3179 24-01-2017 13:25:00 0.2 C 4.32 g/m*3 0.2 C 0 km/h
3180 24-01-2017 13:30:00 0.2 C 4.32 g/m*3 0.2 C 0 km/h
3181 24-01-2017 13:35:00 0.2 C 4.32 g/m*3 0.2 C 0 km/h
3182 24-01-2017 13:40:00 0.2 C 4.32 g/m*3 0.2 C 0 km/h
3183 24-01-2017 13:45:00 0.2 C 4.32 g/m*3 0.2 C 0 km/h
3184 24-01-2017 13:50:00 0.2 C 4.32 g/m*3 0.2 C 0 km/h
3185 24-01-2017 13:55:00 0.2 C 4.37 g/m*3 0.2 C 0 km/h
3186 24-01-2017 14:00:00 0.2 C 4.37 g/m*3 0.2 C 0 km/h
3187 24-01-2017 14:05:00 0.3 C 4.4 g/m*3 0.3 C 0 km/h
3188 24-01-2017 14:10:00 0.3 C 4.4 g/m*3 0.3 C 0 km/h
3189 24-01-2017 14:15:00 0.3 C 4.35 g/m*3 0.3 C 0 km/h
3190 24-01-2017 14:20:00 0.3 C 4.35 g/m*3 0.3 C 0 km/h
3191 24-01-2017 14:25:00 0.3 C 4.35 g/m*3 0.3 C 0 km/h
3192 24-01-2017 14:30:00 0.3 C 4.35 g/m*3 0.3 C 0 km/h
3193 24-01-2017 14:35:00 0.3 C 4.35 g/m*3 0.3 C 0 km/h
3194 24-01-2017 14:40:00 0.3 C 4.35 g/m*3 0.3 C 0 km/h
3195 24-01-2017 14:45:00 0.3 C 4.35 g/m*3 0.3 C 0 km/h
3196 24-01-2017 14:50:00 0.3 C 4.35 g/m*3 0.3 C 0 km/h
3197 24-01-2017 14:55:00 0.3 C 4.4 g/m*3 0.3 C 0 km/h
3198 24-01-2017 15:00:00 0.3 C 4.4 g/m*3 0.3 C 0 km/h
3199 24-01-2017 15:05:00 0.3 C 4.4 g/m*3 0.3 C 0 km/h
3200 24-01-2017 15:10:00 0.3 C 4.4 g/m*3 0.3 C 0 km/h
Sensor: Nr:Datum:Temp:Abs-Feuchte:Windchill:Wind:
Aussen-T/F 3201 24-01-2017 15:15:00 0.3 C 4.35 g/m*3 0.3 C 0 km/h
3202 24-01-2017 15:20:00 0.3 C 4.4 g/m*3 0.3 C 0 km/h
3203 24-01-2017 15:25:00 0.3 C 4.4 g/m*3 0.3 C 0 km/h
3204 24-01-2017 15:30:00 0.3 C 4.4 g/m*3 0.3 C 0 km/h
3205 24-01-2017 15:35:00 0.3 C 4.4 g/m*3 0.3 C 0 km/h
3206 24-01-2017 15:40:00 0.3 C 4.4 g/m*3 0.3 C 0 km/h
3207 24-01-2017 15:45:00 0.3 C 4.4 g/m*3 0.3 C 0 km/h
3208 24-01-2017 15:50:00 0.3 C 4.4 g/m*3 0.3 C 0 km/h
3209 24-01-2017 15:55:00 0.3 C 4.4 g/m*3 0.3 C 0 km/h
3210 24-01-2017 16:00:00 0.3 C 4.4 g/m*3 0.3 C 0 km/h
3211 24-01-2017 16:05:00 0.3 C 4.4 g/m*3 0.3 C 0 km/h
3212 24-01-2017 16:10:00 0.3 C 4.45 g/m*3 0.3 C 0 km/h
3213 24-01-2017 16:15:00 0.3 C 4.45 g/m*3 0.3 C 0 km/h
3214 24-01-2017 16:20:00 0.3 C 4.45 g/m*3 0.3 C 0 km/h
3215 24-01-2017 16:25:00 0.3 C 4.45 g/m*3 0.3 C 0 km/h
3216 24-01-2017 16:30:00 0.3 C 4.45 g/m*3 0.3 C 0 km/h
3217 24-01-2017 16:35:00 0.3 C 4.5 g/m*3 0.3 C 0 km/h
3218 24-01-2017 16:40:00 0.3 C 4.5 g/m*3 0.3 C 0 km/h
3219 24-01-2017 16:45:00 0.3 C 4.5 g/m*3 0.3 C 0 km/h
3220 24-01-2017 16:50:00 0.2 C 4.47 g/m*3 0.2 C 0 km/h
3221 24-01-2017 16:55:00 0.2 C 4.47 g/m*3 0.2 C 0 km/h
3222 24-01-2017 17:00:00 0.2 C 4.47 g/m*3 0.2 C 0 km/h
3223 24-01-2017 17:05:00 0.1 C 4.44 g/m*3 0.1 C 0 km/h
3224